Date	Time of Day	Time of Run (sec)	Data PointGroup	Data Point Number	N1 Frequency (Hz)	N1 Percent	N1 RPM (51,120)	N2 Frequency (Hz)	N2 Percent	N2 RPM (35,000)	Engine TOT (F)	Air Plenum Temperature (F)	Ambient Temperature (F)	Ambient Pressure (psia)	Ambient Relative Humidity	Compressor Bleed Temperature (F)	Compressor Bleed Pressure (psig)	Bleed Temperature (F)	Bleed Pressure (in H2O)	Bleed Pressure (psia)	Bleed DP Pressure (in H2O)	Bleed Air SV	Sample	Orifice Plate	Sonic Orifice Plate Dia.	Dyno RPM	Dyno Torque (lbf*ft)	Dyno HorsePower (Hp)	Compressor Bleed Pressure (psia)	Compressor Pressure Ratio	Compressor Bleed Temperature (C)	Comp Simple Isentropic Temp Expected (C)	Bleed Air Mass Flow (lbm/min)	Bleed Air Volumetric Flow (SCFM)	Bleed Air Volumetric Flow (LPM)
8/29/2014 3:57:36 PM	15:57:36	0	A	2	-1	0	0	0	0	0	88.26026	94.47422	89.16937	14.12888	45.36	88.12805	-0.2700043	86.93814	-0.2490005	14.11973	1.300049E-02	0	1	1	0.15	-2	-0.2001953	1.522825E-04	13.85887	0.9808899	31.18225	33.04574	9.230717E-02	1.206821	34.17332
8/29/2014 3:57:46 PM	15:57:46	0	A	2	-1	0	0	0	0	0	88.30433	94.82679	89.22064	14.12888	45.28	87.99583	-0.2700043	87.07035	-0.2469997	14.12013	1.399994E-02	0	1	1	0.15	-2	-0.2001953	1.522825E-04	13.85887	0.9808899	31.1088	33.24058	9.229773E-02	1.206698	34.16983
8/29/2014 3:57:56 PM	15:57:56	0	A	2	-1	0	0	0	0	0	87.99583	94.69456	89.23776	14.12888	45.14	88.17212	-0.2749939	86.93814	-0.2609997	14.11952	1.300049E-02	0	1	1	0.15	-2	-0.3999023	7.623425E-05	13.85388	0.9805368	31.20673	33.13655	9.230645E-02	1.206812	34.17306
8/29/2014 3:58:06 PM	15:58:06	0	A	2	-1	0	0	0	0	0	88.03991	94.73865	89.28049	14.12888	45.215	88.12805	-0.2749939	86.93814	-0.2210007	14.11966	1.399994E-02	0	1	1	0.15	-2	-0.2001953	7.623425E-05	13.85388	0.9805368	31.18225	33.16093	9.569755E-02	1.251147	35.42849
8/29/2014 3:58:16 PM	15:58:16	0	A	2	-1	0	0	0	0	0	88.17212	94.03352	89.28049	14.12888	45.215	88.12805	-0.2749939	87.07035	-0.2679996	14.11923	1.499939E-02	0	1	1	0.15	-2	0	7.623425E-05	13.85887	0.9808899	31.18225	32.80225	9.895907E-02	1.293788	36.63594
8/29/2014 3:58:26 PM	15:58:26	0	A	2	-1	0	0	0	0	0	88.30433	94.342	89.31473	14.1285	45.23	88.17212	-0.2700043	87.11443	-0.2539997	14.11936	1.399994E-02	0	1	1	0.15	-2	-3.399902	1.294681E-03	13.8585	0.9808894	31.20673	32.97267	9.568169E-02	1.25094	35.42262
8/29/2014 3:58:36 PM	15:58:36	0	A	2	-1	0	0	0	0	0	88.12805	93.76909	89.366	14.1285	45.155	88.17212	-0.2700043	87.11443	-0.2530003	14.11943	1.399994E-02	0	1	1	0.15	-2	-9.799805	3.807993E-03	13.8585	0.9808894	31.20673	32.65607	9.568193E-02	1.250943	35.4227
8/29/2014 3:58:46 PM	15:58:46	0	A	2	-1	0	0	0	0	0	88.03991	93.28431	89.366	14.1285	45.155	88.03991	-0.2749939	87.11443	-0.257	14.1191	1.300049E-02	0	1	1	0.15	-2	-14.3999	5.407425E-03	13.85351	0.9805362	31.13328	32.35736	0.0922908	1.206607	34.16726
8/29/2014 3:58:56 PM	15:58:56	0	A	2	-1	0	0	0	0	0	88.21619	93.72502	89.38312	14.12888	44.42	88.17212	-0.2799988	86.98222	-0.2530003	14.11959	1.199913E-02	0	1	1	0.15	-2	-9	3.655711E-03	13.84888	0.9801825	31.20673	32.56987	9.230311E-02	1.206768	34.17182
8/29/2014 3:59:06 PM	15:59:06	0	A	2	-1	0	0	0	0	0	88.30433	94.16573	89.41727	14.1285	44.765	88.17212	-0.2799988	87.11443	-0.257	14.11903	0.0170002	0	1	1	0.15	-2	-0.2001953	1.522825E-04	13.8485	0.980182	31.20673	32.8133	0.1054557	1.378725	39.04108
8/29/2014 3:59:16 PM	15:59:16	0	A	2	0	0	0	0	0	0	88.12805	94.29794	89.41727	14.1285	44.765	88.21619	-0.2850037	87.02628	-0.25	14.11939	1.499939E-02	0	1	1	0.15	-2	-0.3999023	1.522825E-04	13.8485	0.980182	31.23122	32.88634	9.896348E-02	1.293846	36.63757
8/29/2014 3:59:26 PM	15:59:26	0	A	2	-1	0	0	0	0	0	87.9077	94.12166	89.44296	14.12812	44.845	88.08398	-0.2799988	87.02628	-0.2539997	14.11916	1.300049E-02	0	1	1	0.15	-2	0	7.623425E-05	13.84312	0.9798272	31.15777	32.75789	9.229815E-02	1.206704	34.16998
8/29/2014 3:59:36 PM	15:59:36	0	A	2	-1	0	0	0	0	0	87.99583	94.342	89.4686	14.12812	45.23	88.21619	-0.2899933	87.02628	-0.2539997	14.11876	1.300049E-02	0	1	1	0.15	-2	-0.2001953	2.285168E-04	13.84312	0.9798272	31.23122	32.87959	9.568708E-02	1.25101	35.42461
8/29/2014 3:59:46 PM	15:59:46	0	A	2	-1	0	0	0	0	0	87.81956	93.5928	89.4686	14.12812	45.23	88.21619	-0.2850037	87.02628	-0.2479992	14.11876	1.099968E-02	0	1	1	0.15	-2	-0.3999023	1.522825E-04	13.84813	0.9801815	31.23122	32.49677	8.470167E-02	1.107387	31.35767
8/29/2014 3:59:56 PM	15:59:56	0	A	2	-1	0	0	0	0	0	87.95177	93.94537	89.46005	14.12888	44.345	88.21619	-0.2850037	87.02628	-0.2460003	14.12013	1.499939E-02	0	1	1	0.15	-2	-0.2001953	1.522825E-04	13.84387	0.9798283	31.23122	32.66058	9.896606E-02	1.29388	36.63853
8/29/2014 4:00:06 PM	16:00:06	0	A	2	-1	0	0	0	0	0	87.95177	94.38609	89.48569	14.12812	44.565	88.21619	-0.2850037	87.1585	-0.2490005	14.1188	1.499939E-02	0	1	1	0.15	-2	-0.2001953	1.522825E-04	13.83813	0.9794741	31.23122	32.87301	9.894992E-02	1.293669	36.63256
8/29/2014 4:00:16 PM	16:00:16	0	A	2	-1	0	0	0	0	0	87.99583	93.50466	89.48569	14.12812	44.565	88.21619	-0.2850037	87.1585	-0.2520008	14.11909	1.399994E-02	0	1	1	0.15	-2	-0.2001953	1.522825E-04	13.84312	0.9798272	31.23122	32.41708	9.895094E-02	1.293682	36.63293
8/29/2014 4:00:26 PM	16:00:26	0	A	2	-1	0	0	0	0	0	88.17212	92.93174	89.4686	14.12775	44.355	88.26026	-0.2850037	87.07035	-0.2369995	14.11918	1.399994E-02	0	1	1	0.15	-2	-0.2001953	1.522825E-04	13.84274	0.9798267	31.2557	32.10054	9.568482E-02	1.250981	35.42377
8/29/2014 4:00:36 PM	16:00:36	0	A	2	-1	0	0	0	0	0	87.99583	92.97582	89.47717	14.12775	43.955	88.26026	-0.2850037	87.07035	-0.2590008	14.1185	1.099968E-02	0	1	1	0.15	-2	-0.2001953	7.623425E-05	13.84274	0.9798267	31.2557	32.12486	8.469761E-02	1.107334	31.35616
8/29/2014 4:00:46 PM	16:00:46	0	A	2	-1	0	0	0	0	0	87.99583	92.35883	89.47717	14.12775	43.955	88.26026	-0.2850037	87.07035	-0.2520008	14.11868	1.799965E-02	0	1	1	0.15	-2	-0.3999023	1.522825E-04	13.84274	0.9798267	31.2557	31.78408	0.1084377	1.417712	40.14506
8/29/2014 4:00:56 PM	16:00:56	0	A	2	-1	0	0	0	0	0	87.99583	91.30114	89.48569	14.12737	43.815	88.30433	-0.2850037	87.11443	-0.2380009	14.11845	1.600075E-02	0	1	1	0.15	-2	-0.3999023	7.623425E-05	13.84237	0.9798262	31.28018	31.19977	0.1023878	1.338615	37.9053
8/29/2014 4:01:06 PM	16:01:06	0	A	2	-1	0	0	0	0	0	87.99583	90.64008	89.49423	14.12737	43.955	88.43655	-0.2799988	87.11443	-0.2450008	14.11866	1.300049E-02	0	1	1	0.15	-2	-0.2001953	7.623425E-05	13.84738	0.9801804	31.35364	30.86543	9.228937E-02	1.206589	34.16673
8/29/2014 4:01:16 PM	16:01:16	0	A	2	-1	0	0	0	0	0	88.08398	90.02309	89.49423	14.12737	43.955	88.43655	-0.2799988	87.11443	-0.2490005	14.11841	0.0170002	0	1	1	0.15	-2	-0.2001953	1.522825E-04	13.85238	0.9805347	31.35364	30.55537	0.1054534	1.378695	39.04023
8/29/2014 4:01:26 PM	16:01:26	0	A	2	-1	0	0	0	0	0	88.21619	89.18575	89.51135	14.127	43.97501	88.30433	-0.2749939	87.24664	-0.25	14.11782	1.600075E-02	0	1	1	0.15	-2	-0.3999023	7.623425E-05	13.85201	0.9805341	31.28018	30.09272	0.1023736	1.33843	37.90005
8/29/2014 4:01:36 PM	16:01:36	0	A	2	-1	0	0	0	0	0	88.03991	88.78911	89.51993	14.12737	44.06	88.3484	-0.2749939	87.29071	-0.2520008	14.11809	1.499939E-02	0	1	1	0.15	-2	-0.2001953	0	13.84738	0.9801804	31.30467	29.84289	0.0989359	1.293485	36.62737
8/29/2014 4:01:46 PM	16:01:46	0	A	2	-1	0	0	0	0	0	88.30433	90.24344	89.51993	14.12737	44.06	88.3484	-0.2749939	87.1585	-0.2679996	14.1183	1.199913E-02	0	1	1	0.15	-2	-0.2001953	7.623425E-05	13.85238	0.9805347	31.30467	30.53102	8.867235E-02	1.1593	32.82766
8/29/2014 4:01:56 PM	16:01:56	0	A	2	-1	0	0	0	0	0	88.52469	89.80274	89.53699	14.12737	44.28999	88.48061	-0.2749939	87.1585	-0.2490005	14.11776	1.399994E-02	0	1	1	0.15	-2	-0.2001953	1.522825E-04	13.85238	0.9805347	31.37812	30.43364	9.567258E-02	1.250821	35.41924
8/29/2014 4:02:06 PM	16:02:06	0	A	2	-1	0	0	0	0	0	88.39248	89.89088	89.53699	14.12737	44.56	88.52469	-0.2649994	87.20257	-0.2369995	14.11888	1.499939E-02	0	1	1	0.15	-2	-0.2001953	7.623425E-05	13.85737	0.9808879	31.40261	30.51305	9.894636E-02	1.293622	36.63123
8/29/2014 4:02:16 PM	16:02:16	0	A	2	-1	0	0	0	0	0	88.52469	91.03671	89.53699	14.12737	44.56	88.48061	-0.2649994	87.1585	-0.2150002	14.11885	1.099968E-02	0	1	1	0.15	-2	-0.2001953	7.623425E-05	13.86238	0.9812421	31.37812	31.17698	9.228639E-02	1.20655	34.16563
8/29/2014 4:02:26 PM	16:02:26	0	A	2	-1	0	0	0	0	0	88.83318	92.31477	89.5712	14.12663	44.55	88.3484	-0.2599945	87.29071	-0.2549992	14.11806	1.600075E-02	0	1	1	0.15	-2	-0.2001953	7.623425E-05	13.86163	0.9812412	31.30467	31.88319	0.1023705	1.338389	37.8989
8/29/2014 4:02:36 PM	16:02:36	0	A	2	-1	0	0	0	0	0	88.78911	93.19617	89.5712	14.12663	44.55	88.48061	-0.2599945	87.1585	-0.2399998	14.11773	1.499939E-02	0	1	1	0.15	-2	0	7.623425E-05	13.86663	0.9815954	31.37812	32.40121	9.894618E-02	1.29362	36.63117
8/29/2014 4:02:46 PM	16:02:46	0	A	2	-1	0	0	0	0	0	88.6569	93.72502	89.57977	14.127	44.575	88.48061	-0.2599945	87.42292	-0.2509995	14.11793	1.300049E-02	0	1	1	0.15	-2	-0.2001953	1.522825E-04	13.86701	0.9815959	31.37812	32.6935	9.226196E-02	1.206231	34.15659
8/29/2014 4:02:56 PM	16:02:56	0	A	2	-1	0	0	0	0	0	88.6569	93.72502	89.63104	14.12737	44.64	88.48061	-0.2649994	87.29071	-0.2579994	14.11856	1.300049E-02	0	1	1	0.15	-2	-0.3999023	1.522825E-04	13.86738	0.9815964	31.37812	32.69357	9.227472E-02	1.206397	34.16131
8/29/2014 4:03:06 PM	16:03:06	0	A	2	-1	0	0	0	0	0	88.48061	94.342	89.65671	14.12737	44.64	88.48061	-0.2649994	87.29071	-0.2479992	14.11859	1.300049E-02	0	1	1	0.15	-2	-0.6000977	2.285168E-04	13.86738	0.9815964	31.37812	33.03455	9.566428E-02	1.250712	35.41616
8/29/2014 4:03:16 PM	16:03:16	0	A	2	-1	0	0	0	0	0	88.48061	95.00306	89.65671	14.12663	44.52499	88.48061	-0.2700043	87.1585	-0.2409992	14.11777	1.600075E-02	0	1	1	0.15	-2	-0.6000977	2.285168E-04	13.86163	0.9812412	31.37812	33.36879	0.1023814	1.338531	37.90292
8/29/2014 4:03:26 PM	16:03:26	0	A	2	-1	0	0	0	0	0	88.48061	95.35563	89.68237	14.12625	44.5	88.3484	-0.2700043	87.1585	-0.257	14.11689	1.000023E-02	0	1	1	0.15	-2	-0.6000977	1.522825E-04	13.85625	0.9808863	31.30467	33.53246	7.654746E-02	1.00078	28.33887
8/29/2014 4:03:36 PM	16:03:36	0	A	2	-1	0	0	0	0	0	88.3484	95.75226	89.69089	14.12663	44.285	88.39248	-0.2749939	87.33478	-0.2259998	14.11734	1.000023E-02	0	1	1	0.15	-2	-0.3999023	2.285168E-04	13.85662	0.9808869	31.32916	33.75165	8.082582E-02	1.056715	29.92278
8/29/2014 4:03:46 PM	16:03:46	0	A	2	-1	0	0	0	0	0	88.30433	95.48785	89.69089	14.12663	44.285	88.48061	-0.2749939	87.29071	-0.2409992	14.11705	1.499939E-02	0	1	1	0.15	-2	-0.3999023	2.285168E-04	13.85662	0.9808869	31.37812	33.60557	9.893227E-02	1.293438	36.62602
8/29/2014 4:03:56 PM	16:03:56	0	A	2	-1	0	0	0	0	0	88.26026	95.17935	89.69943	14.127	43.67	88.48061	-0.2749939	87.29071	-0.2390003	14.11876	1.399994E-02	0	1	1	0.15	-2	-0.3999023	1.522825E-04	13.847	0.9801799	31.37812	33.37309	8.468199E-02	1.10713	31.35038
8/29/2014 4:04:06 PM	16:04:06	0	A	2	-1	0	0	0	0	0	88.39248	93.54874	89.69089	14.12663	44.08	88.52469	-0.2850037	87.33478	-0.2140007	14.11864	1.399994E-02	0	1	1	0.15	-2	-0.3999023	1.522825E-04	13.84663	0.9801794	31.40261	32.47221	0.1084124	1.41738	40.13568
8/29/2014 4:04:16 PM	16:04:16	0	A	2	0	0	0	1	0	0	88.3484	92.22661	89.69089	14.12663	44.08	88.52469	-0.2749939	87.33478	-0.2220001	14.11864	1.600075E-02	0	1	1	0.15	-2	-0.3999023	1.522825E-04	13.84663	0.9801794	31.40261	31.74183	8.082955E-02	1.056763	29.92416
8/29/2014 4:04:26 PM	16:04:26	0	A	2	-1	0	0	0	0	0	88.21619	92.00626	89.6738	14.12625	44.23	88.39248	-0.2749939	87.33478	-0.243	14.11819	1.199913E-02	0	1	1	0.15	-2	-0.6000977	1.522825E-04	13.85126	0.9805331	31.32916	31.65095	8.865827E-02	1.159116	32.82245
8/29/2014 4:04:36 PM	16:04:36	0	A	2	-1	0	0	0	0	0	88.39248	92.4029	89.6738	14.12625	44.23	88.39248	-0.2799988	87.20257	-0.2169991	14.11772	1.600075E-02	0	1	1	0.15	-2	-0.2001953	2.285168E-04	13.84625	0.9801788	31.40261	31.83918	0.1054426	1.378554	39.03625
8/29/2014 4:04:46 PM	16:04:46	0	A	2	-1	0	0	0	0	0	88.56876	93.01989	89.68237	14.12588	43.96001	88.43655	-0.2749939	87.37885	-0.2250004	14.11811	1.099968E-02	0	1	1	0.15	-2	-0.2001953	7.623425E-05	13.85088	0.9805326	31.35364	32.21091	8.467346E-02	1.107018	31.34722
8/29/2014 4:04:56 PM	16:04:56	0	A	2	-1	0	0	0	0	0	88.56876	93.10803	89.66525	14.12663	44.33501	88.56876	-0.2700043	87.37885	-0.2549992	14.11846	1.600075E-02	0	1	1	0.15	-2	-0.3999023	1.522825E-04	13.85662	0.9808869	31.42709	32.36367	0.102364	1.338304	37.89649
8/29/2014 4:05:06 PM	16:05:06	0	A	2	-1	0	0	0	0	0	88.61282	93.41653	89.65671	14.12663	44.24001	88.43655	-0.2700043	87.37885	-0.2600002	14.11824	1.600075E-02	0	1	1	0.15	-2	-0.3999023	7.623425E-05	13.85662	0.9808869	31.35364	32.46106	8.865499E-02	1.159073	32.82124
8/29/2014 4:05:16 PM	16:05:16	0	A	2	-1	0	0	1	0	0	88.52469	93.37246	89.65671	14.12663	44.24001	88.52469	-0.2649994	87.33478	-0.1949997	14.1186	1.199913E-02	0	1	1	0.15	-2	-0.3999023	7.623425E-05	13.85662	0.9808869	31.40261	32.43671	7.654024E-02	1.000685	28.33619
8/29/2014 4:05:26 PM	16:05:26	0	A	2	-1	0	0	0	0	0	88.74504	93.76909	89.6738	14.12625	43.925	88.39248	-0.2649994	87.33478	-0.2329998	14.11693	1.000023E-02	0	1	1	0.15	-2	-0.6000977	1.522825E-04	13.85625	0.9808863	31.32916	32.65579	6.769547E-02	0.8850488	25.06175
8/29/2014 4:05:36 PM	16:05:36	0	A	2	-1	0	0	0	0	0	88.6569	93.06396	89.69089	14.12625	44.05499	88.52469	-0.2649994	87.33478	-0.2490005	14.11761	1.300049E-02	0	1	1	0.15	-2	-0.6000977	1.522825E-04	13.86125	0.9812406	31.40261	32.29715	9.565726E-02	1.25062	35.41357
8/29/2014 4:05:46 PM	16:05:46	0	A	2	-1	0	0	0	0	0	88.74504	93.46059	89.69089	14.12625	44.05499	88.43655	-0.2700043	87.37885	-0.2250004	14.11664	1.099968E-02	0	1	1	0.15	-2	-0.6000977	1.522825E-04	13.86125	0.9812406	31.35364	32.51633	8.864995E-02	1.159007	32.81937
8/29/2014 4:05:56 PM	16:05:56	0	A	2	-1	0	0	0	0	0	88.61282	93.94537	89.70801	14.12588	43.785	88.43655	-0.2700043	87.37885	-0.2530003	14.11673	1.399994E-02	0	1	1	0.15	-2	-0.6000977	1.522825E-04	13.85587	0.9808859	31.35364	32.75314	0.1023577	1.338222	37.89417
8/29/2014 4:06:06 PM	16:06:06	0	A	2	-1	0	0	0	0	0	88.48061	94.12166	89.71655	14.12663	43.86	88.43655	-0.2649994	87.37885	-0.2150002	14.11929	1.799965E-02	0	1	1	0.15	-2	-0.3999023	2.285168E-04	13.85662	0.9808869	31.35364	32.8507	0.1084107	1.417358	40.13505
8/29/2014 4:06:16 PM	16:06:16	0	A	2	-1	0	0	0	0	0	88.43655	93.41653	89.71655	14.12663	43.86	88.48061	-0.2749939	87.42292	-0.2520008	14.11828	0.0170002	0	1	1	0.15	-2	-0.6000977	2.285168E-04	13.85163	0.9805337	31.37812	32.72235	9.892509E-02	1.293344	36.62337
8/29/2014 4:06:26 PM	16:06:26	0	A	2	-1	0	0	0	0	0	88.43655	92.35883	89.73364	14.1255	43.655	88.43655	-0.2749939	87.37885	-0.2469997	14.11795	1.300049E-02	0	1	1	0.15	-2	-0.6000977	2.285168E-04	13.8455	0.9801778	31.35364	31.81473	9.226558E-02	1.206278	34.15792
8/29/2014 4:06:36 PM	16:06:36	0	A	2	-1	0	0	0	0	0	88.6569	92.31477	89.73364	14.1255	43.655	88.48061	-0.2799988	87.42292	-0.2409992	14.1156	1.300049E-02	0	1	1	0.15	-2	-0.6000977	2.285168E-04	13.85051	0.9805321	31.37812	31.82131	9.225436E-02	1.206131	34.15377
8/29/2014 4:06:46 PM	16:06:46	0	A	2	-1	0	0	0	0	0	88.52469	92.53511	89.75928	14.12663	43.35001	88.48061	-0.2799988	87.42292	-0.2299995	14.11665	1.600075E-02	0	1	1	0.15	-2	-0.6000977	3.045651E-04	13.84663	0.9801794	31.37812	31.91225	0.1023535	1.338167	37.8926
8/29/2014 4:06:56 PM	16:06:56	0	A	2	-1	0	0	0	0	0	88.52469	93.06396	89.75076	14.12588	43.33501	88.61282	-0.2799988	87.42292	-0.2240009	14.118	0.0189991	0	1	1	0.15	-2	-0.6000977	2.285168E-04	13.84588	0.9801783	31.45157	32.20434	0.1115387	1.458254	41.29308
8/29/2014 4:07:06 PM	16:07:06	0	A	2	-1	0	0	0	0	0	88.48061	93.01989	89.75928	14.12588	43.69501	88.48061	-0.2799988	87.42292	-0.2530003	14.11818	2.000046E-02	0	1	1	0.15	-2	-0.6000977	3.807993E-04	13.84087	0.979824	31.37812	32.149	0.102359	1.338239	37.89465
8/29/2014 4:07:16 PM	16:07:16	0	A	2	23	31.42857	16066.29	24	34.28572	12000	1008.719	92.27069	89.75928	14.12588	43.69501	88.61282	4.210007	87.42292	-0.2290001	14.11688	0.0170002	0	1	1	0.15	170	0.3999023	6.479911E-03	18.39087	1.301928	31.45157	57.0448	8.864727E-02	1.158972	32.81838
8/29/2014 4:07:26 PM	16:07:26	0	A	2	41	58.57143	29941.71	41	58.57143	20500	1141.252	92.05034	89.75076	14.12625	44.05499	89.00946	15.325	87.42292	-0.2229996	14.11812	0.0189991	0	1	1	0.15	1253	27	6.393651	29.58125	2.094063	31.67192	103.995	0.1054237	1.378307	39.02924
8/29/2014 4:07:36 PM	16:07:36	0	A	2	41	58.57143	29941.71	27	47.14286	16500	1062.716	91.30114	89.76785	14.1255	44.19501	89.71458	15.92999	87.46699	-0.2539997	14.1165	1.799965E-02	0	1	1	0.15	1757	44.6001	14.8532	30.1755	2.136243	32.06366	105.5962	0.102349	1.338108	37.89094
8/29/2014 4:07:46 PM	16:07:46	0	A	2	42	60	30672	24	34.28572	12000	1068.378	91.6537	89.76785	14.1255	44.19501	90.24344	16.955	87.46699	-0.2560005	14.11679	1.199913E-02	0	1	1	0.15	1925	47.6001	17.51955	30.88051	2.186153	32.35747	108.3023	8.864357E-02	1.158924	32.81701
8/29/2014 4:07:56 PM	16:07:56	0	A	2	43	61.42857	31402.29	29	41.42857	14500	1072.518	92.35883	89.75928	14.1255	44.015	90.9045	17.25	87.46699	-0.2280006	14.11795	1.600075E-02	0	1	1	0.15	1993	50.3999	19.20104	31.5455	2.23323	32.72472	111.0802	8.864721E-02	1.158971	32.81836
8/29/2014 4:08:06 PM	16:08:06	0	A	2	43	61.42857	31402.29	31	41.42857	14500	1068.335	93.1521	89.75928	14.1255	44.015	91.69777	17.56	87.46699	-0.25	14.11741	1.399994E-02	0	1	1	0.15	2038	51	19.86744	31.8605	2.255531	33.16543	112.522	9.225667E-02	1.206161	34.15463
8/29/2014 4:08:16 PM	16:08:16	0	A	2	43	61.42857	31402.29	25	38.57143	13500	1060.984	92.97582	89.78497	14.1255	44.44	92.75546	17.72501	87.46699	-0.2409992	14.11712	1.399994E-02	0	1	1	0.15	2067	53	20.85847	31.72551	2.245974	33.75304	112.1242	9.564446E-02	1.250453	35.40883
8/29/2014 4:08:26 PM	16:08:26	0	A	2	43	61.42857	31402.29	26	41.42857	14500	1052.618	93.76909	89.79352	14.12588	44.72	93.54874	17.855	87.46699	-0.2180004	14.11785	1.199913E-02	0	3	1	0.15	2074	50.3999	19.90236	31.85088	2.25479	34.19374	113.1016	0.1023539	1.338172	37.89275
8/29/2014 4:08:36 PM	16:08:36	0	A	2	43	61.42857	31402.29	31	44.28571	15500	1048.731	93.5928	89.82767	14.12588	45.05	94.6505	17.92999	87.51106	-0.2609997	14.11619	1.099968E-02	0	3	1	0.15	2111	53.3999	21.38295	31.60088	2.237092	34.80583	112.1258	0.1023439	1.338042	37.88906
8/29/2014 4:08:46 PM	16:08:46	0	A	2	44	62.85714	32132.57	26	37.14286	13000	1043.027	93.41653	89.82767	14.12588	45.05	95.70819	17.75999	87.51106	-0.2259998	14.11735	1.199913E-02	0	3	1	0.15	2102	53.6001	21.45184	31.95588	2.262223	35.39344	113.2121	8.864189E-02	1.158902	32.81639
8/29/2014 4:08:56 PM	16:08:56	0	A	2	43	61.42857	31402.29	26	41.42857	14500	1045.097	94.51829	89.84479	14.12588	45.015	96.89811	17.75999	87.51106	-0.2900009	14.11767	2.000046E-02	0	3	1	0.15	2097	52.2002	20.92161	31.76087	2.248418	36.05451	113.3175	0.114353	1.495049	42.33499
8/29/2014 4:09:06 PM	16:09:06	0	A	2	43	61.42857	31402.29	28	45.71429	16000	1032.253	94.60643	89.85336	14.12513	44.24001	98.08801	17.58501	87.51106	-0.257	14.11559	1.600075E-02	0	3	1	0.15	2096	53.6001	21.3906	32.14513	2.275741	36.71556	114.6911	0.1023417	1.338013	37.88824
8/29/2014 4:09:16 PM	16:09:16	0	A	2	43	61.42857	31402.29	26	41.42857	14500	1029.422	94.342	89.85336	14.12513	44.24001	99.05756	17.765	87.55513	-0.2290001	14.11584	1.300049E-02	0	3	1	0.15	2094	54.6001	21.76889	31.98513	2.264414	37.2542	113.9637	9.224442E-02	1.206001	34.15009
8/29/2014 4:09:26 PM	16:09:26	0	A	2	43	61.42857	31402.29	28	40	14000	1027.859	94.87086	89.85336	14.12588	44.8	100.2475	17.62	87.55513	-0.2660007	14.11836	1.300049E-02	0	3	1	0.15	2074	52.6001	20.7712	31.87588	2.256559	37.76836	113.9557	9.225266E-02	1.206109	34.15314
8/29/2014 4:09:36 PM	16:09:36	0	A	2	43	62.85714	32132.57	25	35.71429	12500	1022.028	94.51829	89.85336	14.12588	44.8	101.3052	18.03	87.55513	-0.2350006	14.11688	0.0189991	0	3	1	0.15	2121	50.6001	20.43423	31.95087	2.261868	38.50287	113.9647	0.1143454	1.494948	42.33215
8/29/2014 4:09:46 PM	16:09:46	0	A	2	44	62.85714	32132.57	25	35.71429	12500	1016.071	93.63687	89.879	14.12513	43.56	102.1425	18.14	87.5992	-0.2220001	14.11584	1.600075E-02	0	3	1	0.15	2113	55	22.20784	32.20012	2.279634	38.96807	114.1984	0.1023347	1.337921	37.88565
8/29/2014 4:09:56 PM	16:09:56	0	A	2	44	62.85714	32132.57	25	38.57143	13500	1009.775	92.66733	89.88757	14.1255	43.375	103.1121	18.105	87.5992	-0.2299995	14.11929	2.000046E-02	0	3	1	0.15	2113	55.7998	22.36873	32.06551	2.270044	39.5067	113.0625	0.1143507	1.495018	42.33413
8/29/2014 4:10:06 PM	16:10:06	0	A	2	44	62.85714	32132.57	34	48.57143	17000	1007.283	91.9622	89.88757	14.1255	43.375	103.7731	18.045	87.64327	-0.2119999	14.11939	0.0170002	0	3	1	0.15	2120	52.7998	21.3125	32.0305	2.267566	39.87395	112.4513	0.1143467	1.494966	42.33266
8/29/2014 4:10:16 PM	16:10:16	0	A	2	44	62.85714	32132.57	30	44.28571	15500	1007.536	91.08078	89.879	14.12513	43.375	104.346	17.905	87.68735	0.3579998	14.13857	0.6389999	1	3	1	0.15	2109	55	22.1658	31.88013	2.25698	40.19225	111.3301	0.643953	8.419024	238.3998
8/29/2014 4:10:26 PM	16:10:26	0	A	2	44	62.85714	32132.57	32	41.42857	14500	1016.831	91.6537	89.879	14.1255	43.58	167.6481	17.7	87.81956	0.2779999	14.13696	0.618	1	3	1	0.15	2098	53.7998	21.49079	31.6555	2.241018	75.36005	110.9644	0.6351798	8.304325	235.1519
8/29/2014 4:10:36 PM	16:10:36	0	A	2	50	71.42857	36514.29	34	42.85714	15000	1080.208	91.213	89.84479	14.12475	42.98	190.2542	25.38	88.12805	0.5760002	14.14318	0.9230003	1	3	1	0.15	2444	66.6001	30.80539	39.71474	2.811713	87.91898	135.8819	0.775868	10.14368	287.2365
8/29/2014 4:10:46 PM	16:10:46	0	A	2	50	71.42857	36514.29	33	47.14286	16500	1050.59	92.84361	89.84479	14.12475	42.98	220.9028	24.94	88.39248	0.5760002	14.14549	0.8969994	1	3	1	0.15	2789	75.3999	40.03921	39.15475	2.772067	104.946	135.4613	0.7647415	9.998211	283.1173
8/29/2014 4:10:56 PM	16:10:56	0	A	2	50	71.42857	36514.29	33	47.14286	16500	1055.364	93.72502	89.879	14.12513	42.97	232.4232	24.82001	88.83318	0.5769997	14.14573	0.8789997	1	3	1	0.15	2832	76	41.08805	38.63512	2.735205	111.3462	134.5788	0.7567717	9.894012	280.1668
8/29/2014 4:11:06 PM	16:11:06	0	A	2	50	71.42857	36514.29	33	48.57143	17000	1052.745	94.07759	89.879	14.12513	42.97	240.1731	24.92	89.0976	0.5869999	14.14728	0.8939991	1	3	1	0.15	2844	77.2002	41.80365	39.10013	2.768126	115.6517	136.2105	0.7630455	9.976037	282.4894
8/29/2014 4:11:16 PM	16:11:16	0	A	2	51	72.85714	37244.57	33	48.57143	17000	1048.52	92.93174	89.86191	14.1255	42.17999	246.3032	25.685	89.4061	0.5909996	14.14982	0.9279995	1	3	1	0.15	2834	77	41.65666	40.4655	2.864712	119.0573	139.3135	0.7809615	10.21027	289.1221
8/29/2014 4:11:26 PM	16:11:26	0	A	2	50	71.42857	36514.29	35	50	17500	1048.393	91.69777	89.86191	14.1255	41.82001	252.2569	25.005	89.4061	0.6240005	14.14747	0.9020004	1	3	1	0.15	3017	79.6001	45.83987	39.57051	2.801353	122.365	135.818	0.7666537	10.02321	283.8252
8/29/2014 4:11:36 PM	16:11:36	0	A	2	49	70	35784	34	48.57143	17000	1035.548	90.64008	89.81915	14.12513	41.39999	254.9471	24.89	89.71458	0.5489998	14.14558	0.8670006	1	3	1	0.15	2881	76.7998	42.12788	39.13051	2.770277	123.8595	133.7579	0.7505621	9.81283	277.868
8/29/2014 4:11:46 PM	16:11:46	0	A	2	50	71.42857	36514.29	33	48.57143	17000	1034.915	90.55194	89.81915	14.12513	41.39999	256.6671	24.735	89.71458	0.5470009	14.14648	0.8579998	1	3	1	0.15	2844	76.3999	41.26215	39.11013	2.768834	124.815	133.6332	0.7475377	9.773289	276.7483
8/29/2014 4:11:56 PM	16:11:56	0	A	2	49	71.42857	36514.29	33	47.14286	16500	1031.873	89.97901	89.79352	14.12475	41.22	258.6075	24.675	89.93494	0.5639992	14.14343	0.8530006	1	3	1	0.15	2828	75.7998	40.70689	39.06475	2.765695	125.8931	133.0804	0.7477609	9.776206	276.8309
8/29/2014 4:12:06 PM	16:12:06	0	A	2	50	71.42857	36514.29	33	47.14286	16500	1034.703	90.1553	89.79352	14.12475	41.22	260.6362	24.545	90.11123	0.5319996	14.1451	0.8549995	1	3	1	0.15	2813	76.2002	40.91935	38.71474	2.740915	127.0201	132.0884	0.745484	9.746439	275.9879
8/29/2014 4:12:16 PM	16:12:16	0	A	2	50	70	35784	33	47.14286	16500	1032.295	90.33158	89.80203	14.1255	41.515	263.1941	24.91	90.1553	0.5499992	14.14736	0.8479996	1	3	1	0.15	2811	73.6001	39.39177	38.61551	2.733744	128.4412	132.0179	0.7455407	9.747179	276.0089
8/29/2014 4:12:26 PM	16:12:26	0	A	2	49	70	35784	33	47.14286	16500	1032.211	90.1553	89.7764	14.1255	42.2	264.6494	24.75999	90.28751	0.5340004	14.14784	0.8430004	1	3	1	0.15	2841	75.7998	40.89402	39.07051	2.765956	129.2497	133.2214	0.7402048	9.677418	274.0335
8/29/2014 4:12:36 PM	16:12:36	0	A	2	49	70	35784	33	47.14286	16500	1033.985	90.33158	89.7764	14.1255	42.2	266.0166	24.67999	90.19937	0.5419998	14.14368	0.8349991	1	3	1	0.15	2831	75.6001	40.85772	38.95551	2.757814	130.0092	133.0157	0.738414	9.654006	273.3705
8/29/2014 4:12:46 PM	16:12:46	0	A	2	49	70	35784	33	47.14286	16500	1039.351	90.41972	89.75928	14.12513	42.39999	267.9129	24.11	90.24344	0.5690002	14.14547	0.8279991	1	3	1	0.15	2817	74.7998	40.11932	38.55013	2.729188	131.0627	131.8932	0.7336007	9.591076	271.5886
8/29/2014 4:12:56 PM	16:12:56	0	A	2	49	70	35784	32	47.14286	16500	1038.168	91.16891	89.73364	14.1255	43.255	269.6329	24.435	90.24344	0.5279999	14.14701	0.8309994	1	3	1	0.15	2810	75.2002	40.23384	38.50551	2.725957	132.0183	132.3101	0.734936	9.608534	272.0829
8/29/2014 4:13:06 PM	16:13:06	0	A	2	49	70	35784	33	47.14286	16500	1034.788	90.9045	89.72513	14.12588	43.66	271	24.715	90.41972	0.566	14.14597	0.8290005	1	3	1	0.15	2766	75.2002	39.60384	38.58088	2.73122	132.7778	132.3349	0.7334749	9.589432	271.542
8/29/2014 4:13:16 PM	16:13:16	0	A	2	50	70	35784	33	47.14286	16500	1031.577	90.46379	89.72513	14.12588	43.66	271.7057	24.50999	90.46379	0.5709991	14.14619	0.8260002	1	3	1	0.15	2831	73.3999	39.67203	38.86588	2.751396	133.1698	132.8478	0.7325814	9.577749	271.2112
8/29/2014 4:13:26 PM	16:13:26	0	A	2	49	70	35784	33	47.14286	16500	1033.394	90.37565	89.71655	14.12475	43.74001	273.2051	24.67	90.64008	0.5690002	14.14571	0.8320007	1	3	1	0.15	2833	75	40.45517	38.76475	2.744456	134.0029	132.4952	0.7351084	9.610787	272.1467
8/29/2014 4:13:36 PM	16:13:36	0	A	2	50	71.42857	36514.29	33	47.14286	16500	1041.464	91.91813	89.71655	14.12475	43.74001	274.44	24.75999	90.55194	0.5179996	14.1469	0.8290005	1	3	1	0.15	2818	74.2002	39.81184	38.72974	2.741977	134.6889	133.5296	0.7298659	9.542248	270.2059
8/29/2014 4:13:46 PM	16:13:46	0	A	2	49	70	35784	32	45.71429	16000	1034.619	91.60963	89.72513	14.1255	43.44	275.1015	24.8	90.68414	0.5750008	14.14364	0.8199997	1	3	1	0.15	2823	74.7998	40.20477	38.8605	2.751088	135.0564	133.6807	0.729687	9.539908	270.1397
8/29/2014 4:13:56 PM	16:13:56	0	A	2	49	70	35784	32	47.14286	16500	1040.492	93.10803	89.70801	14.1255	43.81	276.9096	24.235	90.77229	0.5779991	14.14339	0.8040009	1	3	1	0.15	2794	75.2002	40.11099	38.60051	2.732682	136.0609	134.0188	0.7224971	9.445908	267.4779
8/29/2014 4:14:06 PM	16:14:06	0	A	2	49	70	35784	32	45.71429	16000	1036.225	93.32839	89.70801	14.1255	43.81	277.2184	24.48	90.81635	0.5979996	14.14693	0.816	1	3	1	0.15	2768	73.2002	38.47292	38.66549	2.737283	136.2324	134.3735	0.7319292	9.569224	270.9698
8/29/2014 4:14:16 PM	16:14:16	0	A	2	49	70	35784	33	47.14286	16500	1039.351	93.32839	89.73364	14.12513	44.21001	277.3948	24.66	90.99264	0.4820004	14.14312	0.8220005	1	3	1	0.15	2825	73.3999	39.48027	38.69513	2.739454	136.3304	134.4641	0.730367	9.5488	270.3914
8/29/2014 4:14:26 PM	16:14:26	0	A	2	50	71.42857	36514.29	33	47.14286	16500	1029.718	92.09441	89.71655	14.12588	44.46001	277.8358	24.64	91.30114	0.6110001	14.14723	0.8190002	1	3	1	0.15	2838	75	40.52657	38.78088	2.745378	136.5754	133.8011	0.7289397	9.530138	269.863
8/29/2014 4:14:36 PM	16:14:36	0	A	2	50	70	35784	33	45.71429	16000	1031.154	90.99264	89.71655	14.12588	44.46001	278.1445	24.55	91.34521	0.4969997	14.1438	0.8120003	1	3	1	0.15	2832	74.6001	40.33294	38.61588	2.733698	136.7469	132.503	0.7257225	9.488076	268.6719
8/29/2014 4:14:46 PM	16:14:46	0	A	2	49	70	35784	33	47.14286	16500	1032.971	91.56557	89.72513	14.12588	44.575	278.8942	24.35001	91.43334	0.5049992	14.14785	0.8129997	1	3	1	0.15	2813	74.7998	40.16957	38.72588	2.741486	137.1635	133.2492	0.7261997	9.494316	268.8486
8/29/2014 4:14:56 PM	16:14:56	0	A	2	49	70	35784	32	45.71429	16000	1033.436	91.69777	89.75076	14.12588	44.22501	279.2029	24.325	91.60963	0.5160007	14.14745	0.8129997	1	3	1	0.15	2774	77.7998	41.09142	38.50588	2.725911	137.335	132.6974	0.7274045	9.510068	269.2947
8/29/2014 4:15:06 PM	16:15:06	0	A	2	49	70	35784	33	47.14286	16500	1036.182	92.18254	89.75076	14.12588	44.22501	279.3793	24.27499	91.6537	0.5669994	14.14709	0.8029995	1	3	1	0.15	2811	73.6001	39.39177	38.35587	2.715292	137.433	132.6096	0.7215842	9.433973	267.1399
8/29/2014 4:15:16 PM	16:15:16	0	A	2	50	71.42857	36514.29	33	47.14286	16500	1038.295	93.46059	89.7764	14.1255	43.87	280.8788	24.50999	91.78591	0.573	14.14794	0.809	1	3	1	0.15	2821	74.3999	40.06902	38.4355	2.721001	138.266	133.7891	0.7241949	9.468105	268.1064
8/29/2014 4:15:26 PM	16:15:26	0	A	2	49	70	35784	33	47.14286	16500	1036.309	93.37246	89.79352	14.12588	44.015	281.1875	24.53999	92.00626	0.5279999	14.14427	0.8059998	1	3	1	0.15	2815	73.7998	39.66216	38.31087	2.712106	138.4375	133.3506	0.7225984	9.447233	267.5154
8/29/2014 4:15:36 PM	16:15:36	0	A	2	49	70	35784	32	45.71429	16000	1037.915	93.37246	89.79352	14.12588	44.015	281.6285	24.09	92.31477	0.5639992	14.1481	0.7999992	1	3	1	0.15	2807	74	39.54944	38.39088	2.71777	138.6825	133.5887	0.7198217	9.41093	266.4874
8/29/2014 4:15:46 PM	16:15:46	7	A	1	50	71.42857	36514.29	32	47.14286	16500	1033.985	92.57918	89.84479	14.12588	44.05	281.9372	24.545	92.62326	0.6089993	14.14601	0.8040009	1	3	1	0.15	2808	74.3999	39.67056	38.39088	2.71777	138.854	133.0052	0.7213529	9.430949	267.0543
8/29/2014 4:15:56 PM	16:15:56	17	A	1	49	70	35784	33	48.57143	17000	1030.436	92.44697	89.879	14.12513	43.63499	281.5844	24.59	92.53511	0.566	14.14385	0.8069992	1	3	1	0.15	2788	73.3999	38.96318	38.67012	2.737684	138.658	133.7406	0.7226796	9.448295	267.5455
8/29/2014 4:16:06 PM	16:16:06	27	A	1	49	70	35784	32	47.14286	16500	1030.056	92.57918	89.879	14.12513	43.63499	281.1434	24.14	92.57918	0.5139999	14.14692	0.7919998	1	3	1	0.15	2806	73.7998	39.3217	38.51012	2.726356	138.413	133.3649	0.7160051	9.361032	265.0745
8/29/2014 4:16:16 PM	16:16:16	37	A	1	49	70	35784	32	47.14286	16500	1032.253	92.53511	89.90463	14.12625	43.38	281.1875	24.075	92.66733	0.5139999	14.14786	0.7900009	1	3	1	0.15	2793	73.2002	38.92686	38.42625	2.720202	138.4375	133.0748	0.7150798	9.348934	264.7319
8/29/2014 4:16:26 PM	16:16:26	47	A	1	49	70	35784	36	51.42857	18000	1030.14	91.25706	89.93884	14.12663	43.435	280.7024	24.155	92.84361	0.5410004	14.14657	0.7859993	1	3	1	0.15	2784	73	38.80143	38.34663	2.714493	138.168	131.8957	0.7108516	9.293654	263.1665
8/29/2014 4:16:36 PM	16:16:36	57	A	1	49	70	35784	33	45.71429	16000	1025.239	89.93494	89.93884	14.12663	43.435	280.085	24.22	92.84361	0.6119995	14.1448	0.7929993	1	3	1	0.15	2793	74.6001	39.67131	38.17162	2.702105	137.825	130.4055	0.7184852	9.393457	265.9926
8/29/2014 4:16:46 PM	16:16:46	67	A	1	49	70	35784	31	45.71429	16000	1028.577	90.1553	89.9816	14.12625	43.52499	279.7762	24.28999	92.97582	0.5259991	14.14602	0.7940006	1	3	1	0.15	2738	76.3999	39.82836	38.23625	2.706752	137.6535	130.7619	0.7179911	9.386997	265.8097
8/29/2014 4:16:56 PM	16:16:56	77	A	1	49	70	35784	33	47.14286	16500	1033.436	91.56557	90.01581	14.12588	42.96001	280.5701	23.88	92.84361	0.4850006	14.14593	0.7840004	1	3	1	0.15	2771	71.6001	37.77603	37.71088	2.669632	138.0945	130.2321	0.7122141	9.311468	263.671
8/29/2014 4:17:06 PM	16:17:06	87	A	1	49	70	35784	33	45.71429	16000	1038.295	92.75546	90.01581	14.12588	42.96001	281.408	24.03999	93.01989	0.5750008	14.1472	0.7800007	1	3	1	0.15	2780	72	38.1104	37.99587	2.689806	138.56	131.9576	0.7102898	9.28631	262.9586
8/29/2014 4:17:16 PM	16:17:16	97	A	1	49	70	35784	37	52.85714	18500	1035.548	93.41653	90.04144	14.12625	42.935	282.0254	24.13	93.10803	0.6049995	14.14324	0.7740002	1	3	1	0.15	2778	72.6001	38.2945	37.99625	2.689762	138.903	132.4405	0.7051442	9.219036	261.0536
8/29/2014 4:17:26 PM	16:17:26	107	A	1	49	70	35784	35	51.42857	18000	1034.577	94.16573	90.0842	14.12625	43.03999	282.3783	24.015	93.1521	0.5259991	14.1471	0.7940006	1	3	1	0.15	2770	73.2002	38.6063	38.20625	2.704628	139.099	133.6185	0.716113	9.362443	265.1144
8/29/2014 4:17:36 PM	16:17:36	117	A	1	49	70	35784	32	47.14286	16500	1031.873	93.06396	90.0842	14.12625	43.03999	282.5546	23.875	93.63687	0.5970001	14.14837	0.7849998	1	3	1	0.15	2758	73.3999	38.64905	38.00125	2.690116	139.197	132.1969	0.7121889	9.311139	263.6617
8/29/2014 4:17:46 PM	16:17:46	127	A	1	49	70	35784	33	45.71429	16000	1028.662	91.43334	90.12695	14.12625	43.24001	282.3341	24.19	93.81316	0.6439991	14.14829	0.7900009	1	3	1	0.15	2772	72.2002	38.10639	38.45125	2.721972	139.0745	132.3382	0.714792	9.345172	264.6254
8/29/2014 4:17:56 PM	16:17:56	137	A	1	49	70	35784	33	47.14286	16500	1032.211	90.19937	90.16968	14.12625	43.31	281.8931	24.42	93.9013	0.5610008	14.14576	0.7819996	1	3	1	0.15	2790	73.6001	38.99114	37.91624	2.684098	138.8295	129.8429	0.7105989	9.290352	263.073
8/29/2014 4:18:06 PM	16:18:06	147	A	1	49	70	35784	33	47.14286	16500	1032.718	90.55194	90.16968	14.12625	43.31	281.5844	24.10001	94.12166	0.5769997	14.14692	0.7859993	1	3	1	0.15	2793	73	38.92686	38.13126	2.699319	138.658	130.7416	0.7122984	9.312571	263.7022
8/29/2014 4:18:16 PM	16:18:16	157	A	1	49	70	35784	33	47.14286	16500	1024.859	89.67052	90.22101	14.12625	43.10001	281.1875	24.67999	94.12166	0.6289997	14.14902	0.7910004	1	3	1	0.15	2808	73.3999	39.34972	38.49126	2.724804	138.4375	131.3538	0.7146033	9.342705	264.5555
8/29/2014 4:18:26 PM	16:18:26	167	A	1	49	70	35784	33	47.14286	16500	1025.07	89.05354	90.25519	14.12625	42.46001	281.0111	24.23	94.20979	0.5410004	14.14605	0.7970009	1	3	1	0.15	2804	73.7998	39.40029	38.76625	2.744271	138.3395	131.5125	0.7171866	9.37648	265.5119
8/29/2014 4:18:36 PM	16:18:36	177	A	1	49	70	35784	32	45.71429	16000	1026.338	89.00946	90.25519	14.12625	42.46001	280.7906	24.14999	94.25386	0.5119991	14.14519	0.7859993	1	3	1	0.15	2767	76.7998	40.35568	38.34125	2.714185	138.217	130.2304	0.7121676	9.310861	263.6538
8/29/2014 4:18:46 PM	16:18:46	187	A	1	49	70	35784	33	47.14286	16500	1028.831	89.71458	90.26376	14.12625	42.21001	281.408	24.03	94.20979	0.5930004	14.14587	0.7789993	1	3	1	0.15	2799	72.3999	38.58398	38.59125	2.731882	138.56	131.486	0.7126637	9.317347	263.8374
8/29/2014 4:18:56 PM	16:18:56	197	A	1	49	70	35784	33	47.14286	16500	1032.633	90.28751	90.34073	14.12625	42.255	281.5844	24.47	94.25386	0.5319996	14.14699	0.7730007	1	3	1	0.15	2792	72.6001	38.70008	37.99126	2.689409	138.658	130.1311	0.7063271	9.234502	261.4915
8/29/2014 4:19:06 PM	16:19:06	207	A	1	49	70	35784	32	45.71429	16000	1040.196	92.09441	90.34073	14.12625	42.255	282.1577	23.92	94.16573	0.5149994	14.14493	0.7779999	1	3	1	0.15	2771	72.3999	38.19801	38.12625	2.698965	138.9765	131.8589	0.7085885	9.264069	262.3288
8/29/2014 4:19:16 PM	16:19:16	217	A	1	49	70	35784	32	45.71429	16000	1029.845	91.30114	90.38345	14.12663	42.145	282.5988	23.925	94.07759	0.5389996	14.14683	0.7630005	1	3	1	0.15	2782	73.3999	38.98537	38.18162	2.702812	139.2215	131.4383	0.7036752	9.199831	260.5098
8/29/2014 4:19:26 PM	16:19:26	227	A	1	49	70	35784	32	45.71429	16000	1033.14	91.25706	90.41763	14.12625	41.83	282.29	24.145	94.03352	0.5699997	14.1436	0.7770004	1	3	1	0.15	2744	76	39.60212	38.22125	2.70569	139.05	131.5267	0.7073013	9.247238	261.8522
8/29/2014 4:19:36 PM	16:19:36	237	A	1	49	70	35784	33	47.14286	16500	1032.084	91.34521	90.41763	14.12625	41.83	282.0695	24.245	94.20979	0.6040001	14.14497	0.7849998	1	3	1	0.15	2762	72.3999	38.07394	38.25125	2.707814	138.9275	131.6806	0.7090417	9.269993	262.4965
8/29/2014 4:19:46 PM	16:19:46	247	A	1	49	70	35784	33	47.14286	16500	1033.013	91.87405	90.46039	14.12663	41.995	282.5106	24.03999	94.12166	0.6439991	14.14665	0.7740002	1	3	1	0.15	2797	72.6001	38.66303	38.24163	2.707061	139.1725	132.0375	0.7073239	9.247534	261.8606
8/29/2014 4:19:56 PM	16:19:56	257	A	1	49	70	35784	32	45.71429	16000	1036.478	92.75546	90.48605	14.12625	42.065	282.9113	24.145	94.25386	0.5300007	14.14692	0.7779999	1	3	1	0.15	2767	73.3999	38.77517	38.28125	2.709937	139.3951	132.806	0.7086003	9.264221	262.3331
8/29/2014 4:20:06 PM	16:20:06	267	A	1	49	70	35784	32	45.71429	16000	1028.408	92.84361	90.48605	14.12625	42.065	282.9561	24.10001	94.29794	0.5699997	14.14725	0.7759991	1	3	1	0.15	2771	72.6001	38.409	38.35126	2.714893	139.42	133.079	0.707658	9.251902	261.9843
8/29/2014 4:20:16 PM	16:20:16	277	A	1	49	70	35784	32	45.71429	16000	1031.028	92.79954	90.52023	14.12625	41.75	282.8665	24.315	94.20979	0.5990009	14.14613	0.7689991	1	3	1	0.15	2747	76.7998	40.16844	38.25125	2.707814	139.3703	132.7491	0.7044944	9.210542	260.813
8/29/2014 4:20:26 PM	16:20:26	287	A	1	49	70	35784	32	45.71429	16000	1031.197	92.66733	90.55444	14.12625	41.84	282.7751	23.675	94.25386	0.5289993	14.1449	0.7679996	1	3	1	0.15	2766	72.2002	38.02391	37.99126	2.689409	139.3195	131.8762	0.7035409	9.198074	260.46
8/29/2014 4:20:36 PM	16:20:36	297	A	1	49	70	35784	32	45.71429	16000	1039.774	94.73865	90.55444	14.12625	41.84	283.6277	23.99001	94.29794	0.5079994	14.14522	0.7719994	1	3	1	0.15	2770	72	37.97331	38.03125	2.69224	139.7932	133.5151	0.7058057	9.227685	261.2985
8/29/2014 4:20:46 PM	16:20:46	307	A	1	49	70	35784	33	47.14286	16500	1034.788	94.342	90.60577	14.12588	41.72	283.8515	23.75999	94.38609	0.5680008	14.14329	0.7619991	1	3	1	0.15	2770	73.3999	38.71163	37.82088	2.677419	139.9175	132.5952	0.7011179	9.166396	259.563
8/29/2014 4:20:56 PM	16:20:56	317	A	1	49	70	35784	33	47.14286	16500	1035.042	94.38609	90.64847	14.12625	41.32001	283.8963	24.015	94.43015	0.5650005	14.1462	0.7719994	1	3	1	0.15	2764	72.6001	38.31197	37.73125	2.671002	139.9424	132.3544	0.7057439	9.226877	261.2756
8/29/2014 4:21:06 PM	16:21:06	327	A	1	49	70	35784	33	47.14286	16500	1032.295	93.85723	90.64847	14.12625	41.32001	284.1202	23.98	94.51829	0.6030006	14.14631	0.7759991	1	3	1	0.15	2731	74.2002	38.68657	38.30125	2.711353	140.0668	133.6753	0.7093232	9.273672	262.6007
8/29/2014 4:21:16 PM	16:21:16	337	A	1	49	70	35784	32	45.71429	16000	1030.521	92.88767	90.68271	14.12588	41.45	283.4038	23.72	94.47422	0.5720005	14.1472	0.7670002	1	3	1	0.15	2780	72	38.1104	38.16587	2.701841	139.6688	132.5624	0.7034531	9.196927	260.4276
8/29/2014 4:21:26 PM	16:21:26	347	A	1	49	70	35784	33	47.14286	16500	1034.281	93.10803	90.72543	14.12625	41.685	283.762	24.12	94.69456	0.5790005	14.14779	0.7719994	1	3	1	0.15	2780	72.7998	38.42804	37.77126	2.673835	139.8678	131.5394	0.7056166	9.225213	261.2285
8/29/2014 4:21:36 PM	16:21:36	357	A	1	49	70	35784	33	47.14286	16500	1033.943	91.78591	90.72543	14.12625	41.685	283.9411	23.785	94.73865	0.5580006	14.14486	0.7530003	1	3	1	0.15	2771	73.3999	38.72561	37.97125	2.687993	139.9673	131.1701	0.6967782	9.10966	257.9564
8/29/2014 4:21:46 PM	16:21:46	367	A	1	49	70	35784	33	47.14286	16500	1028.535	91.25706	90.75964	14.12625	41.71001	283.4486	24.27	94.6505	0.5550003	14.14696	0.7619991	1	3	1	0.15	2776	72.2002	38.16138	38.18625	2.703212	139.6937	131.4227	0.7005745	9.159292	259.3618
8/29/2014 4:21:56 PM	16:21:56	377	A	1	49	70	35784	32	45.71429	16000	1030.14	90.02309	90.79385	14.12663	40.86	282.9561	24.41	94.56236	0.5450001	14.14726	0.7689991	1	3	1	0.15	2779	73.3999	38.83741	38.37162	2.716262	139.42	131.0624	0.7043021	9.208028	260.7419
8/29/2014 4:22:06 PM	16:22:06	387	A	1	49	70	35784	32	45.71429	16000	1025.831	89.4061	90.79385	14.12663	40.86	282.3783	24.015	94.51829	0.5869999	14.15001	0.7719994	1	3	1	0.15	2756	73.2002	38.41118	38.31162	2.712015	139.099	130.4315	0.7057588	9.227072	261.2811
8/29/2014 4:22:16 PM	16:22:16	397	A	1	49	70	35784	32	47.14286	16500	1029.676	89.36202	90.81952	14.12588	40.75	282.29	24.25999	94.43015	0.5090008	14.14543	0.7670002	1	3	1	0.15	2786	72.6001	38.61691	38.30587	2.711752	139.05	130.3881	0.7034304	9.196631	260.4192
8/29/2014 4:22:26 PM	16:22:26	407	A	1	49	70	35784	33	47.14286	16500	1025.07	89.4061	90.81097	14.12588	40.27	281.8049	24.205	94.342	0.5839996	14.14745	0.7800007	1	3	1	0.15	2793	73.2002	38.92686	38.58088	2.73122	138.7805	131.2313	0.7130667	9.322616	263.9866
8/29/2014 4:22:36 PM	16:22:36	417	A	1	49	70	35784	33	47.14286	16500	1024.479	89.53831	90.81097	14.12588	40.27	281.4962	24.145	94.29794	0.6340008	14.14521	0.7609997	1	3	1	0.15	2781	73.2002	38.65361	38.12588	2.69901	138.609	129.9846	0.7007398	9.161453	259.423
8/29/2014 4:22:46 PM	16:22:46	427	A	1	49	70	35784	33	47.14286	16500	1035.506	91.87405	90.81097	14.12588	40.94	282.3341	23.91	94.20979	0.6170006	14.14676	0.7660007	1	3	1	0.15	2755	73	38.29223	38.17088	2.702195	139.0745	131.8331	0.7031472	9.192929	260.3143
8/29/2014 4:22:56 PM	16:22:56	437	A	1	49	70	35784	31	44.28571	15500	1047.337	93.01989	90.76819	14.12588	41.78	283.3142	23.32001	94.12166	0.5370007	14.1477	0.7439995	1	3	1	0.15	2722	70	36.38251	37.90588	2.683435	139.619	131.8819	0.6930606	9.061056	256.5801
8/29/2014 4:23:06 PM	16:23:06	447	A	1	49	70	35784	32	45.71429	16000	1038.083	93.98943	90.76819	14.12588	41.78	284.5679	23.995	94.29794	0.5470009	14.14792	0.7700005	1	3	1	0.15	2763	72	37.87735	38.13587	2.699718	140.3155	133.2817	0.7031064	9.192394	260.2992
8/29/2014 4:23:16 PM	16:23:16	457	A	1	49	70	35784	37	47.14286	16500	1034.788	93.50466	90.76819	14.12588	41.98	284.3888	23.83501	94.38609	0.5769997	14.14749	0.7590008	1	3	1	0.15	2770	72.3999	38.0789	38.17088	2.702195	140.216	133.0304	0.6998529	9.149858	259.0947
8/29/2014 4:23:26 PM	16:23:26	467	A	1	49	70	35784	37	52.85714	18500	1032.126	93.01989	90.78528	14.1255	41.86	284.0754	23.98	94.60643	0.5990009	14.14603	0.7679996	1	3	1	0.15	2784	72.6001	38.37721	38.00551	2.69056	140.0419	132.1833	0.7038049	9.201526	260.5578
8/29/2014 4:23:36 PM	16:23:36	477	A	1	49	70	35784	32	45.71429	16000	1032.887	92.49104	90.78528	14.1255	41.86	283.7172	23.84	94.6505	0.5650005	14.14661	0.7579994	1	3	1	0.15	2769	73	38.48682	38.1205	2.6987	139.8429	132.1389	0.6992005	9.141328	258.8531
8/29/2014 4:23:46 PM	16:23:46	487	A	1	49	70	35784	32	45.71429	16000	1033.225	93.1521	90.81097	14.12588	41.89999	283.8963	23.64999	94.82679	0.5139999	14.1464	0.7679996	1	3	1	0.15	2740	71.7998	37.45761	37.97588	2.688391	139.9424	132.1887	0.7036531	9.199542	260.5016
8/29/2014 4:23:56 PM	16:23:56	497	A	1	49	70	35784	32	47.14286	16500	1031.83	92.7114	90.83661	14.1255	41.94501	283.6277	23.95	95.00306	0.5209999	14.14701	0.7689991	1	3	1	0.15	2780	72.2002	38.21637	38.03551	2.692684	139.7932	132.0468	0.7040163	9.20429	260.636
8/29/2014 4:24:06 PM	16:24:06	507	A	1	49	70	35784	37	52.85714	18500	1028.831	92.00626	90.83661	14.1255	41.94501	283.4038	23.92999	95.13528	0.5909996	14.14711	0.7719994	1	3	1	0.15	2795	73.3999	38.95473	37.9955	2.689851	139.6688	131.4101	0.7053199	9.221334	261.1187
8/29/2014 4:24:16 PM	16:24:16	517	A	1	49	70	35784	33	48.57143	17000	1028.028	91.30114	90.84515	14.1255	42.03	283.3142	24.16	95.17935	0.6170006	14.14812	0.7800007	1	3	1	0.15	2787	72.7998	38.737	38.13051	2.699409	139.619	131.2953	0.7089312	9.268548	262.4556
8/29/2014 4:24:26 PM	16:24:26	527	A	1	49	70	35784	32	45.71429	16000	1031.07	91.08078	90.88791	14.12513	41.73	282.9561	23.605	95.22342	0.5909996	14.14609	0.7719994	1	3	1	0.15	2772	73.2002	38.52851	37.95012	2.68671	139.42	130.599	0.7011156	9.166367	259.5622
8/29/2014 4:24:36 PM	16:24:36	537	A	1	49	70	35784	37	52.85714	18500	1036.267	91.56557	90.88791	14.12513	41.73	283.5381	23.78	95.3997	0.5610008	14.14612	0.757	1	3	1	0.15	2732	74.2002	38.59686	38.22013	2.705826	139.7434	131.7591	0.6982387	9.128755	258.4971
8/29/2014 4:24:46 PM	16:24:46	547	A	1	49	70	35784	32	45.71429	16000	1038.379	93.63687	90.92209	14.1255	41.845	284.7022	24.08501	95.48785	0.6130009	14.14661	0.7639999	1	3	1	0.15	2760	72	37.83622	37.81551	2.677109	140.3901	132.0657	0.7014251	9.170414	259.6768
8/29/2014 4:24:56 PM	16:24:56	557	A	1	49	70	35784	32	45.71429	16000	1036.605	93.37246	90.96484	14.12588	41.74001	284.2097	23.57001	95.53191	0.5620003	14.14633	0.7530003	1	3	1	0.15	2778	71.6001	37.97709	37.71088	2.669632	140.1165	131.5543	0.696331	9.103812	257.7908
8/29/2014 4:25:06 PM	16:25:06	567	A	1	49	70	35784	32	45.71429	16000	1036.689	93.98943	90.96484	14.12588	41.74001	284.5231	23.77499	95.44378	0.566	14.14713	0.7609997	1	3	1	0.15	2769	71.7998	37.85405	37.76588	2.673525	140.2906	132.1714	0.699155	9.140734	258.8363
8/29/2014 4:25:16 PM	16:25:16	577	A	1	49	70	35784	34	48.57143	17000	1035.464	93.5928	90.99048	14.12588	41.355	284.5679	23.73	95.57599	0.6119995	14.1511	0.7700005	1	3	1	0.15	2768	73.2002	38.47292	38.17588	2.70255	140.3155	133.11	0.7042097	9.20682	260.7077
8/29/2014 4:25:26 PM	16:25:26	587	A	1	49	70	35784	32	45.71429	16000	1032.549	93.46059	91.02472	14.1255	41.325	284.1202	23.62	95.84042	0.5079994	14.14563	0.7639999	1	3	1	0.15	2723	73.3999	38.05479	38.00551	2.69056	140.0668	132.5066	0.7011656	9.167021	259.5807
8/29/2014 4:25:36 PM	16:25:36	597	A	1	49	70	35784	33	47.14286	16500	1031.873	92.57918	91.02472	14.1255	41.325	284.4336	23.74001	95.88448	0.5650005	14.14682	0.7600002	1	3	1	0.15	2774	72	37.92241	37.7305	2.671091	140.2409	131.0358	0.699339	9.143141	258.9045
8/29/2014 4:25:46 PM	16:25:46	607	A	1	49	70	35784	32	45.71429	16000	1042.393	93.50466	91.05035	14.1255	41.355	284.6127	23.86501	95.92855	0.5779991	14.1478	0.7460003	1	3	1	0.15	2768	71.3999	37.73513	37.6355	2.664366	140.3404	131.4268	0.6928836	9.058742	256.5146
8/29/2014 4:25:56 PM	16:25:56	617	A	1	49	70	35784	32	45.71429	16000	1040.576	93.94537	91.07599	14.1255	41.25	284.9709	23.89	95.88448	0.552	14.14697	0.7609997	1	3	1	0.15	2765	71.7998	37.69424	37.9705	2.688082	140.5394	132.7572	0.6997895	9.149029	259.0712
8/29/2014 4:26:06 PM	16:26:06	627	A	1	49	70	35784	35	51.42857	18000	1036.647	93.98943	91.07599	14.1255	41.25	285.0157	23.77499	95.92855	0.6119995	14.14776	0.7520008	1	3	1	0.15	2755	73	38.29223	37.94051	2.685958	140.5643	132.6994	0.6956351	9.094715	257.5332
8/29/2014 4:26:16 PM	16:26:16	637	A	1	49	70	35784	32	44.28571	15500	1040.196	95.00306	91.11877	14.12588	41.11	285.3291	23.895	95.97262	0.5629997	14.149	0.7509995	1	3	1	0.15	2702	72	37.24685	37.82088	2.677419	140.7384	133.0793	0.6951835	9.088811	257.366
8/29/2014 4:26:26 PM	16:26:26	647	A	1	49	70	35784	33	45.71429	16000	1040.745	95.35563	91.14441	14.12588	42.02499	285.6425	23.815	96.14891	0.6219997	14.14684	0.7509995	1	3	1	0.15	2757	71.6001	37.58517	38.01588	2.691223	140.9125	133.9245	0.6950457	9.087008	257.315
8/29/2014 4:26:36 PM	16:26:36	657	A	1	49	70	35784	32	45.71429	16000	1039.689	93.76909	91.14441	14.12588	42.02499	285.2843	23.875	96.19298	0.5650005	14.14629	0.7520008	1	3	1	0.15	2774	72.2002	38.02814	37.93587	2.685559	140.7135	132.521	0.6954454	9.092235	257.463
8/29/2014 4:26:46 PM	16:26:46	667	A	1	49	70	35784	33	45.71429	16000	1037.154	92.88767	91.18716	14.1255	41.89	285.2843	23.845	96.23705	0.6210003	14.14588	0.7520008	1	3	1	0.15	2766	72.3999	38.12908	37.83051	2.678171	140.7135	131.562	0.6949477	9.085729	257.2787
8/29/2014 4:26:56 PM	16:26:56	677	A	1	49	70	35784	32	45.71429	16000	1030.267	92.31477	91.23843	14.12588	40.745	285.0157	24.065	96.19298	0.5510006	14.14684	0.757	1	3	1	0.15	2778	72.3999	38.2945	38.20588	2.704673	140.5643	132.261	0.7019058	9.176697	259.8547
8/29/2014 4:27:06 PM	16:27:06	0	A	1	49	70	35784	32	47.14286	16500	1027.267	90.24344	91.23843	14.12588	40.745	283.9858	24.035	96.10483	0.5790005	14.14951	0.7600002	1	3	1	0.15	2727	74	38.42227	38.13088	2.699364	139.9921	130.517	0.6997088	9.147974	259.0414
8/29/2014 4:27:16 PM	16:27:16	0	A	1	49	70	35784	32	45.71429	16000	1027.352	89.14168	91.20425	14.12588	40.39	283.7172	23.86501	96.06076	0.5879993	14.14781	0.7619991	1	3	1	0.15	2774	72	37.92241	38.07587	2.69547	139.8429	129.5451	0.7001719	9.15403	259.2128
8/29/2014 4:27:26 PM	16:27:26	0	A	1	49	70	35784	32	45.71429	16000	1030.098	88.92133	91.20425	14.12588	40.53	283.8963	24.3	96.01669	0.6639996	14.14998	0.7630005	1	3	1	0.15	2780	72.2002	38.21637	38.30088	2.711399	139.9424	130.0494	0.7034363	9.196708	260.4213
8/29/2014 4:27:36 PM	16:27:36	0	A	1	49	70	35784	33	47.14286	16500	1025.915	88.83318	91.20425	14.12588	40.53	283.8068	23.815	95.79634	0.5650005	14.14601	0.7630005	1	3	1	0.15	2784	72.6001	38.58919	38.43087	2.720601	139.8927	130.3681	0.7007663	9.1618	259.4329
8/29/2014 4:27:46 PM	16:27:46	10	A	2	49	70	35784	33	47.14286	16500	1025.408	89.05354	91.2128	14.12625	40.5	283.5829	24.2	95.70819	0.6149998	14.14645	0.7740002	1	3	1	0.15	2772	73.2002	38.73958	38.18625	2.703212	139.7683	129.8046	0.7053769	9.222079	261.1398
8/29/2014 4:27:56 PM	16:27:56	20	A	2	49	70	35784	32	47.14286	16500	1023.803	88.26026	91.20425	14.12625	40.25	283.1351	24.35001	95.66412	0.6019993	14.14938	0.7670002	1	3	1	0.15	2727	73.3999	38.21464	38.16125	2.701443	139.5195	129.1481	0.7027622	9.187895	260.1718
8/29/2014 4:28:06 PM	16:28:06	30	A	2	49	70	35784	32	45.71429	16000	1028.619	88.26026	91.20425	14.12625	40.25	282.731	24.015	95.66412	0.5930004	14.1466	0.7530003	1	3	1	0.15	2763	71.6001	37.66697	37.89125	2.682329	139.295	128.3475	0.6962311	9.102507	257.7538
8/29/2014 4:28:16 PM	16:28:16	40	A	2	49	70	35784	35	51.42857	18000	1028.957	88.6569	91.22992	14.1255	40.13499	282.9113	23.81	95.44378	0.5790005	14.14585	0.7639999	1	3	1	0.15	2781	72.6001	38.44186	37.9855	2.689144	139.3951	128.9242	0.7014115	9.170236	259.6717
8/29/2014 4:28:26 PM	16:28:26	50	A	2	49	70	35784	32	47.14286	16500	1034.535	89.00946	91.2128	14.12588	39.7	282.8217	23.92999	95.35563	0.5610008	14.14742	0.7520008	1	3	1	0.15	2763	72.6001	38.19304	38.01087	2.690868	139.3454	129.2551	0.6992263	9.141666	258.8627
8/29/2014 4:28:36 PM	16:28:36	60	A	2	49	70	35784	37	52.85714	18500	1030.098	89.67052	91.2128	14.12588	39.7	283.1351	23.86501	95.3997	0.6030006	14.14579	0.7590008	1	3	1	0.15	2759	72.3999	38.13775	38.03088	2.692285	139.5195	129.7995	0.6991538	9.140718	258.8359
8/29/2014 4:28:46 PM	16:28:46	70	A	2	49	70	35784	33	47.14286	16500	1034.365	89.89088	91.22137	14.1255	39.57001	283.1351	23.575	95.26749	0.6100006	14.14787	0.7469997	1	3	1	0.15	2714	71.7998	36.99897	37.6055	2.662242	139.5195	128.6939	0.6914234	9.039651	255.974
8/29/2014 4:28:56 PM	16:28:56	80	A	2	49	70	35784	33	47.14286	16500	1035.295	90.28751	91.2128	14.12588	39.855	283.5829	23.89999	95.31156	0.6159992	14.14644	0.757	1	3	1	0.15	2759	72	37.71735	37.83088	2.678126	139.7683	129.6557	0.6964663	9.105582	257.8409
8/29/2014 4:29:06 PM	16:29:06	90	A	2	49	70	35784	33	47.14286	16500	1036.478	90.37565	91.2128	14.12588	39.855	283.6277	23.69501	95.22342	0.5550003	14.14619	0.7460003	1	3	1	0.15	2764	72.2002	37.99641	38.20087	2.704319	139.7932	130.8219	0.6923676	9.051995	256.3235
8/29/2014 4:29:16 PM	16:29:16	100	A	2	49	70	35784	33	47.14286	16500	1033.647	91.43334	91.2128	14.12588	40.41499	283.9858	23.97	95.13528	0.5529995	14.14496	0.7590008	1	3	1	0.15	2766	71.7998	37.70787	37.89588	2.682728	139.9921	130.6894	0.6993092	9.14275	258.8934
8/29/2014 4:29:26 PM	16:29:26	110	A	2	49	70	35784	32	45.71429	16000	1031.07	91.34521	91.22992	14.12663	40.435	283.6277	23.94501	95.22342	0.5820007	14.14943	0.7549992	1	3	1	0.15	2766	73	38.55055	37.91163	2.6837	139.7932	130.6658	0.6993616	9.143436	258.9128
8/29/2014 4:29:36 PM	16:29:36	120	A	2	49	70	35784	32	47.14286	16500	1029.929	91.213	91.22992	14.12663	40.435	283.4038	24.295	95.13528	0.6429996	14.14838	0.7600002	1	3	1	0.15	2717	75.7998	39.21244	38.29162	2.710599	139.6688	131.7003	0.6998633	9.149994	259.0985
8/29/2014 4:29:46 PM	16:29:46	130	A	2	49	70	35784	32	45.71429	16000	1033.816	91.87405	91.2128	14.12588	40.435	283.4486	23.705	95.17935	0.5909996	14.14937	0.7539997	1	3	1	0.15	2752	71.2002	37.41211	38.02587	2.69193	139.6937	131.4008	0.6970677	9.113444	258.0636
8/29/2014 4:29:56 PM	16:29:56	140	A	2	49	70	35784	32	45.71429	16000	1029.802	91.25706	91.19568	14.12663	40.75999	283.359	23.935	95.35563	0.6240005	14.14863	0.7689991	1	3	1	0.15	2772	72.7998	38.42286	38.10163	2.69715	139.6439	131.168	0.7015345	9.171844	259.7173
8/29/2014 4:30:06 PM	16:30:06	150	A	2	49	70	35784	33	47.14286	16500	1030.859	90.68414	91.19568	14.12663	40.75999	282.9113	23.95	95.17935	0.5310001	14.14556	0.7479992	1	3	1	0.15	2775	72.2002	38.14763	38.05662	2.693964	139.3951	130.6136	0.6942016	9.075974	257.0025
8/29/2014 4:30:16 PM	16:30:16	160	A	2	49	70	35784	32	45.71429	16000	1024.817	90.24344	91.17004	14.1255	39.41499	282.5546	24.205	95.09122	0.5909996	14.14812	0.7639999	1	3	1	0.15	2757	73.7998	38.73987	38.2755	2.709673	139.197	130.9489	0.7007778	9.161951	259.4371
8/29/2014 4:30:26 PM	16:30:26	170	A	2	49	70	35784	33	47.14286	16500	1025.958	89.97901	91.12729	14.12588	38.66499	282.29	24.37	95.22342	0.5930004	14.14868	0.7730007	1	3	1	0.15	2721	73	37.81966	38.25588	2.708213	139.05	130.6936	0.7057446	9.226887	261.2759
8/29/2014 4:30:36 PM	16:30:36	180	A	2	49	70	35784	33	45.71429	16000	1025.831	90.02309	91.12729	14.12588	38.66499	281.849	24.28	95.13528	0.6210003	14.14673	0.7649994	1	3	1	0.15	2777	72.2002	38.17512	38.48087	2.724141	138.805	131.391	0.7020988	9.179221	259.9261
8/29/2014 4:30:46 PM	16:30:46	190	A	2	49	70	35784	32	45.71429	16000	1023.634	89.62645	91.05887	14.1255	39.10001	281.8931	23.86501	95.22342	0.5960007	14.14729	0.7660007	1	3	1	0.15	2794	72.3999	38.40882	38.2805	2.710028	138.8295	130.5104	0.7025166	9.184683	260.0808
8/29/2014 4:30:56 PM	16:30:56	200	A	2	49	70	35784	32	48.57143	17000	1025.789	89.49424	90.99048	14.1255	40.05499	281.6285	24.045	95.09122	0.5489998	14.14755	0.7660007	1	3	1	0.15	2786	72.3999	38.40478	38.1705	2.70224	138.6825	130.0875	0.704887	9.215675	260.9584
8/29/2014 4:31:06 PM	16:31:06	210	A	2	49	70	35784	33	47.14286	16500	1030.69	90.28751	90.99048	14.1255	40.05499	281.8049	23.83501	95.00306	0.5760002	14.14755	0.7509995	1	3	1	0.15	2768	72.2002	38.15665	37.9805	2.688789	138.7805	130.105	0.6957738	9.096529	257.5846
8/29/2014 4:31:16 PM	16:31:16	220	A	2	49	70	35784	37	52.85714	18500	1030.647	91.87405	90.93921	14.12588	40.45	282.687	24.3	95.09122	0.5760002	14.1468	0.7560005	1	3	1	0.15	2724	71.7998	37.23888	38.07088	2.695117	139.2706	131.5351	0.6980043	9.12569	258.4103
8/29/2014 4:31:26 PM	16:31:26	230	A	2	49	70	35784	33	45.71429	16000	1026.211	91.60963	90.89645	14.12663	39.71001	282.1577	24.09	95.09122	0.5839996	14.14849	0.7600002	1	3	1	0.15	2787	71.6001	37.99415	38.23162	2.706352	138.9765	131.8135	0.6998927	9.150379	259.1094
8/29/2014 4:31:36 PM	16:31:36	240	A	2	49	70	35784	32	47.14286	16500	1025.577	91.30114	90.89645	14.12663	39.71001	281.9372	24.155	95.00306	0.6630001	14.14965	0.7649994	1	3	1	0.15	2789	72	38.23378	38.37162	2.716262	138.854	132.0022	0.7022412	9.181084	259.9789
8/29/2014 4:31:46 PM	16:31:46	250	A	2	49	70	35784	32	47.14286	16500	1026.169	90.59601	90.85367	14.12625	39.595	281.5403	24.075	95.13528	0.5610008	14.1501	0.7549992	1	3	1	0.15	2786	71.7998	38.08646	38.20625	2.704628	138.6335	130.9967	0.6975831	9.120182	258.2544
8/29/2014 4:31:56 PM	16:31:56	260	A	2	49	70	35784	32	45.71429	16000	1030.563	90.50787	90.77676	14.12625	39.78	281.5403	23.52	95.00306	0.6459999	14.14923	0.7609997	1	3	1	0.15	2776	72.7998	38.4783	37.94626	2.686223	138.6335	130.1585	0.7003958	9.156956	259.2957
8/29/2014 4:32:06 PM	16:32:06	270	A	2	49	70	35784	31	44.28571	15500	1026.127	90.99264	90.77676	14.12625	39.78	281.7608	24.035	94.91492	0.6110001	14.14866	0.7639999	1	3	1	0.15	2727	76.2002	39.46071	38.16624	2.701796	138.756	131.1691	0.70184	9.175838	259.8304
8/29/2014 4:32:16 PM	16:32:16	280	A	2	49	70	35784	33	47.14286	16500	1027.394	90.55194	90.6998	14.12588	39.86501	281.5403	24.045	95.00306	0.6739998	14.14814	0.7579994	1	3	1	0.15	2756	71.2002	37.3617	38.09087	2.696532	138.6335	130.6245	0.6994683	9.144831	258.9523
8/29/2014 4:32:26 PM	16:32:26	290	A	2	49	70	35784	33	47.14286	16500	1030.985	91.43334	90.64847	14.12625	40.07001	281.408	23.72501	95.00306	0.5990009	14.14797	0.7639999	1	3	1	0.15	2767	71.7998	37.82671	38.17125	2.70215	138.56	131.5076	0.7013016	9.168798	259.631
8/29/2014 4:32:36 PM	16:32:36	300	A	2	49	70	35784	33	47.14286	16500	1025.197	90.94857	90.64847	14.12625	40.07001	281.7608	24.19501	94.91492	0.6289997	14.14894	0.7700005	1	3	1	0.15	2781	72.6001	38.44186	37.99126	2.689409	138.756	130.6158	0.7027508	9.187745	260.1675
8/29/2014 4:32:46 PM	16:32:46	310	A	2	49	70	35784	33	47.14286	16500	1025.789	90.50787	90.60577	14.12588	39.75	281.5403	23.965	95.00306	0.625	14.1464	0.7619991	1	3	1	0.15	2786	73.2002	38.8293	37.87087	2.680958	138.6335	129.9366	0.700783	9.162018	259.439
8/29/2014 4:32:56 PM	16:32:56	320	A	2	49	70	35784	32	45.71429	16000	1024.521	90.41972	90.55444	14.12588	39.89999	281.5403	24.21001	95.00306	0.625	14.14864	0.757	1	3	1	0.15	2727	74.2002	38.42227	38.04087	2.692992	138.6335	130.3787	0.6985679	9.133059	258.619
8/29/2014 4:33:06 PM	16:33:06	330	A	2	49	70	35784	33	47.14286	16500	1022.366	89.53831	90.55444	14.12588	39.89999	281.4521	24.505	95.04713	0.6019993	14.14843	0.7609997	1	3	1	0.15	2768	71.7998	37.94589	38.28588	2.710337	138.5845	130.4585	0.7017432	9.174572	259.7945
8/29/2014 4:33:16 PM	16:33:16	340	A	2	49	70	35784	32	45.71429	16000	1027.774	89.67052	90.46039	14.1255	39.77	281.4521	24.145	95.04713	0.6229992	14.14942	0.757	1	3	1	0.15	2794	72.6001	38.62156	38.1455	2.700471	138.5845	130.1429	0.6985338	9.132612	258.6064
8/29/2014 4:33:26 PM	16:33:26	350	A	2	49	70	35784	32	45.71429	16000	1024.859	89.49424	90.36636	14.12625	39.55499	281.6285	24.05	95.09122	0.6240005	14.14779	0.7649994	1	3	1	0.15	2788	72.3999	38.53862	38.16624	2.701796	138.6825	130.0689	0.7021734	9.180198	259.9538
8/29/2014 4:33:36 PM	16:33:36	360	A	2	49	70	35784	33	47.14286	16500	1025.915	89.0976	90.36636	14.12625	39.55499	281.0111	24.27499	95.00306	0.6149998	14.14826	0.7609997	1	3	1	0.15	2773	73.7998	38.96469	38.12125	2.698611	138.3395	129.6444	0.7003876	9.156849	259.2927
8/29/2014 4:33:46 PM	16:33:46	370	A	2	49	70	35784	31	44.28571	15500	1030.309	89.53831	90.27231	14.12625	39.64	281.3198	23.8	95.04713	0.6200008	14.14855	0.7530003	1	3	1	0.15	2732	71.3999	37.14022	38.06125	2.694363	138.511	129.7897	0.696694	9.10856	257.9253
8/29/2014 4:33:56 PM	16:33:56	380	A	2	49	70	35784	33	47.14286	16500	1025.789	90.11123	90.21243	14.12625	40.075	281.3198	23.955	94.91492	0.6009998	14.14511	0.7759991	1	3	1	0.15	2776	72	38.05556	38.37625	2.716662	138.511	131.1439	0.7072102	9.246047	261.8185
8/29/2014 4:34:06 PM	16:34:06	390	A	2	49	70	35784	33	47.14286	16500	1026.972	90.28751	90.21243	14.12625	40.075	281.5403	24.065	94.87086	0.6040001	14.14793	0.7639999	1	3	1	0.15	2780	72.2002	38.21637	38.24126	2.707106	138.6335	130.8739	0.7018274	9.175673	259.8257
8/29/2014 4:34:16 PM	16:34:16	400	A	2	49	70	35784	32	45.71429	16000	1027.817	90.50787	90.16968	14.12588	40.465	281.5844	23.995	94.91492	0.6079998	14.14904	0.7579994	1	3	1	0.15	2779	73	38.62581	38.15087	2.700779	138.658	130.7705	0.69909	9.139885	258.8123
8/29/2014 4:34:26 PM	16:34:26	410	A	2	49	70	35784	34	51.42857	18000	1026.084	90.50787	90.10129	14.12625	40.935	281.5844	23.99001	94.91492	0.5900002	14.14595	0.7609997	1	3	1	0.15	2758	73.6001	38.64905	38.26125	2.708521	138.658	131.095	0.7004048	9.157075	259.299
8/29/2014 4:34:36 PM	16:34:36	420	A	2	49	70	35784	32	45.71429	16000	1025.662	90.59601	90.10129	14.12625	40.935	281.6285	24.205	94.95899	0.5699997	14.14772	0.7590008	1	3	1	0.15	2729	72	37.51527	38.31625	2.712415	138.6825	131.3228	0.7017685	9.174904	259.8039
8/29/2014 4:34:46 PM	16:34:46	430	A	2	49	70	35784	32	45.71429	16000	1024.775	89.84681	90.07565	14.1255	41.41	281.408	23.85001	95.00306	0.5949993	14.14784	0.7649994	1	3	1	0.15	2771	72.3999	38.19801	38.3855	2.717461	138.56	130.9828	0.7022281	9.180912	259.974
8/29/2014 4:34:56 PM	16:34:56	440	A	2	49	70	35784	33	47.14286	16500	1029.76	89.93494	90.03287	14.12588	41.77499	281.5403	24.28	94.87086	0.6499996	14.14796	0.7479992	1	3	1	0.15	2767	72	37.93219	37.84087	2.678834	138.6335	129.4273	0.6944731	9.079523	257.103
8/29/2014 4:35:06 PM	16:35:06	450	A	2	49	70	35784	32	45.71429	16000	1025.831	90.19937	90.03287	14.12588	41.77499	281.7608	24.205	94.95899	0.6429996	14.14835	0.7609997	1	3	1	0.15	2761	72.2002	37.95517	38.13587	2.699718	138.756	130.4995	0.6976408	9.120937	258.2758
8/29/2014 4:35:16 PM	16:35:16	460	A	2	49	70	35784	32	45.71429	16000	1026.676	90.1553	90.01581	14.12513	41.405	281.8931	24.08501	94.82679	0.6189995	14.14486	0.7479992	1	3	1	0.15	2716	76.2002	39.40507	38.32013	2.712906	138.8295	131.0194	0.6944234	9.078873	257.0846
8/29/2014 4:35:26 PM	16:35:26	470	A	2	49	70	35784	33	47.14286	16500	1023.803	90.02309	90.01581	14.1255	41.575	281.6726	24.19	94.87086	0.507	14.14816	0.7619991	1	3	1	0.15	2765	70.6001	37.27291	38.2655	2.708966	138.707	130.7575	0.7009123	9.163709	259.4869
8/29/2014 4:35:36 PM	16:35:36	480	A	2	49	70	35784	35	50	17500	1025.62	89.93494	90.01581	14.1255	41.575	281.7167	24.19501	94.91492	0.5760002	14.14701	0.75	1	3	1	0.15	2777	71.7998	37.96342	38.1405	2.700117	138.7315	130.3221	0.6953417	9.090879	257.4246
8/29/2014 4:35:46 PM	16:35:46	490	A	2	49	70	35784	32	45.71429	16000	1024.605	89.62645	89.97305	14.12588	41.38499	281.8931	23.995	94.95899	0.6130009	14.14691	0.7439995	1	3	1	0.15	2772	72.7998	38.42286	38.26588	2.708921	138.8295	130.4641	0.6925166	9.053944	256.3787
8/29/2014 4:35:56 PM	16:35:56	500	A	2	49	70	35784	32	45.71429	16000	1025.366	89.45017	89.94739	14.1255	41.71001	281.5403	24.145	94.73865	0.6140003	14.14664	0.7590008	1	3	1	0.15	2745	73.6001	38.46688	38.11551	2.698347	138.6335	129.8921	0.6995967	9.146509	258.9999
8/29/2014 4:36:06 PM	16:36:06	510	A	2	49	70	35784	32	45.71429	16000	1024.394	89.4061	89.94739	14.1255	41.71001	281.5844	24.16	94.91492	0.6299992	14.14643	0.7649994	1	3	1	0.15	2735	72.2002	37.806	37.9355	2.685604	138.658	129.3248	0.7022145	9.180734	259.969
8/29/2014 4:36:16 PM	16:36:16	520	A	2	49	70	35784	33	47.14286	16500	1026.296	89.36202	89.92175	14.12475	41.95	281.4962	23.965	94.82679	0.6650009	14.14737	0.7509995	1	3	1	0.15	2761	71.7998	37.74469	37.89475	2.682862	138.609	129.1772	0.6981623	9.127755	258.4688
8/29/2014 4:36:26 PM	16:36:26	530	A	2	49	70	35784	33	47.14286	16500	1023.718	89.45017	89.87045	14.12513	41.52	281.4962	23.785	94.69456	0.6019993	14.14681	0.7600002	1	3	1	0.15	2775	72.7998	38.35892	38.15512	2.701224	138.609	130.0126	0.7023688	9.182751	260.0261
8/29/2014 4:36:36 PM	16:36:36	540	A	2	49	70	35784	32	47.14286	16500	1024.732	89.27389	89.87045	14.12513	41.52	281.4962	24.005	94.69456	0.5690002	14.14771	0.7609997	1	3	1	0.15	2766	73.2002	38.65573	38.27512	2.709719	138.609	130.2384	0.7005879	9.159468	259.3668
8/29/2014 4:36:46 PM	16:36:46	550	A	2	49	70	35784	31	44.28571	15500	1024.141	89.45017	89.84479	14.1255	42.345	281.5403	24.145	94.60643	0.6340008	14.14812	0.7649994	1	3	1	0.15	2726	76.3999	39.6538	38.4305	2.720646	138.6335	130.8239	0.7024875	9.184303	260.0701
8/29/2014 4:36:56 PM	16:36:56	560	A	2	49	70	35784	33	47.14286	16500	1024.817	89.14168	89.80203	14.12513	41.2	281.3198	24	94.6505	0.5370007	14.14439	0.7619991	1	3	1	0.15	2741	72.6001	37.88894	38.31012	2.712197	138.511	130.2447	0.7009683	9.164441	259.5076
8/29/2014 4:37:06 PM	16:37:06	570	A	2	49	70	35784	32	47.14286	16500	1023.38	88.61282	89.80203	14.12513	41.2	281.3198	24.095	94.78271	0.6490002	14.14489	0.7560005	1	3	1	0.15	2776	72.3999	38.37275	38.25513	2.708304	138.511	129.6936	0.6972396	9.115692	258.1272
8/29/2014 4:37:16 PM	16:37:16	580	A	2	49	70	35784	32	45.71429	16000	1023.507	88.61282	89.75928	14.12475	40.105	281.2757	24.16499	94.73865	0.6210003	14.14625	0.7630005	1	3	1	0.15	2777	72.6001	38.38657	38.25974	2.708702	138.4865	129.7102	0.7014141	9.17027	259.6727
8/29/2014 4:37:26 PM	16:37:26	590	A	2	49	70	35784	32	45.71429	16000	1022.62	88.52469	89.69943	14.1255	40.205	281.0111	24.175	94.73865	0.5690002	14.1452	0.7520008	1	3	1	0.15	2764	73.7998	38.83823	38.3055	2.711797	138.3395	129.7745	0.6963477	9.104031	257.797
8/29/2014 4:37:36 PM	16:37:36	600	A	2	49	70	35784	32	45.71429	16000	1022.282	88.48061	89.69943	14.1255	40.205	280.7465	24.31	94.60643	0.6490002	14.14711	0.7649994	1	3	1	0.15	2736	72	37.50721	38.5955	2.732328	138.1925	130.5957	0.7024301	9.183553	260.0488
8/29/2014 4:37:46 PM	16:37:46	610	A	2	49	70	35784	33	48.57143	17000	1024.901	88.56876	89.65671	14.1255	40.235	280.7465	24.05499	94.60643	0.5849991	14.14661	0.7530003	1	3	1	0.15	2774	72	38.02814	38.24051	2.707196	138.1925	129.615	0.6969068	9.111341	258.004
8/29/2014 4:37:56 PM	16:37:56	620	A	2	49	70	35784	32	47.14286	16500	1025.366	88.92133	89.57977	14.1255	41.27	280.6583	24.27499	94.6505	0.6229992	14.1465	0.7479992	1	3	1	0.15	2775	72.3999	38.35892	38.17551	2.702595	138.1435	129.6817	0.6945643	9.080715	257.1368
8/29/2014 4:38:06 PM	16:38:06	630	A	2	49	70	35784	32	45.71429	16000	1029.633	89.58238	89.57977	14.1255	41.27	280.8347	23.95	94.56236	0.6130009	14.14787	0.7509995	1	3	1	0.15	2748	73.2002	38.29968	38.38051	2.717108	138.2415	130.7736	0.6969591	9.112024	258.0234
8/29/2014 4:38:16 PM	16:38:16	640	A	2	49	70	35784	32	45.71429	16000	1038.802	91.56557	89.54556	14.12475	42.77499	281.7608	23.67	94.56236	0.5849991	14.14629	0.7360001	1	3	1	0.15	2686	72.2002	36.92416	37.74975	2.672596	138.609	130.3577	0.6871662	8.983993	254.3979
8/29/2014 4:38:26 PM	16:38:26	650	A	2	49	70	35784	32	45.71429	16000	1036.14	93.37246	89.49423	14.1255	43.07001	282.731	23.855	94.73865	0.5869999	14.14422	0.7299995	1	3	1	0.15	2731	70.6001	36.71074	37.95551	2.68702	139.295	132.2922	0.6865492	8.975925	254.1695
8/29/2014 4:38:36 PM	16:38:36	660	A	2	49	70	35784	32	45.71429	16000	1045.013	94.43015	89.49423	14.1255	43.07001	283.7172	23.765	94.78271	0.5890007	14.14737	0.7350006	1	3	1	0.15	2733	71	36.94572	37.41051	2.648438	139.8429	131.4225	0.6898754	9.019412	255.4009
8/29/2014 4:38:46 PM	16:38:46	670	A	2	49	70	35784	32	45.71429	16000	1033.267	94.16573	89.47717	14.12513	42.895	284.0306	23.81	95.09122	0.6159992	14.14721	0.7539997	1	3	1	0.15	2755	71.3999	37.55791	38.33513	2.713968	140.017	134.0121	0.6980252	9.125963	258.4181
8/29/2014 4:38:56 PM	16:38:56	680	A	2	49	70	35784	32	45.71429	16000	1034.957	93.46059	89.44296	14.12475	41.94	283.762	23.86	95.09122	0.6410007	14.14792	0.743	1	3	1	0.15	2748	72	37.67172	37.70975	2.669764	139.8678	131.6244	0.6919934	9.047105	256.1851
8/29/2014 4:39:23 PM	16:39:23	0	A	2	49	70	35784	33	47.14286	16500	1036.774	92.79954	89.44296	14.12475	41.935	283.1799	23.75	95.53191	0.5979996	14.14748	0.743	1	3	1	0.15	2779	71.6001	37.77917	37.59475	2.661622	139.5444	130.7944	0.6898466	9.019037	255.3903
8/29/2014 4:39:33 PM	16:39:33	0	A	2	50	71.42857	36514.29	33	47.14286	16500	1036.436	92.09441	89.44296	14.12475	41.935	283.4486	24.825	95.57599	0.6450005	14.14766	0.7919998	1	3	1	0.15	2807	73	39.01499	39.08974	2.767464	139.6937	134.717	0.7141128	9.336292	264.3739
8/29/2014 4:39:43 PM	16:39:43	0	A	2	52	74.28571	37974.86	36	51.42857	18000	1062.167	90.50787	89.42584	14.12475	41.53	286.7171	27.78999	95.62006	0.7380009	14.15008	0.9020004	1	3	1	0.15	3037	80.2002	46.37527	41.70975	2.952955	141.5095	141.0148	0.7641022	9.989852	282.8806
8/29/2014 4:39:53 PM	16:39:53	0	A	2	54	77.14286	39435.43	38	55.71429	19500	1097.446	92.31477	89.42584	14.12513	41.045	293.1646	30.78999	95.75226	0.8859997	14.15657	1.040001	1	3	1	0.15	3295	89.3999	56.08654	44.45513	3.147238	145.0915	149.8706	0.8220586	10.74757	304.3369
8/29/2014 4:40:03 PM	16:40:03	0	A	2	55	78.57143	40165.71	42	60	21000	1104.587	93.32839	89.42584	14.12513	41.045	303.5075	32.625	95.62006	0.9890003	14.16011	1.132999	1	3	1	0.15	3608	94.2002	64.71196	46.71512	3.307236	150.8375	156.5849	0.8540456	11.16577	316.1789
8/29/2014 4:40:13 PM	16:40:13	0	A	2	56	80	40896	45	64.28571	22500	1100.15	91.38927	89.40875	14.1255	40.515	312.1938	33.72501	95.70819	1.018999	14.16171	1.204	1	3	1	0.15	3855	100.7998	73.98612	48.0455	3.401331	155.6632	158.4619	0.8766247	11.46097	324.5379
8/29/2014 4:40:23 PM	16:40:23	0	A	2	56	80	40896	46	65.71429	23000	1099.052	89.89088	89.42584	14.12513	39.97	317.1637	33.92	95.70819	0.9389992	14.16047	1.181999	1	3	1	0.15	3916	102.2002	76.201	48.30013	3.419448	158.4243	157.9305	0.8722023	11.40315	322.9007
8/29/2014 4:40:33 PM	16:40:33	0	A	2	56	80	40896	46	64.28571	22500	1090.602	89.05354	89.42584	14.12513	39.97	320.1636	33	95.75226	0.9120007	14.16069	1.145	1	3	1	0.15	3905	102.6001	75.98695	47.65512	3.373784	160.0909	155.6531	0.8584391	11.22321	317.8054
8/29/2014 4:40:43 PM	16:40:43	0	A	2	54	77.14286	39435.43	43	61.42857	21500	1085.489	88.74504	89.40875	14.12513	40.17999	317.9249	31.13499	95.53191	0.8610001	14.1566	1.045	1	3	1	0.15	3664	99	68.78584	45.29012	3.206352	158.8472	149.3349	0.8214561	10.7397	304.1138
8/29/2014 4:40:53 PM	16:40:53	0	A	2	54	77.14286	39435.43	43	60	21000	1095.08	90.68414	89.38312	14.12475	40.655	316.0443	30.92999	95.53191	0.7849998	14.15623	1.042	1	3	1	0.15	3610	93.2002	64.06049	45.13474	3.195436	157.8024	150.4233	0.8190764	10.70858	303.2328
8/29/2014 4:41:03 PM	16:41:03	0	A	2	55	77.14286	39435.43	42	60	21000	1086.545	90.86044	89.38312	14.12475	40.655	316.4921	31.27499	95.44378	0.9200001	14.15749	1.055	1	3	1	0.15	3627	95	65.60506	45.25475	3.203933	158.0512	151.1803	0.8231018	10.76121	304.7231
8/29/2014 4:41:13 PM	16:41:13	0	A	2	55	78.57143	40165.71	43	61.42857	21500	1092.292	90.41972	89.38312	14.12475	40.935	317.5667	32.06	95.57599	0.8059998	14.15742	1.070999	1	3	1	0.15	3668	95.7998	66.90524	46.10474	3.26411	158.6482	152.7531	0.8303735	10.85628	307.4151
8/29/2014 4:41:23 PM	16:41:23	0	A	2	54	77.14286	39435.43	43	61.42857	21500	1093.644	90.37565	89.40021	14.1255	41.08501	318.7756	31.36501	95.57599	0.8700008	14.15987	1.079	1	3	1	0.15	3682	96	67.30096	46.20551	3.27107	159.3198	152.9736	0.8304549	10.85735	307.4453
8/29/2014 4:41:33 PM	16:41:33	0	A	2	55	78.57143	40165.71	43	61.42857	21500	1094.151	91.74184	89.40021	14.1255	41.08501	320.7457	31.92	95.66412	0.8999996	14.15716	1.073999	1	3	1	0.15	3650	100.6001	69.7738	45.6555	3.232133	160.4143	152.5992	0.8314624	10.87052	307.8183
8/29/2014 4:41:43 PM	16:41:43	10	A	3	55	78.57143	40165.71	43	61.42857	21500	1100.531	93.01989	89.39163	14.12475	41.28	322.268	31.855	95.84042	0.8330002	14.15619	1.054001	1	3	1	0.15	3677	94.7998	66.22949	45.57975	3.226942	161.26	153.3935	0.823527	10.76677	304.8805
8/29/2014 4:41:53 PM	16:41:53	20	A	3	55	78.57143	40165.71	43	61.42857	21500	1100.911	94.16573	89.39163	14.12475	41.28	323.4769	31.89	95.84042	0.8810005	14.15775	1.063	1	3	1	0.15	3687	96.2002	67.67308	45.93475	3.252075	161.9316	155.2093	0.8270738	10.81314	306.1935
8/29/2014 4:42:03 PM	16:42:03	30	A	3	55	78.57143	40165.71	43	61.42857	21500	1098.714	94.91492	89.41727	14.12513	41.16	323.7903	32.12	96.01669	0.8799992	14.15722	1.069	1	3	1	0.15	3687	97	68.23489	45.85512	3.246351	162.1058	155.5768	0.8292585	10.8417	307.0024
8/29/2014 4:42:13 PM	16:42:13	40	A	3	55	78.57143	40165.71	43	61.42857	21500	1092.799	93.01989	89.42584	14.12513	41.30499	323.5217	31.98	96.28111	0.8929996	14.15595	1.075001	1	3	1	0.15	3708	96.7998	68.34086	45.88013	3.248122	161.9565	154.1772	0.8267154	10.80845	306.0608
8/29/2014 4:42:23 PM	16:42:23	50	A	3	55	78.57143	40165.71	43	61.42857	21500	1087.222	91.213	89.44296	14.12513	41.28	323.4321	32.14999	96.32519	0.9540005	14.15884	1.073999	1	3	1	0.15	3699	99	69.58356	46.67513	3.304404	161.9068	154.8382	0.8364035	10.93512	309.6475
8/29/2014 4:42:33 PM	16:42:33	60	A	3	55	78.57143	40165.71	43	61.42857	21500	1088.616	89.49424	89.44296	14.12513	41.28	323.2083	32.2	96.50147	0.9080009	14.15798	1.09	1	3	1	0.15	3709	95.2002	67.08828	46.30013	3.277856	161.7824	152.5383	0.8369877	10.94276	309.8638
8/29/2014 4:42:43 PM	16:42:43	70	A	3	55	78.57143	40165.71	44	61.42857	21500	1084.348	88.6569	89.45151	14.1255	40.28	323.3874	31.75	96.41332	0.8649998	14.15846	1.076	1	3	1	0.15	3741	96.3999	68.80682	46.49051	3.291247	161.8819	152.3756	0.8317182	10.87386	307.913
8/29/2014 4:42:53 PM	16:42:53	80	A	3	55	78.57143	40165.71	44	61.42857	21500	1086.503	88.39248	89.40021	14.1255	39.57001	323.253	31.94501	96.28111	0.9629993	14.15734	1.076	1	3	1	0.15	3731	97	68.76476	45.8755	3.247708	161.8072	150.5842	0.8317845	10.87473	307.9375
8/29/2014 4:43:03 PM	16:43:03	90	A	3	54	77.14286	39435.43	44	62.85714	22000	1084.813	88.74504	89.40021	14.1255	39.57001	323.2978	32.17	96.32519	0.8959999	14.1551	1.082001	1	3	1	0.15	3735	96.6001	68.69646	46.38051	3.283459	161.8321	152.1613	0.8339752	10.90337	308.7485
8/29/2014 4:43:13 PM	16:43:13	100	A	3	54	77.14286	39435.43	44	61.42857	21500	1078.983	88.39248	89.41727	14.1255	39.42999	322.7605	31.91	96.19298	0.8560009	14.15618	1.056999	1	3	1	0.15	3732	97.7998	69.49376	46.2755	3.276025	161.5336	151.7201	0.8310266	10.86482	307.6569
8/29/2014 4:43:23 PM	16:43:23	110	A	3	55	78.57143	40165.71	43	61.42857	21500	1080.926	88.26026	89.41727	14.1255	39.42999	321.5964	31.98	96.10483	0.7929993	14.15846	1.084	1	3	1	0.15	3655	97.3999	67.92096	46.0305	3.258681	160.8869	150.8831	0.8300202	10.85166	307.2844
8/29/2014 4:43:33 PM	16:43:33	120	A	3	55	78.57143	40165.71	44	62.85714	22000	1079.701	88.43655	89.38312	14.1255	38.89	321.5068	32.035	96.01669	0.9099998	14.15947	1.073	1	3	1	0.15	3727	96.6001	68.54932	46.32051	3.279212	160.8371	151.7677	0.8308701	10.86277	307.599
8/29/2014 4:43:43 PM	16:43:43	130	A	3	55	78.57143	40165.71	43	61.42857	21500	1075.983	88.48061	89.35745	14.1255	38.88	321.4173	31.99001	95.79634	0.8659992	14.15799	1.07	1	3	1	0.15	3713	96	67.86758	46.2755	3.276025	160.7874	151.6859	0.8298335	10.84922	307.2152
8/29/2014 4:43:53 PM	16:43:53	140	A	3	55	77.14286	39435.43	43	61.42857	21500	1085.067	88.61282	89.34036	14.1255	39.64999	321.0591	32.03999	95.84042	0.9160004	14.15687	1.072001	1	3	1	0.15	3695	95.6001	67.39773	46.27051	3.275672	160.5884	151.7755	0.8305577	10.85869	307.4833
8/29/2014 4:44:03 PM	16:44:03	150	A	3	54	77.14286	39435.43	43	61.42857	21500	1088.996	90.64008	89.34036	14.1255	39.64999	322.1337	31.405	95.70819	0.8880005	14.15832	1.051001	1	3	1	0.15	3657	95.3999	66.56554	45.5905	3.227531	161.1854	151.5787	0.8225442	10.75392	304.5166
8/29/2014 4:44:13 PM	16:44:13	160	A	3	55	78.57143	40165.71	42	60	21000	1098.883	92.75546	89.32324	14.12513	40.145	322.4919	31.495	95.75226	0.8449993	14.15881	1.049999	1	3	1	0.15	3620	97.7998	67.4082	45.50513	3.221573	161.3844	152.9903	0.8185912	10.70224	303.0532
8/29/2014 4:44:23 PM	16:44:23	170	A	3	55	78.57143	40165.71	43	61.42857	21500	1090.052	93.54874	89.32324	14.12513	40.145	322.8948	31.515	95.92855	0.8099995	14.15566	1.049	1	3	1	0.15	3671	94	65.56205	45.52512	3.222989	161.6082	153.6549	0.8246168	10.78102	305.2839
8/29/2014 4:44:33 PM	16:44:33	180	A	3	54	77.14286	39435.43	43	61.42857	21500	1091.911	93.85723	89.30615	14.1255	40.675	323.0739	31.57001	96.10483	0.8570004	14.15467	1.044001	1	3	1	0.15	3675	94.7998	66.47329	45.74051	3.238151	161.7077	154.4556	0.8194063	10.7129	303.3549
8/29/2014 4:44:43 PM	16:44:43	190	A	3	55	78.57143	40165.71	43	61.42857	21500	1084.179	92.57918	89.30615	14.12588	41.035	323.1187	31.855	96.28111	0.8990002	14.15952	1.058001	1	3	1	0.15	3684	96	67.33751	45.85088	3.245879	161.7326	153.7537	0.8256367	10.79435	305.6615
8/29/2014 4:44:53 PM	16:44:53	200	A	3	55	78.57143	40165.71	43	61.42857	21500	1079.321	91.12485	89.30615	14.12588	41.015	322.6262	32.03999	96.32519	0.9699993	14.1592	1.066999	1	3	1	0.15	3688	96.7998	67.97224	46.19088	3.269948	161.459	153.513	0.8283013	10.82919	306.648
8/29/2014 4:45:03 PM	16:45:03	210	A	3	55	78.57143	40165.71	42	61.42857	21500	1086.841	90.59601	89.30615	14.12588	41.015	322.4023	31.28999	96.23705	0.8199997	14.15659	1.032	1	3	1	0.15	3638	100.6001	69.5444	45.63587	3.230658	161.3346	151.66	0.8146595	10.65084	301.5976
8/29/2014 4:45:13 PM	16:45:13	220	A	3	55	77.14286	39435.43	43	61.42857	21500	1084.686	90.81635	89.30615	14.1255	40.52499	322.671	31.77499	96.10483	0.9099998	14.1607	1.059999	1	3	1	0.15	3695	95	66.69421	45.99051	3.25585	161.4839	152.7574	0.8226885	10.75581	304.57
8/29/2014 4:45:23 PM	16:45:23	230	A	3	55	78.57143	40165.71	43	62.85714	22000	1080.757	90.50787	89.30615	14.1255	40.52499	322.7157	31.74001	96.14891	0.8659992	14.15593	1.039	1	3	1	0.15	3715	95	67.19681	46.0155	3.257619	161.5087	152.5836	0.8174447	10.68725	302.6287
8/29/2014 4:45:33 PM	16:45:33	240	A	3	54	77.14286	39435.43	43	61.42857	21500	1079.321	89.45017	89.30615	14.12625	41.38	321.6859	31.35001	96.19298	0.8610001	14.15625	1.047001	1	3	1	0.15	3697	96.3999	68.13811	45.47125	3.218919	160.9366	150.3427	0.820546	10.7278	303.7769
8/29/2014 4:45:43 PM	16:45:43	250	A	3	55	77.14286	39435.43	43	61.42857	21500	1090.052	89.58238	89.28049	14.1255	41.11	321.8651	31.47	96.10483	0.9249992	14.15658	1.028999	1	3	1	0.15	3667	95.6001	66.46836	45.4705	3.219036	161.0361	150.449	0.8095964	10.58464	299.7232
8/29/2014 4:45:53 PM	16:45:53	260	A	3	54	77.14286	39435.43	43	61.42857	21500	1090.052	89.53831	89.27197	14.12475	40.83	322.1785	31.92	96.14891	0.8339996	14.15579	1.044001	1	3	1	0.15	3628	98	67.55717	45.49975	3.221278	161.2103	150.4977	0.8194126	10.71298	303.3573
8/29/2014 4:46:03 PM	16:46:03	270	A	3	54	77.14286	39435.43	42	61.42857	21500	1087.179	89.36202	89.27197	14.12475	40.83	322.7605	31.28	96.14891	0.8139992	14.15771	1.040001	1	3	1	0.15	3653	93.3999	65.10168	45.33974	3.20995	161.5336	149.9434	0.814343	10.6467	301.4805
8/29/2014 4:46:13 PM	16:46:13	280	A	3	54	78.57143	40165.71	43	61.42857	21500	1085.574	90.02309	89.27197	14.12513	41.10001	322.4919	31.595	96.19298	0.8780003	14.15686	1.037001	1	3	1	0.15	3677	94.6001	66.22949	45.41013	3.214848	161.3844	150.634	0.8166535	10.67691	302.3358
8/29/2014 4:46:23 PM	16:46:23	290	A	3	54	77.14286	39435.43	43	61.42857	21500	1089.63	90.46379	89.27197	14.12513	41.10001	322.8053	31.19501	96.23705	0.8810005	14.15454	1.028	1	3	1	0.15	3651	94.3999	65.48319	45.03012	3.187945	161.5585	149.9749	0.8130014	10.62916	300.9838
8/29/2014 4:46:33 PM	16:46:33	300	A	3	54	77.14286	39435.43	42	61.42857	21500	1093.475	92.05034	89.28049	14.12475	40.845	323.4769	31.53999	96.36926	0.8630009	14.1559	1.035999	1	3	1	0.15	3636	94.7998	65.62926	45.53475	3.223756	161.9316	152.5273	0.814528	10.64912	301.549
8/29/2014 4:46:43 PM	16:46:43	310	A	3	54	77.14286	39435.43	43	60	21000	1087.179	90.9045	89.2634	14.12513	40.72	323.5217	31.46001	96.41332	0.8799992	14.15668	1.031	1	3	1	0.15	3652	95.2002	66.19647	45.39513	3.213786	161.9565	151.2742	0.8141317	10.64394	301.4022
8/29/2014 4:46:53 PM	16:46:53	320	A	3	54	77.14286	39435.43	42	60	21000	1088.362	92.09441	89.2634	14.12513	40.72	323.0291	31.92	96.45739	0.9200001	14.15527	1.045	1	3	1	0.15	3626	92.6001	64.06799	45.71512	3.23644	161.6829	153.0306	0.8218957	10.74544	304.2765
8/29/2014 4:47:03 PM	16:47:03	330	A	3	55	77.14286	39435.43	43	61.42857	21500	1086.884	91.82998	89.2634	14.12437	40.55	322.8501	31.33	96.54554	0.8129997	14.15415	1.035	1	3	1	0.15	3661	94.3999	65.9413	45.17937	3.198681	161.5834	151.426	0.8155203	10.66209	301.9163
8/29/2014 4:47:13 PM	16:47:13	340	A	3	54	77.14286	39435.43	42	60	21000	1087.813	93.10803	89.28049	14.12513	40.28	323.1187	31.27499	96.67775	0.9190006	14.15675	1.035	1	3	1	0.15	3648	94.7998	65.84586	45.66013	3.232547	161.8072	153.6694	0.8115616	10.61033	300.4507
8/29/2014 4:47:23 PM	16:47:23	350	A	3	54	78.57143	40165.71	43	61.42857	21500	1089.545	93.10803	89.28049	14.12513	40.28	323.0291	30.99001	96.85404	0.8670006	14.15758	1.042	1	3	1	0.15	3648	95.3999	66.40173	45.62513	3.230069	161.6829	153.5776	0.8154072	10.66061	301.8744
8/29/2014 4:47:33 PM	16:47:33	360	A	3	54	77.14286	39435.43	43	61.42857	21500	1089.038	94.342	89.28903	14.1255	40.38	323.0739	31.05	96.85404	0.9440002	14.15749	1.030001	1	3	1	0.15	3604	95	65.32642	45.3255	3.208771	161.7077	153.737	0.8134394	10.63489	301.1459
8/29/2014 4:47:43 PM	16:47:43	370	A	3	54	77.14286	39435.43	42	60	21000	1089.419	93.37246	89.28049	14.12437	40.535	323.2083	30.69501	97.03031	0.823	14.15903	1.011999	1	3	1	0.15	3573	90.6001	61.77093	44.62437	3.159388	161.7824	151.1396	0.8062431	10.5408	298.4818
8/29/2014 4:47:53 PM	16:47:53	380	A	3	54	77.14286	39435.43	42	60	21000	1092.376	94.16573	89.28049	14.12437	40.535	323.4769	30.705	97.03031	0.8579998	14.15621	0.9990005	1	3	1	0.15	3577	92.7998	63.33855	44.70938	3.165406	161.9316	151.9751	0.8009599	10.47173	296.5258
8/29/2014 4:48:03 PM	16:48:03	390	A	3	54	77.14286	39435.43	42	58.57143	20500	1082.743	93.1521	89.31473	14.12475	40.825	322.3127	30.465	97.2066	0.809	14.15395	0.993	1	3	1	0.15	3562	91.7998	62.39473	44.46474	3.148002	161.2849	150.5411	0.7983924	10.43816	295.5753
8/29/2014 4:48:13 PM	16:48:13	400	A	3	54	77.14286	39435.43	42	58.57143	20500	1074.419	92.44697	89.34036	14.12437	40.77	319.5368	30.625	96.98624	0.8560009	14.15285	0.993	1	3	1	0.15	3538	92.2002	62.10919	44.37938	3.142042	159.7427	149.7758	0.7985083	10.43968	295.6182
8/29/2014 4:48:23 PM	16:48:23	410	A	3	53	75.71429	38705.14	40	58.57143	20500	1086.461	94.82679	89.33179	14.12475	40.575	319.9845	30.09	96.89811	0.7819996	14.15352	0.9689999	1	3	1	0.15	3471	90.6001	59.87555	44.10474	3.122515	159.9914	150.8564	0.7889074	10.31415	292.0638
8/29/2014 4:48:33 PM	16:48:33	420	A	3	54	77.14286	39435.43	40	57.14286	20000	1081.94	95.3997	89.33179	14.12475	40.575	320.5218	30.16499	97.03031	0.9050007	14.15424	0.9850006	1	3	1	0.15	3440	91.3999	59.86464	44.44476	3.146587	160.2899	152.21	0.7952839	10.39752	294.4245
8/29/2014 4:48:43 PM	16:48:43	430	A	3	54	77.14286	39435.43	42	58.57143	20500	1076.574	93.9013	89.34888	14.124	40.375	319.4024	29.96001	97.11845	0.8260002	14.15067	0.9890003	1	3	1	0.15	3515	90.2002	60.36692	44.454	3.147409	159.668	151.0928	0.7947252	10.39022	294.2177
8/29/2014 4:48:53 PM	16:48:53	440	A	3	54	77.14286	39435.43	41	58.57143	20500	1079.997	93.5928	89.34888	14.124	40.375	318.2383	30.11501	97.29474	0.8840008	14.15598	0.9810009	1	3	1	0.15	3503	90.7998	60.69427	44.37901	3.142099	159.0213	150.6556	0.7935305	10.3746	293.7754
8/29/2014 4:49:03 PM	16:49:03	450	A	3	54	77.14286	39435.43	41	58.57143	20500	1076.659	91.9622	89.37457	14.12475	40.235	317.4324	29.75	97.29474	0.8589993	14.15655	0.9909992	1	3	1	0.15	3510	91.2002	61.08282	44.14974	3.125701	158.5735	148.7867	0.7975912	10.42769	295.2787
8/29/2014 4:49:13 PM	16:49:13	460	A	3	54	75.71429	38705.14	41	58.57143	20500	1076.912	91.43334	89.38312	14.12475	40.185	316.8055	30.27499	97.2066	0.8530006	14.15597	0.9729996	1	3	1	0.15	3504	91.2002	60.84517	44.25475	3.133135	158.2253	148.6632	0.7920073	10.35468	293.2115
8/29/2014 4:49:23 PM	16:49:23	470	A	3	54	77.14286	39435.43	41	58.57143	20500	1078.771	91.60963	89.38312	14.12513	39.855	316.8503	30.82001	97.25067	0.8029995	14.15599	0.9880009	1	3	1	0.15	3486	92	61.19633	44.22013	3.1306	158.2502	148.7023	0.7979873	10.43287	295.4254
8/29/2014 4:49:33 PM	16:49:33	480	A	3	54	77.14286	39435.43	42	60	21000	1075.729	90.72821	89.38312	14.12513	39.855	316.2234	30.11501	97.03031	0.9139996	14.15548	0.9880009	1	3	1	0.15	3518	90.3999	60.55221	44.63512	3.15998	157.9019	149.1331	0.7977474	10.42973	295.3365
8/29/2014 4:49:43 PM	16:49:43	490	A	3	54	77.14286	39435.43	42	60	21000	1074.884	89.97901	89.37457	14.1255	40.16	315.5966	30.63	96.94218	0.8339996	14.15535	0.9860001	1	3	1	0.15	3562	91.2002	61.71653	44.5255	3.152136	157.5537	148.2644	0.7957958	10.40421	294.614
8/29/2014 4:49:53 PM	16:49:53	500	A	3	54	77.14286	39435.43	42	60	21000	1073.87	89.31796	89.37457	14.1255	40.16	315.6414	30.63499	96.85404	0.8929996	14.1559	0.9950008	1	3	1	0.15	3556	92.3999	62.42518	44.5105	3.151074	157.5786	147.7177	0.7994949	10.45258	295.9835
8/29/2014 4:50:03 PM	16:50:03	510	A	3	54	77.14286	39435.43	41	58.57143	20500	1079.659	89.97901	89.34888	14.12513	40.31	315.9548	31.03	96.76588	0.8430004	14.15606	1.007	1	3	1	0.15	3547	92.6001	62.67213	44.87012	3.176617	157.7527	149.1801	0.8067431	10.54734	298.6669
8/29/2014 4:50:13 PM	16:50:13	520	A	3	54	77.14286	39435.43	41	58.57143	20500	1078.137	90.99264	89.35745	14.12475	40.36501	316.4026	30.42	96.67775	0.9220009	14.15457	0.9979992	1	3	1	0.15	3541	92.3999	62.43147	44.70975	3.165348	158.0014	149.5373	0.7983696	10.43786	295.5669
8/29/2014 4:50:23 PM	16:50:23	530	A	3	54	77.14286	39435.43	41	58.57143	20500	1072.011	90.11123	89.35745	14.12475	40.36501	316.313	30.735	96.72182	0.8689995	14.15496	1.000999	1	3	1	0.15	3521	96.6001	64.76044	45.08475	3.191898	157.9517	149.8509	0.8019434	10.48459	296.8899
8/29/2014 4:50:33 PM	16:50:33	540	A	3	54	77.14286	39435.43	42	60	21000	1075.729	89.4061	89.366	14.12513	40.825	316.0891	30.845	96.89811	0.8649998	14.15769	1.009001	1	3	1	0.15	3588	92.2002	62.85017	45.18012	3.198564	157.8273	149.5556	0.8050986	10.52584	298.0581
8/29/2014 4:50:43 PM	16:50:43	550	A	3	54	77.14286	39435.43	42	60	21000	1076.616	89.36202	89.37457	14.1255	41.07001	315.9548	30.575	96.76588	0.8400002	14.15694	1.009001	1	3	1	0.15	3591	92.2002	63.17615	45.10051	3.192843	157.7527	149.3095	0.8059571	10.53706	298.3759
8/29/2014 4:50:53 PM	16:50:53	560	A	3	54	77.14286	39435.43	42	60	21000	1076.659	89.58238	89.38312	14.1255	41.505	316.2682	30.82001	96.80996	0.8969994	14.15774	1.01	1	3	1	0.15	3595	93	63.52024	45.1405	3.195674	157.9268	149.5842	0.8055484	10.53172	298.2246
8/29/2014 4:51:03 PM	16:51:03	570	A	3	54	77.14286	39435.43	42	61.42857	21500	1071.673	89.53831	89.38312	14.1255	41.505	316.1787	31.625	96.98624	0.8759995	14.15871	1.021	1	3	1	0.15	3604	94.2002	64.50284	45.2455	3.203107	157.877	149.8259	0.8098128	10.58747	299.8033
8/29/2014 4:51:13 PM	16:51:13	580	A	3	54	77.14286	39435.43	42	60	21000	1078.518	89.22981	89.40021	14.12513	41.30499	316.4921	31.17999	97.03031	0.9580002	14.15469	1.011	1	3	1	0.15	3589	95.6001	65.3278	45.47013	3.219095	158.0512	150.1793	0.8076834	10.55963	299.015
8/29/2014 4:51:23 PM	16:51:23	590	A	3	54	77.14286	39435.43	42	60	21000	1077.757	89.05354	89.40021	14.12513	41.30499	316.9398	31.49001	96.80996	0.9839993	14.15621	1.031	1	3	1	0.15	3616	92.6001	63.61597	45.31012	3.207768	158.2999	149.625	0.8138211	10.63988	301.2872
8/29/2014 4:51:33 PM	16:51:33	600	A	3	55	77.14286	39435.43	43	61.42857	21500	1077.166	88.78911	89.41727	14.12625	41.64999	317.0742	31.605	96.80996	0.8470001	14.15957	1.025999	1	3	1	0.15	3651	94	65.48319	45.37125	3.211839	158.3746	149.5716	0.8119531	10.61545	300.5957
8/29/2014 4:51:43 PM	16:51:43	610	A	3	55	78.57143	40165.71	43	60	21000	1084.391	89.93494	89.43439	14.12588	41.315	318.104	31.8	96.76588	0.9389992	14.15985	1.037001	1	3	1	0.15	3653	95	66.21459	45.38088	3.212607	158.9467	150.4832	0.8179002	10.69321	302.7974
8/29/2014 4:51:53 PM	16:51:53	620	A	3	54	77.14286	39435.43	43	61.42857	21500	1085.236	90.28751	89.44296	14.1255	40.995	319.3577	31.57001	96.67775	0.8939991	14.15958	1.056999	1	3	1	0.15	3680	95.7998	66.9842	46.1255	3.265406	159.6432	152.6983	0.8210733	10.73469	303.9721
8/29/2014 4:52:03 PM	16:52:03	630	A	3	54	77.14286	39435.43	42	61.42857	21500	1094.615	91.91813	89.44296	14.1255	40.995	320.5666	31.605	96.67775	0.9039993	14.15828	1.038	1	3	1	0.15	3649	98	68.0873	45.6505	3.231779	160.3148	152.7222	0.8167167	10.67773	302.3592
8/29/2014 4:52:13 PM	16:52:13	640	A	3	55	78.57143	40165.71	43	62.85714	22000	1092.249	92.05034	89.42584	14.12588	41.355	321.9994	31.66499	97.03031	0.8950005	14.15482	1.056999	1	3	1	0.15	3684	93.6001	65.65414	46.00088	3.256497	161.1108	153.7359	0.820296	10.72453	303.6843
8/29/2014 4:52:23 PM	16:52:23	650	A	3	55	78.57143	40165.71	43	61.42857	21500	1095.63	92.57918	89.42584	14.12588	41.355	323.2083	31.35001	97.16252	0.8880005	14.15837	1.040001	1	3	1	0.15	3712	95.6001	67.56667	45.78088	3.240923	161.7824	153.5708	0.8171506	10.68341	302.5199
8/29/2014 4:52:33 PM	16:52:33	660	A	3	55	78.57143	40165.71	43	61.42857	21500	1095.207	93.63687	89.4686	14.12513	40.58	324.1485	31.58501	97.03031	0.9330006	14.15541	1.056	1	3	1	0.15	3701	94.7998	66.66177	45.72513	3.237149	162.3047	154.2482	0.8261244	10.80073	305.842
8/29/2014 4:52:43 PM	16:52:43	670	A	3	55	78.57143	40165.71	43	62.85714	22000	1087.559	93.41653	89.4686	14.12513	40.77	324.1933	32.315	97.2066	1.021999	14.16123	1.076	1	3	1	0.15	3723	96.7998	68.75922	45.97513	3.254848	162.3296	154.7321	0.8311857	10.8669	307.7158
8/29/2014 4:52:53 PM	16:52:53	680	A	3	55	78.57143	40165.71	43	61.42857	21500	1093.644	93.28431	89.4686	14.12513	40.77	324.3724	31.545	97.25067	0.8759995	14.15816	1.047001	1	3	1	0.15	3688	97.3999	68.39362	46.12513	3.265466	162.4291	155.021	0.8229292	10.75896	304.6592
8/29/2014 4:54:20 PM	16:54:20	0	A	3	57	81.42857	41626.28	50	71.42857	25000	1102.601	90.46379	89.48569	14.12588	39.765	355.3214	37.44	96.94218	1.162001	14.16888	1.292	1	3	1	0.15	4309	110.7998	90.73988	51.23087	3.62674	179.623	165.5649	0.9152179	11.96553	338.8256
8/29/2014 4:54:30 PM	16:54:30	0	A	3	58	82.85715	42356.57	51	72.85714	25500	1101.038	89.58238	89.4686	14.1255	41.05	355.3664	36.89999	96.98624	1.117001	14.16562	1.290001	1	3	1	0.15	4309	111	91.06797	51.4355	3.641322	179.648	165.3555	0.908733	11.88075	336.4248
8/29/2014 4:54:40 PM	16:54:40	0	A	3	58	82.85715	42356.57	50	71.42857	25000	1106.361	89.62645	89.49423	14.12625	40.86	355.7716	37.36	96.85404	1.138	14.16781	1.277	1	3	1	0.15	4250	108.7998	87.87904	51.16125	3.621715	179.8731	164.7268	0.9007902	11.77691	333.4843
8/29/2014 4:54:50 PM	16:54:50	9	A	4	58	82.85715	42356.57	50	71.42857	25000	1102.39	90.37565	89.49423	14.12625	40.86	356.492	37.17	96.89811	1.148001	14.16463	1.285	1	3	1	0.15	4321	108.2002	89.01814	51.43124	3.640828	180.2733	165.9721	0.9084318	11.87681	336.3134
8/29/2014 4:55:00 PM	16:55:00	19	A	4	58	81.42857	41626.28	50	71.42857	25000	1107.037	90.59601	89.46005	14.12588	40.67	357.0322	36.88499	96.76588	1.028	14.16483	1.245001	1	3	1	0.15	4313	110.2002	90.33131	50.92588	3.605149	180.5735	164.9358	0.8943608	11.69285	331.1041
8/29/2014 4:55:10 PM	16:55:10	29	A	4	57	81.42857	41626.28	51	72.85714	25500	1103.573	90.77229	89.47717	14.12588	40.575	357.5275	37.16	96.85404	1.113001	14.16736	1.27	1	3	1	0.15	4303	109.7998	89.95786	51.22588	3.626386	180.8486	165.799	0.901134	11.7814	333.6115
8/29/2014 4:55:20 PM	16:55:20	39	A	4	57	81.42857	41626.28	50	71.42857	25000	1107.629	91.52148	89.47717	14.12588	40.575	358.0677	36.39999	96.98624	1.018	14.16173	1.231001	1	3	1	0.15	4271	109.7998	89.28887	50.52088	3.576478	181.1488	164.6907	0.8890464	11.62337	329.1366
8/29/2014 4:55:30 PM	16:55:30	49	A	4	57	81.42857	41626.28	50	71.42857	25000	1103.446	92.00626	89.48569	14.12625	40.83501	358.518	36.78999	96.89811	1.103001	14.16662	1.256001	1	3	1	0.15	4257	110.6001	89.48259	50.69125	3.588444	181.3989	165.4866	0.8982352	11.7435	332.5384
8/29/2014 4:55:40 PM	16:55:40	59	A	4	58	81.42857	41626.28	50	71.42857	25000	1103.699	91.87405	89.49423	14.12663	40.94	358.563	36.465	96.94218	1.101	14.16844	1.261999	1	3	1	0.15	4244	106.6001	86.13887	50.46163	3.572094	181.4239	164.82	0.9003829	11.77158	333.3335
8/29/2014 4:55:50 PM	16:55:50	69	A	4	57	81.42857	41626.28	50	71.42857	25000	1104.544	91.03671	89.49423	14.12663	40.94	358.2029	36.30499	97.11845	1.139999	14.16486	1.219999	1	3	1	0.15	4251	108.7998	88.06136	50.24163	3.55652	181.2238	163.6193	0.8875864	11.60428	328.5961
8/29/2014 4:56:00 PM	16:56:00	79	A	4	57	81.42857	41626.28	50	71.42857	25000	1100.531	90.77229	89.51135	14.12625	40.55499	357.9327	36.74001	96.98624	1.218	14.16691	1.266001	1	3	1	0.15	4273	108.6001	88.19176	50.90625	3.603664	181.0737	165.0256	0.9017205	11.78907	333.8287
8/29/2014 4:56:10 PM	16:56:10	89	A	4	57	81.42857	41626.28	50	71.42857	25000	1097.32	89.89088	89.50281	14.12663	40.27499	357.3024	36.485	97.03031	1.110001	14.16685	1.254999	1	3	1	0.15	4276	109.2002	89.06782	50.58163	3.580588	180.7235	163.5361	0.8977718	11.73745	332.3669
8/29/2014 4:56:20 PM	16:56:20	99	A	4	57	81.42857	41626.28	50	71.42857	25000	1097.066	89.71458	89.50281	14.12663	40.27499	357.2123	36.72501	97.07439	1.135	14.16613	1.256001	1	3	1	0.15	4263	110	89.44661	50.77662	3.594391	180.6735	163.8675	0.9001896	11.76906	333.262
8/29/2014 4:56:30 PM	16:56:30	109	A	4	57	81.42857	41626.28	50	70	24500	1095.503	89.22981	89.51993	14.12625	39.44	356.9872	36.83501	96.98624	1.098	14.16499	1.250999	1	3	1	0.15	4210	114.7998	92.66302	50.86125	3.600478	180.5485	163.6892	0.895973	11.71393	331.7009
8/29/2014 4:56:40 PM	16:56:40	119	A	4	57	81.42857	41626.28	50	72.85714	25500	1100.911	89.84681	89.50281	14.12663	39.66	357.0322	36.77499	97.16252	1.059	14.16692	1.254	1	3	1	0.15	4275	107.3999	87.41908	50.57662	3.580234	180.5735	163.489	0.8972957	11.73122	332.1906
8/29/2014 4:56:50 PM	16:56:50	129	A	4	57	81.42857	41626.28	50	71.42857	25000	1103.066	90.55194	89.50281	14.12663	39.66	357.4374	36.41499	97.03031	1.16	14.16446	1.243	1	3	1	0.15	4266	107.3999	87.39764	50.65662	3.585897	180.7986	164.2431	0.8959055	11.71305	331.6759
8/29/2014 4:57:00 PM	16:57:00	139	A	4	57	81.42857	41626.28	50	70	24500	1103.868	92.35883	89.48569	14.12663	40	357.8877	36.42	97.07439	1.122	14.16656	1.232	1	3	1	0.15	4240	108.2002	87.34943	50.29162	3.560059	181.0487	164.5453	0.8894858	11.62911	329.2993
8/29/2014 4:57:10 PM	16:57:10	149	A	4	57	81.42857	41626.28	50	71.42857	25000	1102.77	92.84361	89.49423	14.127	40.855	358.3379	36.435	97.38288	1.042	14.16444	1.232	1	3	1	0.15	4229	108	86.80042	50.492	3.574149	181.2989	165.6607	0.8891739	11.62504	329.1838
8/29/2014 4:57:20 PM	16:57:20	159	A	4	57	81.42857	41626.28	49	70	24500	1119.248	94.43015	89.49423	14.127	40.855	359.1483	35.53999	97.51508	1.039	14.16495	1.215	1	3	1	0.15	4167	107.7998	85.36942	50.022	3.540879	181.7491	165.7675	0.8818641	11.52947	326.4776
8/29/2014 4:57:30 PM	16:57:30	169	A	4	57	81.42857	41626.28	49	70	24500	1118.825	95.62006	89.50281	14.127	40.765	360.6791	35.88	97.69138	1.018999	14.16563	1.239	1	3	1	0.15	4170	106	84.16046	50.282	3.559284	182.5995	167.3504	0.8868178	11.59423	328.3115
8/29/2014 4:57:40 PM	16:57:40	179	A	4	58	81.42857	41626.28	49	70	24500	1112.023	94.73865	89.52844	14.12737	40.45	360.5441	35.595	97.82359	1.021999	14.16612	1.202	1	3	1	0.15	4200	108.2002	86.52538	49.46737	3.501526	182.5245	164.637	0.8780277	11.47931	325.0573
8/29/2014 4:57:50 PM	16:57:50	189	A	4	57	81.42857	41626.28	49	70	24500	1115.783	95.97262	89.52844	14.12737	40.45	360.8592	35.81	97.99987	1.110001	14.16626	1.212	1	3	1	0.15	4184	106	84.28353	49.74737	3.521346	182.6996	166.3067	0.88152	11.52497	326.3503
8/29/2014 4:58:00 PM	16:58:00	199	A	4	57	81.42857	41626.28	49	70	24500	1116.713	95.3997	89.53699	14.12625	40.33501	360.7692	35.705	98.17615	1.080999	14.16535	1.212	1	3	1	0.15	4182	107	85.0395	49.81625	3.526502	182.6496	166.0339	0.8806176	11.51317	326.0161
8/29/2014 4:58:10 PM	16:58:10	209	A	4	57	81.42857	41626.28	49	70	24500	1109.319	94.43015	89.5712	14.12625	39.715	360.6791	36.13499	98.08801	1.142	14.16969	1.259001	1	3	1	0.15	4199	109	87.14422	50.57625	3.580303	182.5995	167.1332	0.8984348	11.74611	332.6123
8/29/2014 4:58:20 PM	16:58:20	219	A	4	57	81.42857	41626.28	49	70	24500	1102.728	92.57918	89.5712	14.12625	39.715	359.7787	36.48	97.99987	1.1	14.16593	1.247	1	3	1	0.15	4167	114.2002	90.76437	50.84125	3.599062	182.0993	166.3063	0.8948107	11.69873	331.2706
8/29/2014 4:58:30 PM	16:58:30	229	A	4	57	81.42857	41626.28	50	71.42857	25000	1098.883	90.64008	89.59683	14.12625	38.855	359.0133	35.83501	98.17615	1.098	14.16412	1.229	1	3	1	0.15	4235	108	87.085	49.93625	3.534997	181.6741	162.562	0.8874685	11.60274	328.5524
8/29/2014 4:58:40 PM	16:58:40	239	A	4	57	81.42857	41626.28	49	70	24500	1103.108	90.28751	89.60541	14.12625	38.86501	358.1128	35.265	97.9558	1.059	14.16366	1.205	1	3	1	0.15	4200	106.7998	85.40553	49.72626	3.520131	181.1738	161.7683	0.8789348	11.49117	325.3932
8/29/2014 4:58:50 PM	16:58:50	249	A	4	57	81.42857	41626.28	49	70	24500	1103.953	90.86044	89.60541	14.12625	38.86501	357.3024	35.67999	97.82359	1.059999	14.16633	1.205999	1	3	1	0.15	4149	107.6001	85.00066	49.51625	3.505265	180.7235	161.7047	0.8791353	11.49379	325.4674
8/29/2014 4:59:00 PM	16:59:00	259	A	4	57	81.42857	41626.28	48	68.57143	24000	1103.953	91.16891	89.63104	14.12625	39.00999	356.9422	35.175	97.60324	0.9750004	14.16586	1.171	1	3	1	0.15	4119	108.6001	85.0133	49.30624	3.490399	180.5235	161.4298	0.866817	11.33274	320.907
8/29/2014 4:59:10 PM	16:59:10	269	A	4	57	81.42857	41626.28	47	67.14285	23500	1113.628	94.342	89.64816	14.12588	39.145	357.2574	35.53999	97.64731	1.080999	14.16577	1.186001	1	3	1	0.15	4040	107.7998	83.22918	49.45588	3.501084	180.6985	164.3083	0.8756103	11.44771	324.1624
8/29/2014 4:59:20 PM	16:59:20	279	A	4	57	81.42857	41626.28	48	67.14285	23500	1104.713	94.29794	89.64816	14.12588	39.145	356.8972	35.64	97.82359	1.014	14.1648	1.212	1	3	1	0.15	4057	108	83.42476	49.46587	3.501792	180.4984	164.2983	0.8819776	11.53095	326.5196
8/29/2014 4:59:30 PM	16:59:30	289	A	4	57	81.42857	41626.28	48	68.57143	24000	1108.347	94.20979	89.66525	14.12588	39.855	356.672	35.23	97.86765	1.098	14.16364	1.191999	1	3	1	0.15	4080	107.2002	83.27641	49.29087	3.489403	180.3734	163.7939	0.8742511	11.42994	323.6592
8/29/2014 4:59:40 PM	16:59:40	299	A	4	57	81.42857	41626.28	47	68.57143	24000	1109.953	95.22342	89.69089	14.12588	39.55	357.3024	35.5	97.9558	1.086	14.16635	1.198999	1	3	1	0.15	4047	108	83.52727	49.47588	3.5025	180.7235	165.0539	0.8771967	11.46845	324.7497
8/29/2014 4:59:50 PM	16:59:50	309	A	4	57	81.42857	41626.28	47	67.14285	23500	1113.206	96.41332	89.69089	14.12588	39.55	357.3474	35.24001	98.13208	1.031	14.16444	1.201	1	3	1	0.15	4029	107.7998	82.69541	49.43087	3.499314	180.7486	165.8815	0.8784593	11.48495	325.2172
8/29/2014 5:00:00 PM	17:00:00	319	A	4	57	81.42857	41626.28	48	68.57143	24000	1102.728	93.81316	89.69943	14.12588	40.41	356.672	35.545	98.13208	1.112	14.16552	1.202	1	3	1	0.15	4068	106.3999	82.41161	49.25088	3.486572	180.3734	163.3816	0.877759	11.4758	324.9579
8/29/2014 5:00:10 PM	17:00:10	329	A	4	57	81.42857	41626.28	48	68.57143	24000	1107.967	95.00306	89.73364	14.12625	40.53	356.8521	35.87	98.17615	1.080999	14.16647	1.198999	1	3	1	0.15	4040	107.6001	82.76758	49.65125	3.514822	180.4734	165.3118	0.8766789	11.46168	324.558
8/29/2014 5:00:20 PM	17:00:20	339	A	4	57	81.42857	41626.28	48	68.57143	24000	1101.08	92.79954	89.73364	14.12625	40.53	356.0867	35.96001	98.22021	1.098	14.16485	1.200001	1	3	1	0.15	4088	104.7998	81.41589	49.97125	3.537475	180.0482	164.3578	0.8769587	11.46533	324.6616
8/29/2014 5:00:30 PM	17:00:30	349	A	4	57	81.42857	41626.28	48	68.57143	24000	1105.263	92.93174	89.75928	14.12625	40.02	356.3119	35.52499	98.17615	1.115	14.163	1.207001	1	3	1	0.15	4080	107.6001	83.58706	49.51625	3.505265	180.1733	163.3408	0.8794595	11.49803	325.5874
8/29/2014 5:00:40 PM	17:00:40	359	A	4	57	81.42857	41626.28	48	68.57143	24000	1100.657	92.00626	89.75928	14.12625	39.89	355.9066	35.41499	98.04394	1.115	14.16575	1.209	1	3	1	0.15	4104	108.7998	85.0162	49.55125	3.507743	180.0232	162.6962	0.8803943	11.51025	325.9335
8/29/2014 5:00:50 PM	17:00:50	369	A	4	57	81.42857	41626.28	48	68.57143	24000	1100.7	91.38927	89.75928	14.12625	39.89	355.6815	35.645	97.9558	1.070999	14.16452	1.205999	1	3	1	0.15	4116	108.7998	85.26478	49.57625	3.509512	179.8231	162.2703	0.8793113	11.49609	325.5326
8/29/2014 5:01:00 PM	17:01:00	379	A	4	57	81.42857	41626.28	48	68.57143	24000	1098.08	91.38927	89.7764	14.12588	39.355	355.2313	35.47501	97.91174	1.063999	14.16585	1.209	1	3	1	0.15	4131	107.7998	84.78897	49.76588	3.52303	179.573	162.7402	0.884481	11.56368	327.4464
8/29/2014 5:01:10 PM	17:01:10	389	A	4	57	81.42857	41626.28	48	68.57143	24000	1107.671	92.31477	89.78497	14.12663	39.14999	355.6365	35.16499	97.91174	1.052999	14.16222	1.197001	1	3	1	0.15	4097	107.2002	83.62338	49.49163	3.503429	179.7981	162.7894	0.8759985	11.45278	324.3061
8/29/2014 5:01:20 PM	17:01:20	399	A	4	57	81.42857	41626.28	48	68.57143	24000	1107.755	92.44697	89.78497	14.12663	39.14999	355.9517	35.405	97.82359	1.055	14.16511	1.188	1	3	1	0.15	4085	104.3999	81.20044	49.07163	3.473698	179.9732	161.8524	0.8743428	11.43114	323.6931
8/29/2014 5:01:30 PM	17:01:30	409	A	4	57	81.42857	41626.28	47	67.14285	23500	1112.699	94.91492	89.82767	14.12588	39.655	356.672	35.13	97.73544	1.094	14.16299	1.188999	1	3	1	0.15	4045	106.7998	82.09984	49.13088	3.478077	180.3734	163.9513	0.8732578	11.41695	323.2914
8/29/2014 5:01:40 PM	17:01:40	419	A	4	57	81.42857	41626.28	47	67.14285	23500	1109.403	95.79634	89.82767	14.12588	39.655	356.9872	35.12	97.91174	1.066	14.16689	1.204	1	3	1	0.15	4030	108.3999	83.48325	49.42588	3.49896	180.5485	165.1732	0.8794357	11.49772	325.5786
8/29/2014 5:01:50 PM	17:01:50	429	A	4	57	81.42857	41626.28	48	70	24500	1093.939	93.06396	89.86191	14.12625	39.92	355.9066	35.595	97.91174	1.153999	14.16514	1.215	1	3	1	0.15	4120	108.7998	85.50468	49.94626	3.535706	179.9482	164.5058	0.8815475	11.52533	326.3604
8/29/2014 5:02:00 PM	17:02:00	439	A	4	57	81.42857	41626.28	48	68.57143	24000	1100.446	92.22661	89.879	14.12588	38.12	355.4114	35.52499	97.9558	1.128	14.16512	1.205	1	3	1	0.15	4136	107.2002	84.57668	49.48588	3.503208	179.673	162.7121	0.8789934	11.49194	325.4149
8/29/2014 5:02:10 PM	17:02:10	449	A	4	57	81.42857	41626.28	48	68.57143	24000	1098.587	91.43334	89.85336	14.12588	37.89	355.5915	35.56	97.99987	1.084999	14.16689	1.212	1	3	1	0.15	4130	109.3999	86.02668	49.64588	3.514535	179.773	162.689	0.879723	11.50148	325.685
8/29/2014 5:02:20 PM	17:02:20	459	A	4	57	81.42857	41626.28	49	70	24500	1103.319	90.72821	89.85336	14.12588	37.89	356.0417	34.875	98.04394	1.058001	14.16368	1.194	1	3	1	0.15	4122	108.7998	85.38907	49.36088	3.494359	180.0232	161.2203	0.8748611	11.43791	323.885
8/29/2014 5:02:30 PM	17:02:30	469	A	4	57	81.42857	41626.28	47	67.14285	23500	1109.699	91.47741	89.86191	14.12625	38.485	356.492	34.97501	97.9558	1.066	14.16333	1.195999	1	3	1	0.15	4069	108.6001	83.98133	49.38126	3.495709	180.2733	161.8587	0.8756484	11.4482	324.1765
8/29/2014 5:02:40 PM	17:02:40	479	A	4	57	81.42857	41626.28	48	68.57143	24000	1106.023	92.09441	89.879	14.12625	39.28999	356.537	35.42999	97.86765	1.077999	14.16224	1.195999	1	3	1	0.15	4061	108.2002	83.6618	49.50626	3.504558	180.2983	162.6548	0.873852	11.42472	323.5114
8/29/2014 5:02:50 PM	17:02:50	489	A	4	57	81.42857	41626.28	48	68.57143	24000	1102.939	92.57918	89.879	14.12625	39.28999	356.1768	35.97	97.77951	1.077999	14.16474	1.212	1	3	1	0.15	4068	106.7998	83.34122	49.60126	3.511283	180.0982	163.2724	0.8816481	11.52664	326.3976
8/29/2014 5:03:00 PM	17:03:00	499	A	4	57	81.42857	41626.28	48	68.57143	24000	1100.657	92.79954	89.879	14.12663	39.57001	355.9517	35.89999	97.9558	1.086	14.16775	1.214001	1	3	1	0.15	4102	106.6001	83.41273	49.60662	3.511569	179.9732	163.4565	0.8823187	11.53541	326.6459
8/29/2014 5:03:10 PM	17:03:10	509	A	4	57	81.42857	41626.28	48	68.57143	24000	1098.841	92.35883	89.89609	14.12663	39.66	356.1318	35.295	97.99987	1.091999	14.16887	1.215	1	3	1	0.15	4111	107.7998	84.53517	49.56663	3.508738	180.0732	163.0095	0.8819712	11.53087	326.5173
8/29/2014 5:03:20 PM	17:03:20	519	A	4	57	81.42857	41626.28	48	68.57143	24000	1098.545	92.93174	89.89609	14.12663	39.66	355.9066	35.855	98.17615	1.055	14.16497	1.216999	1	3	1	0.15	4117	108.2002	85.12895	49.88163	3.531037	179.9482	164.2388	0.8813329	11.52252	326.281
8/29/2014 5:03:30 PM	17:03:30	529	A	4	57	81.42857	41626.28	48	68.57143	24000	1099.686	92.57918	89.91321	14.12663	39.82001	355.9517	35.17	98.48464	1.083	14.16623	1.201	1	3	1	0.15	4118	108.7998	85.14963	49.89663	3.532098	180.0482	163.9967	0.8760459	11.4534	324.3237
8/29/2014 5:03:40 PM	17:03:40	539	A	4	57	81.42857	41626.28	48	68.57143	24000	1108.22	93.19617	89.93033	14.12663	39.81	356.1318	35.285	98.52871	1.108999	14.16443	1.198999	1	3	1	0.15	4083	108	84.27029	49.67162	3.516171	180.0732	163.9305	0.8763194	11.45698	324.4249
8/29/2014 5:03:50 PM	17:03:50	549	A	4	57	81.42857	41626.28	48	68.57143	24000	1105.22	94.342	89.93033	14.12663	39.81	356.4469	35.605	98.66093	1.094999	14.16692	1.200001	1	3	1	0.15	4076	107.7998	83.6601	49.62663	3.512985	180.2483	164.725	0.8762848	11.45652	324.4121
8/29/2014 5:04:00 PM	17:04:00	559	A	4	57	81.42857	41626.28	47	67.14285	23500	1104.798	94.43015	89.94739	14.12663	39.825	355.9066	35.14	98.705	1.086	14.16331	1.211	1	3	1	0.15	4070	107	82.91716	49.88662	3.53139	179.9482	165.4372	0.8805066	11.51172	325.9751
8/29/2014 5:04:10 PM	17:04:10	569	A	4	57	81.42857	41626.28	47	67.14285	23500	1110.375	95.22342	89.99872	14.12663	39.965	355.8616	34.91	99.05756	1.028999	14.16544	1.208	1	3	1	0.15	4036	104	80.07296	49.33663	3.492457	179.9231	164.701	0.8792093	11.49476	325.4948
8/29/2014 5:04:20 PM	17:04:20	579	A	4	57	81.42857	41626.28	47	68.57143	24000	1107.249	95.31156	89.99872	14.12663	39.965	355.9066	35.44	99.05756	1.094	14.1667	1.190001	1	3	1	0.15	4051	107.7998	83.30138	49.51662	3.505198	179.9482	165.2183	0.8726978	11.40963	323.0841
8/29/2014 5:04:30 PM	17:04:30	589	A	4	57	81.42857	41626.28	47	67.14285	23500	1108.6	95.44378	90.01581	14.12663	40.02	356.0417	34.92	99.23384	1.018999	14.16656	1.184999	1	3	1	0.15	4046	108	83.19856	49.20663	3.483254	180.0232	164.5507	0.8722049	11.40318	322.9017
8/29/2014 5:04:40 PM	17:04:40	599	A	4	57	81.42857	41626.28	47	67.14285	23500	1109.572	95.62006	90.06711	14.12737	39.89999	356.3569	35.03	99.27791	1.077999	14.16518	1.195999	1	3	1	0.15	4024	108	82.74618	48.88238	3.460118	180.1983	163.8718	0.8746722	11.43544	323.8151
8/29/2014 5:04:50 PM	17:04:50	609	A	4	57	80	40896	47	67.14285	23500	1110.882	95.53191	90.06711	14.12737	39.89999	356.1318	35.17999	99.4542	1.143	14.1655	1.202	1	3	1	0.15	4022	108.2002	83.01129	49.09237	3.474982	180.0732	164.3283	0.8767315	11.46237	324.5775
8/29/2014 5:05:00 PM	17:05:00	619	A	4	57	81.42857	41626.28	47	67.14285	23500	1109.234	95.92855	90.10129	14.12663	40.11	356.0417	35.375	99.49827	1.072001	14.16497	1.208	1	3	1	0.15	4019	107	82.18415	48.94663	3.46485	180.0232	164.2823	0.8748555	11.43784	323.883
8/29/2014 5:05:10 PM	17:05:10	629	A	4	57	81.42857	41626.28	47	68.57143	24000	1103.784	94.95899	90.10129	14.12663	40.11	355.9517	35.69501	99.54234	1.091999	14.16688	1.202999	1	3	1	0.15	4054	107.2002	83.05439	49.57163	3.509092	179.9732	165.0762	0.8741635	11.42879	323.6268
8/29/2014 5:05:20 PM	17:05:20	639	A	4	57	81.42857	41626.28	47	68.57143	24000	1100.193	92.66733	90.12695	14.12737	40.36	355.4564	35.345	99.58641	1.083	14.16709	1.191999	1	3	1	0.15	4083	109.2002	84.89244	49.08738	3.474628	179.698	162.0587	0.8730202	11.41384	323.2035
8/29/2014 5:05:30 PM	17:05:30	649	A	4	57	81.42857	41626.28	48	68.57143	24000	1102.305	92.79954	90.16116	14.12737	39.925	355.6365	35.785	99.49827	1.097	14.1676	1.194	1	3	1	0.15	4070	108.3999	84.00198	49.62237	3.512497	179.7981	163.4888	0.8738297	11.42443	323.5032
8/29/2014 5:05:40 PM	17:05:40	659	A	4	57	81.42857	41626.28	48	68.57143	24000	1096.305	92.22661	90.17825	14.12737	40.16499	355.6815	35.765	99.41013	1.118	14.16872	1.219	1	3	1	0.15	4098	107.3999	83.6438	49.93237	3.534441	179.8231	163.7988	0.8841093	11.55882	327.3088
8/29/2014 5:05:50 PM	17:05:50	669	A	4	57	81.42857	41626.28	48	68.57143	24000	1103.446	92.27069	90.17825	14.12737	40.16499	355.1863	35.39999	99.32199	1.188	14.16659	1.207001	1	3	1	0.15	4095	108.2002	84.51796	49.60238	3.511083	179.5479	163.0215	0.8790286	11.4924	325.4279
8/29/2014 5:06:00 PM	17:06:00	679	A	4	57	81.42857	41626.28	48	68.57143	24000	1100.7	92.49104	90.21243	14.127	40.39	354.8261	35.405	99.63048	1.107	14.166	1.209	1	3	1	0.15	4085	108	83.84483	49.58701	3.510087	179.3478	163.161	0.877339	11.47031	324.8024
8/29/2014 5:06:10 PM	17:06:10	0	A	4	56	80	40896	48	68.57143	24000	1101.883	93.63687	90.22955	14.12737	40.22501	354.9612	35.605	99.63048	1.065001	14.16518	1.198999	1	3	1	0.15	4085	108	84.31157	49.57737	3.509312	179.4229	164.0393	0.8765801	11.46039	324.5214
8/29/2014 5:06:20 PM	17:06:20	0	A	4	57	81.42857	41626.28	48	68.57143	24000	1109.741	93.9013	90.22955	14.12737	40.22501	355.5464	36.485	99.80676	1.083	14.1685	1.25	1	3	1	0.15	4126	108	84.68635	50.34737	3.563817	179.748	166.1437	0.893817	11.68574	330.9028
8/29/2014 5:06:30 PM	17:06:30	0	A	4	58	82.85715	42356.57	50	71.42857	25000	1111.093	94.47422	90.28085	14.12737	40.295	358.0227	36.66	99.98304	1.135	14.16789	1.271	1	3	1	0.15	4240	108.6001	87.67227	50.73737	3.591423	181.1237	167.5515	0.9011137	11.78114	333.6041
8/29/2014 5:06:40 PM	17:06:40	0	A	4	62	88.57143	45277.71	56	80	28000	1163.401	93.50466	90.29797	14.12775	40.005	366.4871	44.88	100.0712	1.490999	14.18207	1.691	1	3	1	0.15	4802	119.7998	109.8989	58.68774	4.154076	185.8262	185.117	1.039209	13.5866	384.7289
8/29/2014 5:06:50 PM	17:06:50	0	A	4	61	87.14285	44547.43	63	90	31500	1174.923	92.31477	90.29797	14.12775	40.005	382.1553	43.715	99.93897	1.424999	14.18105	1.618999	1	3	1	0.15	5370	129.2002	132.5091	57.74275	4.087187	194.5307	182.0533	1.017025	13.29655	376.5158
8/29/2014 5:07:00 PM	17:07:00	0	A	4	62	88.57143	45277.71	62	88.57143	31000	1175.56	92.05034	90.34073	14.12775	39.925	389.6742	44.465	99.89491	1.525	14.18203	1.667999	1	3	1	0.15	5284	136.2002	137.0272	59.00275	4.176373	198.7079	184.5992	1.033234	13.50848	382.5168
8/29/2014 5:07:10 PM	17:07:10	0	A	4	61	87.14285	44547.43	62	88.57143	31000	1160.085	91.43334	90.34073	14.1285	38.99001	394.4016	43.345	99.63048	1.443001	14.18249	1.555	1	3	1	0.15	5301	123.6001	124.7506	57.5035	4.070036	201.3342	180.7905	0.9971302	13.03645	369.1507
8/29/2014 5:07:20 PM	17:07:20	0	A	4	61	87.14285	44547.43	62	88.57143	31000	1160.553	91.56557	90.34073	14.1285	38.99001	396.8779	43.545	99.54234	1.448999	14.18061	1.559999	1	3	1	0.15	5305	123.2002	124.8448	57.5535	4.073575	202.71	181.0102	0.998743	13.05754	369.7477
8/29/2014 5:07:30 PM	17:07:30	0	A	4	61	87.14285	44547.43	61	87.14285	30500	1155.919	90.41972	90.37488	14.12737	38.855	397.7333	43.64999	99.4542	1.386999	14.17739	1.544001	1	3	1	0.15	5253	125.6001	125.8211	57.27737	4.054353	203.1852	179.465	0.9939254	12.99455	367.9642
8/29/2014 5:07:40 PM	17:07:40	0	A	4	60	85.71429	43817.14	60	85.71429	30000	1151.795	91.12485	90.40057	14.12737	38.715	398.9039	41.91499	99.27791	1.294001	14.17671	1.472	1	3	1	0.15	5126	122.3999	119.6563	56.31237	3.986046	203.8355	177.8898	0.9703814	12.68674	359.2479
8/29/2014 5:07:50 PM	17:07:50	0	A	4	60	85.71429	43817.14	58	82.85715	29000	1142.57	91.91813	90.40057	14.12737	38.715	399.4442	40.935	99.27791	1.344999	14.17642	1.396999	1	3	1	0.15	4946	123.3999	116.2078	55.03738	3.895797	204.1357	175.6463	0.9454283	12.3605	350.0099
8/29/2014 5:08:00 PM	17:08:00	0	A	4	60	85.71429	43817.14	57	81.42857	28500	1141.634	93.28431	90.40912	14.12812	38.60001	400.4348	40.755	99.05756	1.292	14.17565	1.395	1	3	1	0.15	4847	115.6001	106.3145	54.69313	3.871223	204.686	175.9599	0.946924	12.38006	350.5637
8/29/2014 5:08:10 PM	17:08:10	0	A	4	59	85.71429	43817.14	56	80	28000	1134.535	93.63687	90.42621	14.127	39.045	397.9135	40.28999	99.10164	1.237	14.17315	1.388	1	3	1	0.15	4833	118	108.5838	54.44701	3.85411	203.2853	175.5807	0.9424335	12.32135	348.9012
8/29/2014 5:08:20 PM	17:08:20	0	A	4	59	84.28571	43086.86	56	80	28000	1135.64	93.9013	90.42621	14.127	39.045	397.3281	39.145	99.18977	1.177	14.16856	1.332001	1	3	1	0.15	4758	117	106.1742	53.68199	3.799957	202.9601	174.1231	0.92308	12.06832	341.7363
8/29/2014 5:08:30 PM	17:08:30	0	A	4	59	84.28571	43086.86	55	78.57143	27500	1130.149	94.47422	90.46896	14.12775	39.17999	395.8423	39.05499	99.05756	1.257999	14.17325	1.330999	1	3	1	0.15	4678	115.7998	103.32	53.51274	3.787776	202.1346	174.1828	0.9229777	12.06699	341.6984
8/29/2014 5:08:40 PM	17:08:40	0	A	4	59	84.28571	43086.86	54	77.14286	27000	1124.614	94.342	90.51169	14.12812	39.485	393.7263	39.105	99.10164	1.222	14.17276	1.327999	1	3	1	0.15	4647	116.7998	103.343	53.55313	3.790534	200.959	174.1675	0.921901	12.05291	341.2998
8/29/2014 5:08:50 PM	17:08:50	0	A	4	59	84.28571	43086.86	53	75.71429	26500	1127.36	94.29794	90.51169	14.12812	39.485	392.5557	38.78999	99.27791	1.275999	14.17438	1.334	1	3	1	0.15	4560	119.2002	104.1867	53.45312	3.783455	200.3087	173.8974	0.9238889	12.0789	342.0357
8/29/2014 5:09:00 PM	17:09:00	0	A	4	59	84.28571	43086.86	54	77.14286	27000	1125.797	94.91492	90.53735	14.12775	39.58501	391.7903	39.14999	99.32199	1.254	14.17101	1.337	1	3	1	0.15	4654	114.3999	101.372	53.05275	3.755216	199.8835	173.4555	0.9247662	12.09037	342.3605
8/29/2014 5:09:10 PM	17:09:10	0	A	4	59	84.28571	43086.86	55	78.57143	27500	1124.698	94.73865	90.58008	14.1285	39.61	391.1599	38.91	99.36607	1.32	14.17219	1.323999	1	3	1	0.15	4667	116	102.7217	53.3485	3.775949	199.5333	174.0038	0.9202655	12.03153	340.6943
8/29/2014 5:09:20 PM	17:09:20	0	A	4	59	84.28571	43086.86	55	78.57143	27500	1118.191	93.06396	90.58008	14.1285	39.61	390.3945	39.08	99.54234	1.242001	14.17396	1.344	1	3	1	0.15	4679	114.7998	102.8075	53.3185	3.773826	199.1081	172.5828	0.9270808	12.12063	343.2174
8/29/2014 5:09:30 PM	17:09:30	0	A	4	59	82.85715	42356.57	55	78.57143	27500	1120.558	92.88767	90.5972	14.12775	39.57001	390.1694	39.675	99.58641	1.261999	14.17354	1.363001	1	3	1	0.15	4676	116.2002	103.2758	53.77774	3.806533	198.983	173.5207	0.9335566	12.20529	345.6148
8/29/2014 5:09:40 PM	17:09:40	0	A	4	59	84.28571	43086.86	54	77.14286	27000	1120.135	92.22661	90.65704	14.12888	39.36501	389.5391	39.455	99.7627	1.224001	14.17145	1.306	1	3	1	0.15	4650	118.2002	104.6496	53.38388	3.778353	198.6328	172.0572	0.9213231	12.04535	341.0859
8/29/2014 5:09:50 PM	17:09:50	0	A	4	59	84.28571	43086.86	53	75.71429	26500	1132.768	93.72502	90.65704	14.12888	39.36501	390.6647	38.77499	99.54234	1.253	14.17152	1.302999	1	3	1	0.15	4535	114.2002	98.60759	53.20387	3.765613	199.2582	172.8431	0.9127992	11.93391	337.9302
8/29/2014 5:10:00 PM	17:10:00	0	A	4	59	84.28571	43086.86	54	78.57143	27500	1127.825	95.3997	90.6998	14.1285	39.41	391.205	39.58	99.41013	1.235001	14.1732	1.330999	1	3	1	0.15	4651	115.3999	102.1923	53.4535	3.783381	199.5583	174.784	0.9264876	12.11287	342.9978
8/29/2014 5:10:10 PM	17:10:10	8	A	5	59	84.28571	43086.86	55	78.57143	27500	1128.585	95.75226	90.6998	14.1285	39.41	391.5201	38.64999	99.4542	1.235001	14.17284	1.32	1	3	1	0.15	4660	113.7998	100.9703	53.0985	3.758255	199.7334	174.2313	0.9236783	12.07615	341.9578
8/29/2014 5:10:20 PM	17:10:20	18	A	5	59	84.28571	43086.86	55	78.57143	27500	1124.994	95.3997	90.73401	14.12775	39.23	391.295	39.5	99.49827	1.290001	14.17274	1.333	1	3	1	0.15	4665	115.7998	103.0329	53.97776	3.82069	199.6084	176.019	0.9233045	12.07126	341.8194
8/29/2014 5:10:30 PM	17:10:30	28	A	5	59	84.28571	43086.86	55	78.57143	27500	1122.881	93.85723	90.75964	14.12812	39.37	389.9893	39.325	99.41013	1.274	14.17377	1.320999	1	3	1	0.15	4689	116.3999	103.563	53.51812	3.788056	198.883	173.694	0.9192622	12.01841	340.3229
8/29/2014 5:10:40 PM	17:10:40	38	A	5	59	84.28571	43086.86	54	77.14286	27000	1132.557	94.95899	90.81952	14.12812	39.31	392.1955	38.94501	99.4542	1.266001	14.17305	1.327	1	3	1	0.15	4610	116.6001	102.5202	53.41313	3.780624	200.1086	174.3368	0.9212668	12.04462	341.065
8/29/2014 5:10:50 PM	17:10:50	48	A	5	59	84.28571	43086.86	54	77.14286	27000	1139.126	96.23705	90.81952	14.12812	39.31	392.0604	38.92	99.32199	1.209999	14.17254	1.292	1	3	1	0.15	4580	113.6001	99.2369	52.96812	3.749126	200.0336	174.3164	0.9091812	11.88661	336.5908
8/29/2014 5:11:00 PM	17:11:00	58	A	5	59	84.28571	43086.86	55	77.14286	27000	1127.952	96.19298	90.84515	14.12925	38.94	392.3756	39.17999	99.23384	1.188999	14.17211	1.327	1	3	1	0.15	4667	115	102.3663	53.25425	3.769078	200.2087	174.9477	0.9214349	12.04682	341.1273
8/29/2014 5:11:10 PM	17:11:10	68	A	5	59	84.28571	43086.86	55	78.57143	27500	1121.149	94.69456	90.87079	14.12888	38.73	391.6101	39.95	99.14571	1.271	14.17358	1.325001	1	3	1	0.15	4691	115	102.5351	53.66388	3.798171	199.7834	174.705	0.9218892	12.05276	341.2954
8/29/2014 5:11:20 PM	17:11:20	78	A	5	59	84.28571	43086.86	56	78.57143	27500	1120.135	92.4029	90.87079	14.12888	38.73	390.8448	39.33	99.32199	1.174	14.17354	1.32	1	3	1	0.15	4704	115.6001	103.3568	53.57887	3.792154	199.3582	172.6553	0.9175912	11.99656	339.7043
8/29/2014 5:11:30 PM	17:11:30	88	A	5	59	84.28571	43086.86	54	77.14286	27000	1131.839	92.00626	90.89645	14.1285	39.62	391.8353	39.21001	99.10164	1.243	14.16923	1.292999	1	3	1	0.15	4638	116.3999	102.7897	52.9685	3.749053	199.9085	170.9085	0.9095956	11.89203	336.7442
8/29/2014 5:11:40 PM	17:11:40	98	A	5	59	84.28571	43086.86	55	77.14286	27000	1122.712	93.01989	90.93063	14.1285	39.49001	392.5557	39.77	99.14571	1.179001	14.17082	1.329	1	3	1	0.15	4656	115.6001	102.4796	54.11851	3.83045	200.3087	174.4134	0.9221319	12.05593	341.3853
8/29/2014 5:11:50 PM	17:11:50	108	A	5	59	84.28571	43086.86	55	78.57143	27500	1120.219	91.47741	90.93063	14.1285	39.49001	391.9253	39.57001	99.05756	1.23	14.17169	1.325001	1	3	1	0.15	4674	114	101.2736	53.77351	3.806031	199.9585	172.3642	0.9208709	12.03944	340.9185
8/29/2014 5:12:00 PM	17:12:00	118	A	5	59	84.28571	43086.86	54	77.14286	27000	1124.318	90.81635	90.92209	14.12888	38.50999	392.3756	39.46001	98.83721	1.204	14.17524	1.325001	1	3	1	0.15	4682	114.3999	101.9819	53.45888	3.783661	200.2087	171.0946	0.92117	12.04335	341.0292
8/29/2014 5:12:10 PM	17:12:10	128	A	5	58	82.85715	42356.57	55	78.57143	27500	1128.67	92.27069	90.93921	14.12888	38.56	392.5557	39.69501	98.74907	1.209	14.17289	1.32	1	3	1	0.15	4669	114	101.1653	53.14888	3.76172	200.3087	171.542	0.9194226	12.02051	340.3823
8/29/2014 5:12:20 PM	17:12:20	138	A	5	59	84.28571	43086.86	55	78.57143	27500	1122.881	93.01989	90.93921	14.12888	38.56	392.5557	39.145	98.61687	1.249001	14.17333	1.308001	1	3	1	0.15	4678	117	104.389	52.86888	3.741903	200.3087	171.4861	0.9153767	11.96761	338.8844
8/29/2014 5:12:30 PM	17:12:30	148	A	5	59	84.28571	43086.86	54	77.14286	27000	1127.613	94.342	90.93063	14.1285	39.015	392.6457	39.405	98.57278	1.195999	14.17371	1.301001	1	3	1	0.15	4646	115.6001	102.4361	53.24351	3.768518	200.3587	173.437	0.9129879	11.93638	338.0001
8/29/2014 5:12:40 PM	17:12:40	158	A	5	59	84.28571	43086.86	54	77.14286	27000	1124.74	93.81316	90.93063	14.1285	39.015	392.2405	39.95	98.83721	1.219999	14.17335	1.306999	1	3	1	0.15	4636	118.2002	104.5107	53.4835	3.785504	200.1336	173.574	0.9152041	11.96535	338.8205
8/29/2014 5:12:50 PM	17:12:50	168	A	5	59	84.28571	43086.86	55	78.57143	27500	1129.008	93.76909	90.97339	14.12888	39.27	392.4206	39.125	98.88128	1.226	14.17528	1.320999	1	3	1	0.15	4656	113.2002	100.8836	53.25888	3.769506	200.2337	173.0079	0.9225199	12.061	341.5289
8/29/2014 5:13:00 PM	17:13:00	178	A	5	59	84.28571	43086.86	55	78.57143	27500	1126.768	94.56236	90.97339	14.12888	39.36	392.1955	39.39999	98.92535	1.211	14.1726	1.325001	1	3	1	0.15	4678	115.3999	102.6076	53.49388	3.786139	200.1086	174.1997	0.9210097	12.04126	340.9698
8/29/2014 5:13:10 PM	17:13:10	188	A	5	59	84.28571	43086.86	54	78.57143	27500	1127.276	94.69456	90.99048	14.12887	39.705	391.9703	39.19	98.96943	1.261999	14.17239	1.315001	1	3	1	0.15	4660	115.6001	102.2128	53.25388	3.769152	199.9835	173.7423	0.9150648	11.96353	338.769
8/29/2014 5:13:20 PM	17:13:20	198	A	5	59	84.28571	43086.86	54	77.14286	27000	1129.473	95.26749	90.99048	14.12887	39.705	392.5557	39.215	99.0135	1.205	14.17242	1.313	1	3	1	0.15	4634	115.7998	101.9954	53.40387	3.779768	200.3087	174.5573	0.9167703	11.98583	339.4004
8/29/2014 5:13:30 PM	17:13:30	208	A	5	59	84.28571	43086.86	54	78.57143	27500	1125.205	95.79634	91.04181	14.12925	39.575	392.9609	38.53	99.14571	1.271999	14.17425	1.280001	1	3	1	0.15	4646	114.7998	101.5515	53.21426	3.766247	200.5338	174.5336	0.9069154	11.85699	335.752
8/29/2014 5:13:40 PM	17:13:40	218	A	5	59	84.28571	43086.86	54	77.14286	27000	1125.332	95.09122	91.06744	14.12888	39.66	392.5107	39.58501	99.32199	1.287001	14.17495	1.344999	1	3	1	0.15	4576	118.7998	103.8554	53.86888	3.81268	200.4838	175.5051	0.9276353	12.12788	343.4228
8/29/2014 5:13:50 PM	17:13:50	228	A	5	59	84.28571	43086.86	55	78.57143	27500	1123.642	94.69456	91.06744	14.12888	39.66	392.1054	39.905	99.36607	1.254	14.1738	1.333	1	3	1	0.15	4692	114.6001	102.3786	53.59387	3.793216	200.0586	174.5409	0.9234478	12.07313	341.8725
8/29/2014 5:14:00 PM	17:14:00	238	A	5	59	84.28571	43086.86	56	80	28000	1127.487	93.98943	91.1102	14.13	39.78	392.1505	39.11501	99.80676	1.240999	14.17387	1.306	1	3	1	0.15	4712	114.7998	102.815	53.175	3.763269	200.0836	172.9783	0.9137115	11.94584	338.2679
8/29/2014 5:14:10 PM	17:14:10	248	A	5	59	84.28571	43086.86	55	78.57143	27500	1125.628	93.98943	91.15295	14.13	39.97501	392.4206	39.41499	99.67456	1.219	14.17297	1.306	1	3	1	0.15	4683	115.2002	103.0739	53.065	3.755484	200.2337	172.7191	0.9137816	11.94676	338.2939
8/29/2014 5:14:20 PM	17:14:20	258	A	5	59	84.28571	43086.86	55	78.57143	27500	1120.304	93.41653	91.15295	14.13	39.97501	392.1955	39.535	99.71863	1.240999	14.17384	1.339001	1	3	1	0.15	4693	116.7998	104.1875	53.63	3.79547	200.1086	173.8681	0.9252269	12.09639	342.5311
8/29/2014 5:14:30 PM	17:14:30	268	A	5	59	84.28571	43086.86	54	77.14286	27000	1122.29	93.50466	91.17859	14.13037	38.89	392.2405	39.675	99.89491	1.219	14.17403	1.319	1	3	1	0.15	4668	116.6001	103.0991	53.88037	3.813089	200.1336	174.2355	0.9181653	12.00407	339.9168
8/29/2014 5:14:40 PM	17:14:40	278	A	5	59	82.85715	42356.57	55	78.57143	27500	1117.727	91.9622	91.18716	14.13037	38.14999	392.2855	39.60001	99.67456	1.294001	14.17801	1.327999	1	3	1	0.15	4626	120.3999	106.2232	53.93038	3.816628	200.1586	173.1041	0.9215912	12.04886	341.1851
8/29/2014 5:14:50 PM	17:14:50	288	A	5	59	84.28571	43086.86	55	80	28000	1117.473	91.03671	91.18716	14.13037	38.14999	392.4656	39.80499	99.85084	1.292999	14.17428	1.360001	1	3	1	0.15	4735	115	103.8579	54.22037	3.83715	200.2587	173.0263	0.929939	12.158	344.2756
8/29/2014 5:15:00 PM	17:15:00	298	A	5	59	84.28571	43086.86	55	80	28000	1116.079	90.46379	91.13583	14.13075	37.32001	393.0059	39.92	99.58641	1.181	14.17571	1.341	1	3	1	0.15	4746	116.3999	105.1832	54.31074	3.843444	200.5588	172.7671	0.9301891	12.16127	344.3682
8/29/2014 5:15:10 PM	17:15:10	308	A	5	59	84.28571	43086.86	56	80	28000	1113.755	89.89088	91.1102	14.13075	37.19501	393.186	40.33501	99.49827	1.253	14.17925	1.358999	1	3	1	0.15	4738	117.6001	106.2688	54.25575	3.839552	200.6589	172.1761	0.929701	12.15489	344.1875
8/29/2014 5:15:20 PM	17:15:20	318	A	5	59	84.28571	43086.86	55	78.57143	27500	1117.389	89.58238	91.1102	14.13075	37.19501	392.9609	39.77499	99.27791	1.284	14.176	1.327999	1	3	1	0.15	4706	116.3999	104.6551	53.53074	3.788245	200.5338	170.2493	0.9218596	12.05237	341.2845
8/29/2014 5:15:30 PM	17:15:30	328	A	5	59	84.28571	43086.86	55	78.57143	27500	1115.487	89.80274	91.09311	14.13	37.675	392.8708	39.985	99.18977	1.247999	14.17731	1.323	1	3	1	0.15	4709	116.7998	104.7218	54.205	3.836164	200.4838	171.9944	0.927492	12.12601	343.3697
8/29/2014 5:15:40 PM	17:15:40	338	A	5	59	84.28571	43086.86	55	78.57143	27500	1117.6	89.97901	91.05887	14.13037	37.72	393.0059	39.73	99.05756	1.281	14.1745	1.344	1	3	1	0.15	4682	113.3999	100.9125	53.90038	3.814505	200.5588	171.4304	0.9275006	12.12612	343.3729
8/29/2014 5:15:50 PM	17:15:50	348	A	5	59	84.28571	43086.86	55	78.57143	27500	1116.713	90.24344	91.05887	14.13037	37.72	393.0059	40.05499	99.05756	1.325001	14.17533	1.351999	1	3	1	0.15	4734	114.6001	103.6555	54.01038	3.822289	200.5588	171.8988	0.9302692	12.16232	344.3978
8/29/2014 5:16:00 PM	17:16:00	358	A	5	59	84.28571	43086.86	56	78.57143	27500	1117.727	90.1553	91.03323	14.13075	37.255	393.4561	40.045	98.83721	1.212	14.17574	1.344999	1	3	1	0.15	4728	116.2002	104.6045	54.38075	3.848398	200.809	172.6781	0.9280718	12.13359	343.5844
8/29/2014 5:16:10 PM	17:16:10	368	A	5	59	84.28571	43086.86	56	80	28000	1115.868	90.24344	91.0076	14.13037	37.3	393.6362	39.7	98.74907	1.254999	14.17573	1.327999	1	3	1	0.15	4744	116	104.7777	53.85538	3.81132	200.909	171.54	0.9240091	12.08047	342.0803
8/29/2014 5:16:20 PM	17:16:20	378	A	5	59	84.28571	43086.86	55	78.57143	27500	1120.177	91.30114	91.0076	14.13037	37.3	393.9063	39.78999	98.61687	1.236	14.17334	1.327	1	3	1	0.15	4712	116	103.8913	53.93038	3.816628	201.0591	172.5693	0.9219762	12.05389	341.3277
8/29/2014 5:16:30 PM	17:16:30	388	A	5	59	84.28571	43086.86	55	78.57143	27500	1115.192	91.03671	90.96484	14.13037	37.63	394.2215	39.64999	98.52871	1.282	14.17421	1.355	1	3	1	0.15	4674	120	107.1472	54.40038	3.849889	201.2342	173.4414	0.9317161	12.18123	344.9335
8/29/2014 5:16:40 PM	17:16:40	398	A	5	59	84.28571	43086.86	55	78.57143	27500	1116.586	90.55194	90.905	14.13037	38.08	394.8068	39.995	98.57278	1.273001	14.17569	1.343	1	3	1	0.15	4710	114.2002	102.2332	53.68537	3.799288	201.5594	171.3949	0.9276043	12.12747	343.4113
8/29/2014 5:16:50 PM	17:16:50	408	A	5	59	84.28571	43086.86	56	78.57143	27500	1120.135	90.19937	90.905	14.13037	38.08	395.3471	40.09	98.44057	1.275	14.1745	1.334999	1	3	1	0.15	4725	115	103.6385	53.71538	3.801412	201.8595	171.1798	0.9221662	12.05638	341.3979
8/29/2014 5:17:00 PM	17:17:00	418	A	5	59	84.28571	43086.86	55	80	28000	1122.755	90.72821	90.89645	14.13075	38.39	395.9324	40.08	98.35244	1.271	14.17661	1.319	1	3	1	0.15	4719	115	103.327	53.94575	3.817615	202.1847	172.1382	0.9209074	12.03992	340.932
8/29/2014 5:17:10 PM	17:17:10	428	A	5	59	84.28571	43086.86	55	78.57143	27500	1122.374	90.9045	90.86224	14.13112	38.825	395.7073	39.59	98.39651	1.181999	14.17601	1.306999	1	3	1	0.15	4707	117.2002	104.6773	53.40113	3.778972	202.0596	170.6911	0.9152935	11.96652	338.8536
8/29/2014 5:17:20 PM	17:17:20	438	A	5	58	84.28571	43086.86	55	78.57143	27500	1120.219	92.27069	90.86224	14.13112	38.825	395.8423	40.12	98.2643	1.266001	14.17648	1.35	1	3	1	0.15	4693	117	104.366	54.17612	3.833816	202.1346	173.9169	0.9302864	12.16254	344.4042
8/29/2014 5:17:30 PM	17:17:30	448	A	5	59	84.28571	43086.86	55	78.57143	27500	1116.839	91.43334	90.87079	14.13112	38.42	395.032	40.33	98.13208	1.311001	14.17709	1.368	1	3	1	0.15	4697	117.3999	105.1706	54.02113	3.822847	201.6844	172.88	0.9365751	12.24476	346.7324
8/29/2014 5:17:40 PM	17:17:40	458	A	5	59	84.28571	43086.86	55	80	28000	1114.727	90.9045	90.82803	14.13112	37.675	395.4822	40.125	98.30836	1.334999	14.17807	1.351	1	3	1	0.15	4729	115.6001	104.0863	53.94613	3.81754	201.9346	172.2784	0.9306576	12.16739	344.5417
8/29/2014 5:17:50 PM	17:17:50	468	A	5	59	84.28571	43086.86	56	80	28000	1115.361	90.68414	90.82803	14.13112	37.675	395.6172	39.905	98.17615	1.246	14.17355	1.33	1	3	1	0.15	4770	115	104.4437	54.16113	3.832754	202.0096	172.5972	0.9233876	12.07235	341.8502
8/29/2014 5:18:00 PM	17:18:00	478	A	5	59	84.28571	43086.86	56	80	28000	1114.178	90.50787	90.77676	14.13075	37.78	395.077	40.245	98.04394	1.322001	14.17473	1.372999	1	3	1	0.15	4751	116.6001	105.4752	54.45076	3.853353	201.7094	173.1251	0.9372713	12.25386	346.9901
8/29/2014 5:18:10 PM	17:18:10	488	A	5	59	84.28571	43086.86	55	80	28000	1112.741	90.06715	90.74255	14.13112	37.42999	394.8068	40.005	98.04394	1.221001	14.17858	1.337999	1	3	1	0.15	4750	116.6001	105.4529	54.21113	3.836293	201.5594	172.2128	0.9302061	12.16149	344.3745
8/29/2014 5:18:20 PM	17:18:20	498	A	5	59	84.28571	43086.86	56	80	28000	1114.769	90.24344	90.74255	14.13112	37.42999	394.9419	39.87	97.77951	1.261	14.17641	1.361	1	3	1	0.15	4729	116.6001	104.8065	54.16613	3.833108	201.6344	172.2518	0.9310344	12.17232	344.6811
8/29/2014 5:18:30 PM	17:18:30	508	A	5	59	84.28571	43086.86	55	78.57143	27500	1115.107	90.41972	90.69125	14.13112	37.74001	395.257	39.8	97.82359	1.27	14.17359	1.351999	1	3	1	0.15	4703	120.7998	107.9913	53.98612	3.82037	201.8095	171.9787	0.9312557	12.17521	344.7631
8/29/2014 5:18:40 PM	17:18:40	518	A	5	59	84.28571	43086.86	55	78.57143	27500	1114.473	90.24344	90.63141	14.13112	37.645	395.5272	40.08	97.69138	1.264	14.17818	1.347	1	3	1	0.15	4724	114.6001	102.8968	54.37612	3.847969	201.9596	172.7356	0.92979	12.15605	344.2204
8/29/2014 5:18:50 PM	17:18:50	528	A	5	59	84.28571	43086.86	56	80	28000	1114.896	89.97901	90.63141	14.13112	37.645	395.6623	40.28999	97.69138	1.294001	14.178	1.349001	1	3	1	0.15	4760	115.2002	104.7686	54.31612	3.843723	202.0346	172.3832	0.9304816	12.16509	344.4764
8/29/2014 5:19:00 PM	17:19:00	538	A	5	59	84.28571	43086.86	56	80	28000	1112.403	90.02309	90.58865	14.13112	38.005	395.3922	39.675	97.55917	1.218	14.17662	1.351999	1	3	1	0.15	4770	117.2002	106.0783	53.79612	3.806924	201.8845	171.2179	0.9312183	12.17472	344.7492
8/29/2014 5:19:10 PM	17:19:10	548	A	5	59	84.28571	43086.86	56	80	28000	1116.333	90.06715	90.55444	14.1315	37.94	395.4372	39.965	97.47102	1.264999	14.17509	1.344999	1	3	1	0.15	4755	115.3999	104.6586	53.8165	3.808265	201.9095	171.2975	0.9291826	12.14811	343.9956
8/29/2014 5:19:20 PM	17:19:20	558	A	5	58	82.85715	42356.57	56	78.57143	27500	1119.163	90.68414	90.55444	14.1315	37.94	395.9774	40.045	97.47102	1.23	14.17729	1.334999	1	3	1	0.15	4729	116	104.4464	53.76151	3.804374	202.2097	171.6687	0.9244242	12.0859	342.2339
8/29/2014 5:19:30 PM	17:19:30	568	A	5	59	84.28571	43086.86	55	80	28000	1115.699	90.33158	90.51169	14.1315	38	396.2476	39.875	97.47102	1.299	14.17707	1.344	1	3	1	0.15	4714	117.6001	105.3716	54.2515	3.839047	202.3598	172.4097	0.9289051	12.14448	343.8928
8/29/2014 5:19:40 PM	17:19:40	578	A	5	59	84.28571	43086.86	55	78.57143	27500	1116.628	90.68414	90.51169	14.1315	38	396.1125	39.87	97.47102	1.224001	14.17747	1.332001	1	3	1	0.15	4678	113.7998	101.3603	53.9765	3.819587	202.2847	172.167	0.930653	12.16733	344.5399
8/29/2014 5:19:50 PM	17:19:50	588	A	5	59	84.28571	43086.86	56	80	28000	1119.586	91.47741	90.4946	14.13112	38.215	396.1125	39.66499	97.47102	1.103001	14.17565	1.347	1	3	1	0.15	4742	115.2002	103.6499	53.64613	3.79631	202.2847	172.0447	0.9298871	12.15732	344.2564
8/29/2014 5:20:00 PM	17:20:00	598	A	5	59	84.28571	43086.86	56	80	28000	1122.501	91.47741	90.45184	14.13112	38.7	396.2926	39.395	97.25067	1.226	14.17774	1.34	1	3	1	0.15	4718	114.6001	102.9459	53.63613	3.795603	202.3848	172.0214	0.9277301	12.12912	343.4578
8/29/2014 5:20:10 PM	17:20:10	608	A	5	59	84.28571	43086.86	55	80	28000	1117.304	91.78591	90.40912	14.13075	38.52499	395.4822	39.535	97.38288	1.216	14.17495	1.33	1	3	1	0.15	4713	116	104.2727	54.25575	3.839552	201.9346	173.7117	0.924085	12.08146	342.1084
8/29/2014 5:20:20 PM	17:20:20	618	A	5	59	84.28571	43086.86	55	78.57143	27500	1112.488	90.77229	90.40912	14.13075	38.52499	394.8068	39.985	97.38288	1.173	14.17249	1.319	1	3	1	0.15	4717	116.6001	104.5405	53.49575	3.785769	201.5594	171.1284	0.920194	12.03059	340.6679
8/29/2014 5:20:30 PM	17:20:30	628	A	5	59	84.28571	43086.86	55	78.57143	27500	1114.558	90.19937	90.392	14.13075	38.56	395.122	39.62	97.29474	1.169001	14.1748	1.304001	1	3	1	0.15	4680	118.2002	105.681	54.08575	3.827522	201.7344	172.0339	0.91512	11.96425	338.7894
8/29/2014 5:20:40 PM	17:20:40	638	A	5	59	84.28571	43086.86	54	77.14286	27000	1115.023	90.19937	90.34073	14.13037	39.11	395.7973	39.99001	97.16252	1.247999	14.17468	1.337	1	3	1	0.15	4637	114.6001	101.1785	53.94037	3.817335	202.1096	171.7012	0.9266719	12.11528	343.066
8/29/2014 5:20:50 PM	17:20:50	648	A	5	58	84.28571	43086.86	55	78.57143	27500	1115.572	89.05354	90.34073	14.13037	39.11	395.5272	39.595	97.42695	1.202	14.17627	1.308001	1	3	1	0.15	4736	114.3999	102.7975	53.53037	3.788319	201.9596	169.8249	0.9164519	11.98167	339.2825
8/29/2014 5:21:00 PM	17:21:00	658	A	5	59	84.28571	43086.86	56	80	28000	1113.037	88.74504	90.28085	14.13075	39.35001	395.3922	39.825	97.29474	1.158001	14.17343	1.313999	1	3	1	0.15	4730	116	104.4685	53.91575	3.815491	201.8845	170.4644	0.9199525	12.02743	340.5784
8/29/2014 5:21:10 PM	17:21:10	668	A	5	59	84.28571	43086.86	55	78.57143	27500	1116.839	88.6569	90.28085	14.13075	39.35001	395.5272	39.72	97.16252	1.226	14.17361	1.323	1	3	1	0.15	4695	116	103.5165	53.54075	3.788954	201.9596	169.5254	0.9158899	11.97432	339.0744
8/29/2014 5:21:20 PM	17:21:20	678	A	5	58	84.28571	43086.86	54	77.14286	27000	1124.825	90.77229	90.25519	14.13	39.13	396.0675	39.44501	97.16252	1.266001	14.17442	1.315001	1	3	1	0.15	4655	115.7998	102.9895	53.555	3.790163	202.2597	171.273	0.9190409	12.01552	340.241
8/29/2014 5:21:35 PM	17:21:35	0	A	5	59	82.85715	42356.57	54	77.14286	27000	1113.417	90.02309	90.22955	14.13075	39.19	394.4916	39.66499	97.33881	1.284	14.17556	1.313999	1	3	1	0.15	4633	120.7998	106.5601	53.95575	3.818321	201.3842	171.5908	0.9185829	12.00953	340.0714
8/29/2014 5:21:45 PM	17:21:45	0	A	5	59	84.28571	43086.86	56	80	28000	1117.98	89.05354	90.1868	14.13075	39.31	393.4111	40.215	97.33881	1.349001	14.17628	1.363001	1	3	1	0.15	4748	115	104.143	54.29075	3.842029	200.7839	171.578	0.9334517	12.20392	345.576
8/29/2014 5:21:55 PM	17:21:55	0	A	5	60	85.71429	43817.14	58	82.85715	29000	1137.638	89.49424	90.14404	14.13075	39.955	396.5177	42.30499	97.33881	1.361	14.17849	1.444	1	3	1	0.15	4932	119.3999	111.7471	56.50075	3.998425	202.5098	176.9459	0.9642045	12.60598	356.9612
8/29/2014 5:22:05 PM	17:22:05	0	A	5	61	87.14285	44547.43	60	85.71429	30000	1156.939	89.4061	90.14404	14.13075	39.955	400.5698	43.89	97.2066	1.403999	14.1842	1.525	1	3	1	0.15	5176	122.3999	120.6262	58.23076	4.120854	204.761	180.698	0.9913342	12.96068	367.0049
8/29/2014 5:22:15 PM	17:22:15	0	A	5	61	87.14285	44547.43	61	87.14285	30500	1152.986	89.58238	90.0842	14.13075	40.245	403.2712	44.425	97.07439	1.485001	14.18106	1.525999	1	3	1	0.15	5254	127.3999	127.246	57.93574	4.099977	206.2618	180.1972	0.9903869	12.94829	366.6542
8/29/2014 5:22:25 PM	17:22:25	0	A	5	61	87.14285	44547.43	61	87.14285	30500	1165.995	89.31796	90.05856	14.13	39.98	405.2972	44.94	97.2066	1.513	14.18342	1.569	1	3	1	0.15	5236	132.7998	132.7916	59.115	4.183651	207.3874	182.5548	1.000302	13.07792	370.3247
8/29/2014 5:22:35 PM	17:22:35	0	A	5	62	88.57143	45277.71	62	88.57143	31000	1177.984	90.86044	90.05856	14.13	39.98	409.6195	44.645	96.94218	1.410999	14.18154	1.568001	1	3	1	0.15	5233	134.6001	134.5088	59.08	4.181174	209.7886	183.7592	1.003673	13.12199	371.5727
8/29/2014 5:22:45 PM	17:22:45	0	A	5	61	87.14285	44547.43	62	88.57143	31000	1174.54	93.5928	90.01581	14.13037	39.47	413.5815	44.13499	97.11845	1.473	14.18169	1.523001	1	3	1	0.15	5296	126.7998	128.2632	58.22538	4.120583	211.9898	184.1501	0.9890578	12.93092	366.1621
8/29/2014 5:22:55 PM	17:22:55	0	A	5	61	87.14285	44547.43	62	88.57143	31000	1166.718	92.18254	89.97305	14.13037	40.355	413.4465	44.39999	96.98624	1.389	14.1801	1.527	1	3	1	0.15	5298	127.7998	128.3116	57.94037	4.100413	211.9147	182.3569	0.9910792	12.95734	366.9105
8/29/2014 5:23:05 PM	17:23:05	0	A	5	61	87.14285	44547.43	62	88.57143	31000	1165.272	91.16891	89.97305	14.13037	40.355	412.9062	44.39999	97.11845	1.486	14.1805	1.538	1	3	1	0.15	5302	126.6001	127.1969	58.50537	4.140398	211.6146	182.7599	0.9932318	12.98549	367.7074
8/29/2014 5:23:15 PM	17:23:15	0	A	5	61	87.14285	44547.43	62	88.57143	31000	1162.636	90.59601	89.96448	14.13037	40.47501	412.501	44.17999	96.98624	1.424999	14.18025	1.514999	1	3	1	0.15	5289	129.2002	129.9061	58.26537	4.123413	211.3894	181.7607	0.9845951	12.87257	364.51
8/29/2014 5:23:25 PM	17:23:25	0	A	5	61	87.14285	44547.43	62	88.57143	31000	1163.274	90.86044	89.93884	14.13	39.625	412.9062	43.81	96.98624	1.421	14.17875	1.507999	1	3	1	0.15	5292	127.6001	128.7704	58.25	4.122434	211.6146	181.9491	0.9842261	12.86775	364.3734
8/29/2014 5:23:35 PM	17:23:35	0	A	5	61	87.14285	44547.43	62	88.57143	31000	1173.094	92.05034	89.93884	14.13	39.625	414.3019	44.42999	96.89811	1.427	14.1811	1.540001	1	3	1	0.15	5277	134.2002	134.4339	59.02501	4.177282	212.39	184.6271	0.9947246	13.005	368.2601
8/29/2014 5:23:45 PM	17:23:45	0	A	5	61	87.14285	44547.43	62	88.57143	31000	1170.331	91.43334	89.92175	14.13037	39.14999	414.1669	44.575	97.03031	1.559999	14.17945	1.518	1	3	1	0.15	5284	128.7998	129.7833	58.57038	4.144998	212.5401	183.1209	0.9874418	12.90979	365.5639
8/29/2014 5:23:55 PM	17:23:55	0	A	5	61	87.14285	44547.43	62	88.57143	31000	1152.603	90.86044	89.87045	14.13	38.89	412.9512	43.77	96.76588	1.431999	14.18161	1.507999	1	3	1	0.15	5299	125.3999	126.5195	58.195	4.118542	211.6396	181.8285	0.9845055	12.8714	364.4768
8/29/2014 5:24:05 PM	17:24:05	0	A	5	61	87.14285	44547.43	62	88.57143	31000	1152.178	90.64008	89.87045	14.13	38.89	412.546	43.63	97.03031	1.410999	14.17962	1.476	1	3	1	0.15	5298	123.6001	125.2854	57.8	4.090587	211.4145	180.7781	0.9737486	12.73076	360.4945
8/29/2014 5:24:15 PM	17:24:15	0	A	5	61	87.14285	44547.43	62	88.57143	31000	1157.705	90.94857	89.84479	14.13	39.12	412.3209	43.78999	96.80996	1.333	14.17749	1.502001	1	3	1	0.15	5289	125.2002	126.4823	57.375	4.060509	211.2894	180.0931	0.9823799	12.84361	363.6899
8/29/2014 5:24:25 PM	17:24:25	0	A	5	61	87.14285	44547.43	62	88.57143	31000	1178.876	92.57918	89.81915	14.13037	40.08	414.6171	43.785	96.67775	1.395	14.18119	1.51	1	3	1	0.15	5286	128.3999	128.8259	58.11538	4.112798	212.5651	183.0702	0.9852173	12.8807	364.7403
8/29/2014 5:24:35 PM	17:24:35	0	A	5	61	87.14285	44547.43	62	88.57143	31000	1175.985	93.63687	89.81915	14.13037	40.08	417.0484	43.97	96.54554	1.354	14.18242	1.535	1	3	1	0.15	5284	128.2002	129.381	58.54537	4.143228	213.9158	184.8904	0.993466	12.98855	367.7941
8/29/2014 5:24:45 PM	17:24:45	0	A	5	62	88.57143	45277.71	61	87.14285	30500	1183.978	93.63687	89.75928	14.13075	40.17	418.264	45.16	96.54554	1.462	14.18373	1.57	1	3	1	0.15	5245	138.6001	138.0131	59.63075	4.219928	214.5911	187.2538	1.006952	13.16486	372.7868
8/29/2014 5:24:55 PM	17:24:55	0	A	5	62	88.57143	45277.71	62	87.14285	30500	1197.03	94.78271	89.75076	14.13	40.32001	421.6407	45.58	96.67775	1.487	14.18197	1.587	1	3	1	0.15	5262	138.2002	138.6605	59.76001	4.2293	216.4671	188.4945	1.010904	13.21653	374.2497
8/29/2014 5:25:05 PM	17:25:05	0	A	5	62	88.57143	45277.71	62	90	31500	1193.161	93.50466	89.75076	14.13	40.32001	423.3966	46.16	96.80996	1.542	14.18338	1.576	1	3	1	0.15	5295	137.7998	138.7238	59.80999	4.232837	217.4426	187.5384	1.006385	13.15746	372.5771
8/29/2014 5:25:15 PM	17:25:15	0	A	5	62	88.57143	45277.71	62	88.57143	31000	1201.494	94.87086	89.75076	14.12963	40.98	426.008	46.09	96.72182	1.587999	14.18091	1.576	1	3	1	0.15	5298	138.7998	140.2145	59.86963	4.23717	218.8934	188.8088	1.006396	13.1576	372.581
8/29/2014 5:25:25 PM	17:25:25	0	A	5	62	88.57143	45277.71	62	90	31500	1197.072	94.12166	89.74219	14.13	41.495	426.1431	46.13499	96.72182	1.52	14.18352	1.594999	1	3	1	0.15	5305	136.7998	138.3796	60.01499	4.247346	218.9684	188.4952	1.012499	13.23739	374.8405
8/29/2014 5:25:35 PM	17:25:35	0	A	5	62	88.57143	45277.71	62	88.57143	31000	1197.072	93.10803	89.74219	14.13	41.495	425.0625	46.065	96.85404	1.389	14.18237	1.583	1	3	1	0.15	5301	138.6001	139.4867	60.23	4.262562	218.3681	188.1129	1.008537	13.18558	373.3734
8/29/2014 5:25:45 PM	17:25:45	0	A	5	62	88.57143	45277.71	63	90	31500	1203.449	95.13528	89.7764	14.13	41.325	426.5483	45.795	96.98624	1.504999	14.18258	1.58	1	3	1	0.15	5305	137.3999	139.3897	59.90499	4.239561	219.1935	189.1022	1.00747	13.17163	372.9785
8/29/2014 5:25:55 PM	17:25:55	0	A	5	62	88.57143	45277.71	62	88.57143	31000	1204.257	96.06076	89.79352	14.12963	41.06	428.0791	45.325	97.16252	1.445	14.18467	1.576	1	3	1	0.15	5309	138.3999	139.6972	59.78462	4.231154	220.0439	189.6155	1.006118	13.15396	372.4781
8/29/2014 5:26:05 PM	17:26:05	0	A	5	62	88.57143	45277.71	62	88.57143	31000	1206.893	95.84042	89.79352	14.12963	41.06	429.1596	45.535	97.16252	1.399	14.18246	1.575001	1	3	1	0.15	5307	137.7998	138.8359	59.76462	4.229738	220.6443	189.3886	1.005734	13.14894	372.3359
8/29/2014 5:26:15 PM	17:26:15	0	A	5	62	88.57143	45277.71	62	90	31500	1200.898	95.62006	89.78497	14.13	41.065	429.0246	45.575	97.29474	1.544001	14.18146	1.566	1	3	1	0.15	5321	132.3999	133.5286	59.77999	4.230714	220.5692	189.235	1.002718	13.10951	371.2195
8/29/2014 5:26:25 PM	17:26:25	0	A	5	62	88.57143	45277.71	62	88.57143	31000	1183.936	93.37246	89.81915	14.12963	41.095	427.0435	45.48	97.60324	1.469999	14.18185	1.534	1	3	1	0.15	5319	133.7998	135.7066	59.16962	4.187628	219.4686	186.0428	0.9922042	12.97205	367.327
8/29/2014 5:26:35 PM	17:26:35	0	A	5	62	88.57143	45277.71	62	88.57143	31000	1186.529	93.06396	89.81915	14.12963	41.095	426.0981	45.52499	97.60324	1.403999	14.18481	1.603001	1	3	1	0.15	5319	138.3999	139.3526	60.00963	4.247078	218.9434	187.6054	1.014264	13.26046	375.4939
8/29/2014 5:26:45 PM	17:26:45	0	A	5	62	88.57143	45277.71	62	88.57143	31000	1193.416	92.27069	89.83624	14.13	40.86501	426.7734	45.67999	97.73544	1.406	14.18009	1.561001	1	3	1	0.15	5317	139.3999	141.1222	59.515	4.21196	219.3186	185.8735	1.000678	13.08284	370.4643
8/29/2014 5:26:55 PM	17:26:55	0	A	5	62	88.57143	45277.71	63	90	31500	1187.677	90.99264	89.83624	14.12925	39.875	427.5838	46.23	97.60324	1.518999	14.18079	1.573999	1	3	1	0.15	5315	137.7998	139.6525	59.78925	4.231595	219.7688	185.4086	1.002088	13.10127	370.9861
8/29/2014 5:27:05 PM	17:27:05	3	A	6	62	88.57143	45277.71	63	90	31500	1195.414	90.99264	89.83624	14.12925	39.875	427.4938	45.965	97.64731	1.448	14.18245	1.579	1	3	1	0.15	5317	139	140.3125	60.23925	4.263443	219.7188	186.3743	1.005931	13.15152	372.4088
8/29/2014 5:27:15 PM	17:27:15	13	A	6	62	88.57143	45277.71	62	88.57143	31000	1192.438	90.86044	89.83624	14.12963	39.94501	427.2236	45.735	97.51508	1.461	14.18185	1.563999	1	3	1	0.15	5318	139.6001	141.3514	59.97462	4.244601	219.5687	185.6935	1.001895	13.09875	370.9146
8/29/2014 5:27:25 PM	17:27:25	23	A	6	63	90	46008	62	88.57143	31000	1192.906	90.64008	89.85336	14.13	39.64	427.5388	45.89999	97.55917	1.423	14.18031	1.572001	1	3	1	0.15	5314	138.6001	139.8287	59.895	4.238853	219.7438	185.3354	1.004348	13.13082	371.8228
8/29/2014 5:27:35 PM	17:27:35	33	A	6	63	88.57143	45277.71	63	90	31500	1195.287	91.56557	89.85336	14.13	39.64	428.6194	46.33	97.42695	1.485001	14.18222	1.577	1	3	1	0.15	5315	139.6001	141.0691	59.93999	4.242038	220.3441	186.2033	1.006106	13.15381	372.4738
8/29/2014 5:27:45 PM	17:27:45	43	A	6	62	90	46008	62	88.57143	31000	1195.074	91.74184	89.85336	14.12963	39.77	429.4297	46.05	97.29474	1.408001	14.18185	1.59	1	3	1	0.15	5313	136.3999	139.3974	60.48962	4.281049	220.7943	187.5319	1.010328	13.209	374.0366
8/29/2014 5:27:55 PM	17:27:55	53	A	6	62	88.57143	45277.71	63	90	31500	1199.58	92.49104	89.85336	14.12963	39.77	430.4261	45.64999	97.47102	1.476	14.18159	1.566999	1	3	1	0.15	5317	137.2002	138.6926	59.92462	4.241062	221.3478	186.9448	1.003818	13.12388	371.6264
8/29/2014 5:28:05 PM	17:28:05	63	A	6	62	88.57143	45277.71	63	90	31500	1189.845	92.79954	89.85336	14.12963	39.99001	430.5594	45.46001	97.33881	1.367001	14.18199	1.551001	1	3	1	0.15	5321	135.7998	137.9867	59.15962	4.186921	221.4219	185.5453	0.9978908	13.0464	369.4323
8/29/2014 5:28:15 PM	17:28:15	73	A	6	62	88.57143	45277.71	63	90	31500	1195.967	92.84361	89.89609	14.13	40.47	430.4705	45.505	97.25067	1.414	14.18273	1.554001	1	3	1	0.15	5316	136.2002	138.0592	59.79	4.231422	221.3725	186.9447	0.9989572	13.06034	369.8271
8/29/2014 5:28:25 PM	17:28:25	83	A	6	62	88.57143	45277.71	63	90	31500	1194.011	94.03352	89.88757	14.13037	40.31	431.271	45.53	97.38288	1.461	14.18375	1.540001	1	3	1	0.15	5321	136.7998	138.3918	59.83538	4.234521	221.8172	188.0303	0.9943949	13.00069	368.138
8/29/2014 5:28:35 PM	17:28:35	93	A	6	62	88.57143	45277.71	63	90	31500	1191.418	93.24023	89.88757	14.13037	40.31	431.6712	45.685	97.38288	1.377001	14.17891	1.548	1	3	1	0.15	5325	135	136.4681	59.50037	4.210813	222.0396	186.6447	0.9967745	13.0318	369.019
8/29/2014 5:28:45 PM	17:28:45	103	A	6	61	88.57143	45277.71	63	90	31500	1177.176	91.30114	89.91321	14.13	40.685	431.0486	45.05	97.29474	1.444	14.18298	1.530001	1	3	1	0.15	5320	134.3999	135.9349	59.205	4.190021	221.6937	184.3963	0.9873291	12.90831	365.5221
8/29/2014 5:28:55 PM	17:28:55	113	A	6	62	88.57143	45277.71	63	90	31500	1186.104	90.68414	89.93033	14.13	41.00999	429.9701	44.89	97.55917	1.452999	14.18052	1.518999	1	3	1	0.15	5328	133.3999	135.3275	59.355	4.200637	221.0945	184.2085	0.9873286	12.90831	365.522
8/29/2014 5:29:05 PM	17:29:05	123	A	6	62	88.57143	45277.71	63	90	31500	1185.934	89.89088	89.93033	14.13	41.00999	429.2047	45.2	97.47102	1.403	14.17897	1.523001	1	3	1	0.15	5325	133.7998	135.6567	58.755	4.158174	220.6693	182.2492	0.9886689	12.92583	366.0182
8/29/2014 5:29:15 PM	17:29:15	133	A	6	62	88.57143	45277.71	63	90	31500	1185.509	89.80274	89.93033	14.13037	41.075	428.3943	45	97.33881	1.416	14.1831	1.52	1	3	1	0.15	5329	132.3999	134.1356	58.85538	4.165168	220.219	182.3909	0.98796	12.91656	365.7557
8/29/2014 5:29:25 PM	17:29:25	143	A	6	62	88.57143	45277.71	63	90	31500	1188.484	90.72821	89.93033	14.13037	41.075	428.3943	45.22501	97.33881	1.444	14.18256	1.533001	1	3	1	0.15	5325	132.6001	134.4404	59.67037	4.222844	220.219	184.9222	0.9885737	12.92459	365.9829
8/29/2014 5:29:35 PM	17:29:35	153	A	6	62	88.57143	45277.71	62	88.57143	31000	1181.512	91.69777	89.96448	14.13	40.895	429.3847	44.91499	97.25067	1.372999	14.18244	1.532	1	3	1	0.15	5323	133.6001	135.4034	59.57501	4.216207	220.9944	185.5267	0.9918883	12.96792	367.21
8/29/2014 5:29:45 PM	17:29:45	163	A	6	62	88.57143	45277.71	62	90	31500	1196.647	92.66733	89.9816	14.12963	41.33	429.2497	45.34	97.25067	1.499001	14.18134	1.539	1	3	1	0.15	5311	135.7998	137.1205	59.15462	4.186566	220.6943	185.4246	0.9940909	12.99672	368.0255
8/29/2014 5:29:55 PM	17:29:55	173	A	6	62	88.57143	45277.71	62	88.57143	31000	1201.196	95.44378	89.99017	14.13075	41.53	431.4489	45.3	97.29474	1.527	14.1838	1.525999	1	3	1	0.15	5323	134.2002	136.4169	59.26075	4.193745	221.9161	187.9513	0.9850852	12.87898	364.6914
8/29/2014 5:30:05 PM	17:30:05	183	A	6	62	88.57143	45277.71	63	90	31500	1188.952	95.57599	89.99017	14.13075	41.53	431.7157	44.78	97.29474	1.33	14.18214	1.527	1	3	1	0.15	5323	134.7998	136.214	59.07075	4.180299	222.0643	187.6458	0.9902219	12.94613	366.5931
8/29/2014 5:30:15 PM	17:30:15	193	A	6	62	88.57143	45277.71	63	88.57143	31000	1201.111	94.25386	90.02435	14.13	41.35001	432.4272	45.24001	97.73544	1.393	14.18114	1.507	1	3	1	0.15	5319	133	133.8839	59.20001	4.189668	222.4596	186.8374	0.9852644	12.88132	364.7578
8/29/2014 5:30:25 PM	17:30:25	203	A	6	62	88.57143	45277.71	63	90	31500	1191.928	94.07759	90.02435	14.13	41.35001	432.2938	45.19501	97.60324	1.400999	14.18031	1.542	1	3	1	0.15	5324	128.7998	131.3741	59.175	4.187898	222.3855	186.6366	0.9947205	13.00495	368.2585
8/29/2014 5:30:35 PM	17:30:35	213	A	6	62	88.57143	45277.71	62	88.57143	31000	1190.695	93.37246	90.04999	14.13	40.98	431.4044	45.485	97.77951	1.415001	14.18071	1.525	1	3	1	0.15	5324	130.7998	132.5902	59.35501	4.200637	221.8914	186.4426	0.9897388	12.93982	366.4143
8/29/2014 5:30:45 PM	17:30:45	223	A	6	62	88.57143	45277.71	62	88.57143	31000	1188.229	91.69777	90.04144	14.13075	40.44	431.1821	45.13	97.82359	1.468	14.18275	1.52	1	3	1	0.15	5320	132.2002	134.3141	59.19075	4.18879	221.7678	184.6879	0.9875199	12.91081	365.5928
8/29/2014 5:30:55 PM	17:30:55	233	A	6	62	88.57143	45277.71	62	88.57143	31000	1195.967	92.44697	90.07565	14.13037	40.855	432.1159	45.19	97.69138	1.443001	14.18205	1.530001	1	3	1	0.15	5321	132.3999	134.3394	59.62038	4.219306	222.2866	186.2447	0.9895394	12.93721	366.3404
8/29/2014 5:31:05 PM	17:31:05	243	A	6	62	88.57143	45277.71	63	90	31500	1183.128	91.74184	90.07565	14.13037	40.855	431.4933	45.375	97.60324	1.422001	14.1814	1.533001	1	3	1	0.15	5322	131.6001	132.7432	59.87038	4.236999	221.9408	186.197	0.993452	12.98837	367.7889
8/29/2014 5:31:15 PM	17:31:15	253	A	6	62	88.57143	45277.71	62	88.57143	31000	1180.704	90.64008	90.10129	14.13037	40.53	429.6099	45.12	97.60324	1.459999	14.18393	1.51	1	3	1	0.15	5320	132	133.5035	59.49038	4.210106	220.8944	184.4608	0.9871038	12.90537	365.4388
8/29/2014 5:31:25 PM	17:31:25	263	A	6	62	88.57143	45277.71	63	90	31500	1178.409	90.68414	90.11841	14.13037	39.73	428.5743	45.25	97.51508	1.478001	14.18437	1.530001	1	3	1	0.15	5324	132.3999	133.4014	59.48537	4.209752	220.3191	184.4867	0.9900894	12.9444	366.544
8/29/2014 5:31:35 PM	17:31:35	273	A	6	62	88.57143	45277.71	63	90	31500	1178.706	91.34521	90.11841	14.13037	39.73	428.1691	45.435	97.51508	1.547001	14.18292	1.547001	1	3	1	0.15	5320	131.3999	132.8961	59.56537	4.215414	220.094	185.2092	0.9964952	13.02815	368.9156
8/29/2014 5:31:45 PM	17:31:45	283	A	6	62	88.57143	45277.71	62	88.57143	31000	1181.3	91.91813	90.10983	14.13075	38.765	428.7094	45.14999	97.38288	1.545	14.18225	1.544001	1	3	1	0.15	5327	132	134.0853	59.50575	4.211082	220.3941	185.5535	0.9965886	13.02937	368.9501
8/29/2014 5:31:55 PM	17:31:55	293	A	6	62	88.57143	45277.71	63	90	31500	1183.085	91.47741	90.10129	14.13	38.72	427.944	45.78999	97.29474	1.471001	14.18349	1.552999	1	3	1	0.15	5320	132.6001	134.3141	59.74501	4.228238	219.9689	185.7101	0.9986309	13.05607	369.7062
8/29/2014 5:32:05 PM	17:32:05	303	A	6	62	88.57143	45277.71	62	88.57143	31000	1184.403	90.06715	90.10129	14.13	38.72	427.944	45.84	97.29474	1.398001	14.18222	1.534	1	3	1	0.15	5321	131.7998	134.1366	59.82	4.233546	219.9689	184.9173	0.9924702	12.97553	367.4255
8/29/2014 5:32:15 PM	17:32:15	313	A	6	62	88.57143	45277.71	63	90	31500	1186.189	89.0976	90.09277	14.13037	39.84	427.854	45.24001	97.33881	1.372	14.18285	1.542999	1	3	1	0.15	5322	131	132.9461	59.57038	4.215768	219.9189	183.3503	0.9953606	13.01332	368.4955
8/29/2014 5:32:25 PM	17:32:25	323	A	6	62	88.57143	45277.71	62	88.57143	31000	1194.904	90.55194	90.0842	14.13075	39.72501	428.9796	46.015	97.25067	1.485001	14.18333	1.552	1	3	1	0.15	5315	130.3999	132.366	59.32576	4.198345	220.5442	184.0285	0.9983518	13.05243	369.6029
8/29/2014 5:32:35 PM	17:32:35	333	A	6	62	88.57143	45277.71	63	90	31500	1184.573	90.72821	90.0842	14.13075	39.72501	428.7094	45.495	97.11845	1.455999	14.18095	1.542	1	3	1	0.15	5323	131.7998	133.1735	59.81575	4.23302	220.3941	185.2317	0.9951551	13.01063	368.4194
8/29/2014 5:32:45 PM	17:32:45	343	A	6	62	88.57143	45277.71	63	90	31500	1181.895	90.33158	90.0842	14.12963	39.795	427.944	45.31	97.03031	1.441	14.18347	1.531	1	3	1	0.15	5315	133	135.1999	59.42963	4.20603	219.9689	184.0801	0.9917845	12.96656	367.1716
8/29/2014 5:32:55 PM	17:32:55	353	A	6	62	88.57143	45277.71	63	90	31500	1185.083	91.34521	90.0842	14.12963	39.795	428.2141	45.99001	97.16252	1.530001	14.18318	1.552	1	3	1	0.15	5318	129.3999	131.8336	59.70462	4.225492	220.119	185.5164	0.9948801	13.00704	368.3177
8/29/2014 5:33:05 PM	17:33:05	363	A	6	62	88.57143	45277.71	62	88.57143	31000	1178.749	90.64008	90.0842	14.12963	39.755	427.4037	45.24001	97.16252	1.393999	14.18217	1.535999	1	3	1	0.15	5323	131.2002	132.3629	59.78462	4.231154	219.6687	185.1016	0.993234	12.98552	367.7083
8/29/2014 5:33:15 PM	17:33:15	373	A	6	62	88.57143	45277.71	63	90	31500	1186.019	90.50787	90.06711	14.12963	39.285	427.3137	45.82001	96.94218	1.458	14.18318	1.535999	1	3	1	0.15	5322	132.2002	134.567	59.61963	4.219477	219.6187	184.6364	0.9934621	12.9885	367.7927
8/29/2014 5:33:25 PM	17:33:25	383	A	6	62	88.57143	45277.71	62	88.57143	31000	1178.451	90.77229	90.05856	14.13	38.66	427.0886	45.23	97.11845	1.448999	14.18341	1.549	1	3	1	0.15	5321	130	131.7052	60.16	4.257608	219.4937	186.014	0.9974996	13.04128	369.2874
8/29/2014 5:33:35 PM	17:33:35	393	A	6	62	88.57143	45277.71	62	88.57143	31000	1182.107	90.86044	90.05856	14.13	38.66	426.9535	45.87	96.98624	1.5	14.18645	1.57	1	3	1	0.15	5308	130.3999	132.394	60.385	4.273532	219.4186	186.5688	1.003806	13.12373	371.6221
8/29/2014 5:33:45 PM	17:33:45	403	A	6	62	88.57143	45277.71	63	90	31500	1184.531	91.213	90.02435	14.12925	39.50999	427.899	45.85001	96.85404	1.448999	14.18245	1.542999	1	3	1	0.15	5321	131.6001	132.9211	59.58425	4.217085	219.9439	185.1502	0.995774	13.01872	368.6486
8/29/2014 5:33:55 PM	17:33:55	413	A	6	62	88.57143	45277.71	63	90	31500	1181.682	90.9045	90.02435	14.12925	39.50999	427.944	45.515	96.89811	1.427999	14.18144	1.539	1	3	1	0.15	5320	130.6001	132.4906	59.82426	4.234072	219.9689	185.4105	0.9944042	13.00081	368.1414
8/29/2014 5:34:05 PM	17:34:05	423	A	6	62	88.57143	45277.71	63	90	31500	1185.253	90.37565	90.00723	14.13037	38.935	428.1241	45.50999	96.80996	1.476	14.18375	1.559	1	3	1	0.15	5315	132.3999	133.9853	59.70038	4.224968	220.0689	184.6934	1.000982	13.08681	370.5765
8/29/2014 5:34:15 PM	17:34:15	433	A	6	62	88.57143	45277.71	62	88.57143	31000	1188.187	89.84681	89.95596	14.12963	38.73	428.9345	45.905	96.94218	1.468	14.18318	1.532	1	3	1	0.15	5321	129.7998	131.0972	59.82463	4.233985	220.5192	184.527	0.9921822	12.97176	367.3188
8/29/2014 5:34:25 PM	17:34:25	443	A	6	62	88.57143	45277.71	62	88.57143	31000	1183.638	89.49424	89.94739	14.12963	39.06	428.2592	45.28	96.80996	1.454	14.18235	1.534	1	3	1	0.15	5319	130.7998	132.2634	59.61963	4.219477	220.144	183.793	0.995176	13.01091	368.4272
8/29/2014 5:34:35 PM	17:34:35	453	A	6	62	88.57143	45277.71	62	90	31500	1185.423	89.80274	89.94739	14.12963	39.06	428.3042	45.42	96.72182	1.483999	14.18373	1.545	1	3	1	0.15	5315	131.6001	133.378	59.63463	4.220539	220.169	184.082	0.994659	13.00415	368.2358
8/29/2014 5:34:45 PM	17:34:45	463	A	6	62	88.57143	45277.71	63	88.57143	31000	1178.791	89.75867	89.89609	14.13	39.53	427.899	45.965	96.72182	1.440001	14.18179	1.544001	1	3	1	0.15	5319	132.3999	134.0861	60.30999	4.268223	219.9439	185.4888	0.9961809	13.02404	368.7992
8/29/2014 5:34:55 PM	17:34:55	473	A	6	62	88.57143	45277.71	62	88.57143	31000	1185.849	90.55194	89.86191	14.13	40.16499	428.4393	45.37	96.58961	1.454	14.18396	1.530001	1	3	1	0.15	5321	132	134.1366	59.665	4.222576	220.244	184.7674	0.9918725	12.96772	367.2042
8/29/2014 5:35:05 PM	17:35:05	483	A	6	62	88.57143	45277.71	63	90	31500	1189.675	90.99264	89.86191	14.13	40.16499	429.4297	45.515	96.63368	1.437	14.18146	1.539	1	3	1	0.15	5324	130	131.9823	59.55	4.214437	220.7943	184.8862	0.9962642	13.02513	368.83
8/29/2014 5:35:15 PM	17:35:15	493	A	6	62	88.57143	45277.71	62	88.57143	31000	1187.847	90.41972	89.85336	14.13	40.22	429.4297	45.31	96.63368	1.497999	14.1841	1.547001	1	3	1	0.15	5325	131.6001	132.6151	59.79	4.231422	220.7943	184.9262	0.997306	13.03875	369.2157
8/29/2014 5:35:25 PM	17:35:25	503	A	6	62	88.57143	45277.71	63	90	31500	1183.595	89.4061	89.85336	14.13	40.22	427.809	45.455	96.63368	1.424999	14.18154	1.552999	1	3	1	0.15	5325	131	134.0349	59.98001	4.244869	219.8939	184.4894	0.9981807	13.05019	369.5396
8/29/2014 5:35:35 PM	17:35:35	513	A	6	62	88.57143	45277.71	63	90	31500	1178.196	88.96539	89.81061	14.12925	39.825	426.7734	45.82001	96.54554	1.499001	14.18071	1.556999	1	3	1	0.15	5326	131.2002	133.2485	60.29925	4.267689	219.3186	184.8104	1.000472	13.08014	370.3878
8/29/2014 5:35:45 PM	17:35:45	523	A	6	62	88.57143	45277.71	63	90	31500	1194.904	89.80274	89.78497	14.12963	39.3	426.2331	45.44501	96.41332	1.566999	14.18571	1.544001	1	3	1	0.15	5320	131.2002	132.4906	59.43962	4.206737	219.0184	183.662	0.9966155	13.02973	368.9601
8/29/2014 5:35:55 PM	17:35:55	533	A	6	62	88.57143	45277.71	62	88.57143	31000	1187.634	91.34521	89.75928	14.12887	39.36501	427.3137	45.94	96.41332	1.542999	14.18204	1.542	1	3	1	0.15	5330	131.3999	133.1459	59.86388	4.236989	219.6187	185.8662	0.995837	13.01955	368.6719
8/29/2014 5:36:05 PM	17:36:05	543	A	6	62	88.57143	45277.71	63	88.57143	31000	1187.804	90.55194	89.75928	14.12887	39.36501	426.5483	45.85001	96.58961	1.499001	14.18131	1.569	1	3	1	0.15	5327	131.7998	133.8822	59.47388	4.209385	219.1935	184.3656	1.003652	13.12172	371.565
8/29/2014 5:36:15 PM	17:36:15	553	A	6	62	88.57143	45277.71	63	90	31500	1183.085	89.71458	89.75076	14.13	39.64	425.6028	45.19	96.45739	1.424	14.18136	1.533001	1	3	1	0.15	5340	131.7998	134.4125	59.74501	4.228238	218.6682	184.2425	0.9906254	12.95141	366.7425
8/29/2014 5:36:25 PM	17:36:25	563	A	6	62	88.57143	45277.71	63	90	31500	1181.427	89.31796	89.75076	14.13	39.64	424.3871	45.94501	96.45739	1.500999	14.18295	1.554001	1	3	1	0.15	5332	130.6001	131.9774	60.055	4.250177	217.9929	184.5764	0.9996829	13.06983	370.0957
8/29/2014 5:36:35 PM	17:36:35	573	A	6	62	88.57143	45277.71	63	90	31500	1182.022	89.0976	89.71655	14.13	39.53	424.3871	45.645	96.45739	1.514999	14.18388	1.558001	1	3	1	0.15	5334	130.6001	133.0425	59.805	4.232484	217.9929	183.8575	0.9977962	13.04516	369.3972
8/29/2014 5:36:45 PM	17:36:45	583	A	6	62	88.57143	45277.71	63	90	31500	1181.215	89.36202	89.69089	14.13	39.67	424.7023	45.505	96.50147	1.492001	14.18309	1.562	1	3	1	0.15	5331	130	131.9527	59.675	4.223283	218.168	183.7986	1.002214	13.10291	371.0326
8/29/2014 5:36:55 PM	17:36:55	593	A	6	62	88.57143	45277.71	62	90	31500	1181.725	89.84681	89.64816	14.12925	40.045	425.3777	45.565	96.36926	1.469999	14.18245	1.569	1	3	1	0.15	5334	129.7998	132.4331	59.97425	4.244688	218.5432	184.8512	1.004523	13.1331	371.8874
8/29/2014 5:37:05 PM	17:37:05	603	A	6	62	88.57143	45277.71	62	88.57143	31000	1177.644	89.36202	89.64816	14.12925	40.045	425.1075	45.24001	96.36926	1.527	14.17966	1.534	1	3	1	0.15	5335	130.3999	132.4579	59.33926	4.199746	218.3931	183.0826	0.9932142	12.98526	367.7009
8/29/2014 5:37:15 PM	17:37:15	613	A	6	62	88.57143	45277.71	63	90	31500	1178.876	89.75867	89.58832	14.12963	39.455	425.7829	45.47501	96.36926	1.469999	14.18402	1.537001	1	3	1	0.15	5335	131.7998	133.2708	59.29962	4.196829	218.7683	183.3232	0.9943272	12.99981	368.1129
8/29/2014 5:37:25 PM	17:37:25	623	A	6	62	88.57143	45277.71	63	90	31500	1178.409	88.96539	89.58832	14.12963	39.455	424.0269	45.86	96.36926	1.495001	14.18102	1.552	1	3	1	0.15	5336	130.6001	133.2958	59.51462	4.212045	217.7928	183.1272	0.9990518	13.06158	369.8621
8/29/2014 5:37:35 PM	17:37:35	633	A	6	62	88.57143	45277.71	62	88.57143	31000	1177.686	88.61282	89.49423	14.12925	39.495	423.1265	45.69	96.41332	1.448	14.18133	1.544001	1	3	1	0.15	5332	131.3999	133.1959	59.68925	4.224516	217.2925	183.2124	0.9951565	13.01065	368.42
8/29/2014 5:37:45 PM	17:37:45	643	A	6	62	88.57143	45277.71	62	88.57143	31000	1179.854	89.36202	89.43439	14.13	39.11	423.5317	46.31	96.28111	1.521999	14.18696	1.566	1	3	1	0.15	5332	131	132.5867	60.29	4.266808	217.5176	185.115	1.00445	13.13216	371.8607
8/29/2014 5:37:55 PM	17:37:55	653	A	6	62	88.57143	45277.71	63	90	31500	1180.747	88.96539	89.33179	14.13037	38.985	422.5862	46.16	96.28111	1.518999	14.18542	1.584	1	3	1	0.15	5332	134.7998	136.8503	60.24538	4.263537	216.9924	184.6854	1.008862	13.18984	373.494
8/29/2014 5:38:05 PM	17:38:05	663	A	6	62	88.57143	45277.71	62	88.57143	31000	1182.49	88.74504	89.33179	14.13037	38.985	422.181	46.295	96.14891	1.507	14.18469	1.584999	1	3	1	0.15	5331	132.3999	134.5918	60.16538	4.257875	216.7672	184.3309	1.009907	13.20349	373.8807
8/29/2014 5:38:15 PM	17:38:15	673	A	6	62	88.57143	45277.71	62	88.57143	31000	1182.618	88.74504	89.25485	14.12925	38.49001	422.3161	46.325	96.14891	1.482	14.18382	1.587	1	3	1	0.15	5325	133	135.0488	60.32925	4.269813	216.8423	184.6904	1.010515	13.21144	374.1058
8/29/2014 5:38:32 PM	17:38:32	0	A	6	62	88.57143	45277.71	63	90	31500	1193.246	90.06715	89.15225	14.13	38.7	424.8824	46.46001	96.01669	1.613001	14.18627	1.614	1	3	1	0.15	5320	135	136.34	60.62001	4.290163	218.268	186.4069	1.017018	13.29647	376.5134
8/29/2014 5:38:42 PM	17:38:42	0	A	6	62	88.57143	45277.71	63	90	31500	1195.797	91.03671	89.08383	14.13037	39.41	426.2331	46.83	96.01669	1.551001	14.1843	1.608	1	3	1	0.15	5321	136.7998	138.5942	60.90038	4.309891	219.0184	187.8104	1.017271	13.29978	376.6071
8/29/2014 5:38:52 PM	17:38:52	0	A	6	63	90	46008	62	88.57143	31000	1202.004	90.77229	89.08383	14.13037	39.41	426.9084	46.755	95.88448	1.496	14.18238	1.617001	1	3	1	0.15	5325	139	140.5236	61.31537	4.33926	219.3936	188.4678	1.020148	13.33739	377.6723
8/29/2014 5:39:02 PM	17:39:02	0	A	6	63	90	46008	62	90	31500	1212.377	90.37565	89.02399	14.13	39.31	429.4748	47.655	96.01669	1.539	14.18609	1.663	1	3	1	0.15	5355	143	146.0055	61.6	4.359519	220.8193	188.7384	1.034514	13.52521	382.9907
8/29/2014 5:39:12 PM	17:39:12	0	A	6	63	90	46008	63	90	31500	1206.723	89.45017	88.94705	14.13	39.33501	431.0931	47.38	96.01669	1.577	14.18656	1.614	1	3	1	0.15	5370	143.2002	146.4145	61.27999	4.336871	221.7184	187.2879	1.021449	13.35439	378.1536
8/29/2014 5:39:22 PM	17:39:22	0	A	6	64	91.42857	46738.29	63	90	31500	1249.966	90.64008	88.94705	14.13	39.33501	432.783	50.08501	95.84042	1.707001	14.18941	1.764	1	3	1	0.15	5365	153.2002	156.4931	64.49001	4.564048	222.6572	194.7185	1.06771	13.95921	395.2802
8/29/2014 5:39:32 PM	17:39:32	0	A	6	64	91.42857	46738.29	63	90	31500	1238.909	90.33158	88.89575	14.12925	39.52	436.1183	50.22	95.84042	1.708	14.18917	1.752001	1	3	1	0.15	5370	154.3999	158.0703	63.79424	4.515048	224.5102	193.2663	1.062589	13.89226	393.3845
8/29/2014 5:39:42 PM	17:39:42	0	A	6	64	91.42857	46738.29	63	90	31500	1246.023	89.58238	88.81879	14.13	39.655	436.6964	49.56	95.75226	1.625999	14.18952	1.757	1	3	1	0.15	5379	156.6001	159.769	63.71999	4.509554	224.8313	192.4718	1.066596	13.94465	394.868
8/29/2014 5:39:52 PM	17:39:52	0	A	6	64	91.42857	46738.29	63	90	31500	1252.409	88.87725	88.81879	14.13	39.655	439.2312	50.17999	95.62006	1.658001	14.18829	1.764	1	3	1	0.15	5390	158.3999	162.1482	64.425	4.559448	226.2396	193.3119	1.065771	13.93386	394.5622
8/29/2014 5:40:02 PM	17:40:02	0	A	6	64	91.42857	46738.29	64	90	31500	1255.537	88.83318	88.77603	14.13	39.94501	441.1879	50.58501	95.70819	1.740999	14.19111	1.805	1	3	1	0.15	5392	156.6001	160.9762	64.51001	4.565464	227.3266	193.4471	1.078047	14.09435	399.1069
8/29/2014 5:40:12 PM	17:40:12	0	A	6	65	92.85714	47468.57	63	91.42857	32000	1257.851	89.18575	88.70764	14.13037	40.02	442.7889	50.37	95.57599	1.771	14.1886	1.773001	1	3	1	0.15	5392	159.6001	163.235	64.54536	4.567845	228.216	193.8153	1.068528	13.9699	395.5829
8/29/2014 5:40:22 PM	17:40:22	0	A	6	64	91.42857	46738.29	63	90	31500	1261.837	89.58238	88.70764	14.13037	40.02	444.123	50.685	95.57599	1.722	14.19141	1.792	1	3	1	0.15	5386	159.3999	163.8735	64.11037	4.537061	228.9572	193.267	1.074331	14.04578	397.7314
8/29/2014 5:40:32 PM	17:40:32	0	A	6	64	91.42857	46738.29	64	91.42857	32000	1262.094	90.28751	88.63071	14.13075	40.35001	445.0569	50.11501	95.70819	1.667999	14.18922	1.788	1	3	1	0.15	5389	158.6001	163.1441	63.96075	4.526352	229.4761	193.5562	1.072922	14.02736	397.2099
8/29/2014 5:40:42 PM	17:40:42	0	A	6	64	92.85714	47468.57	63	90	31500	1267.194	92.31477	88.58795	14.13075	41.07001	447.1915	51.015	95.57599	1.653999	14.19045	1.791	1	3	1	0.15	5385	157.3999	162.613	64.40575	4.557844	230.6619	196.1888	1.073987	14.04128	397.604
8/29/2014 5:40:52 PM	17:40:52	0	A	6	64	92.85714	47468.57	63	90	31500	1267.237	92.97582	88.58795	14.13075	41.07001	449.5484	50.39999	95.66412	1.672001	14.19107	1.774	1	3	1	0.15	5390	157.6001	161.1219	64.15575	4.540152	231.9714	196.2383	1.069147	13.978	395.8123
8/29/2014 5:41:02 PM	17:41:02	0	A	6	64	91.42857	46738.29	64	91.42857	32000	1257.551	94.342	88.55377	14.13037	41.3	451.4162	49.3	95.66412	1.507	14.18795	1.719999	1	3	1	0.15	5398	153.7998	158.2777	63.45038	4.490354	233.009	195.9448	1.053617	13.77496	390.0629
8/29/2014 5:41:12 PM	17:41:12	0	A	6	64	91.42857	46738.29	63	90	31500	1264.665	95.57599	88.52808	14.13037	41.8	451.3272	49.75	95.70819	1.587	14.18758	1.719	1	3	1	0.15	5390	153.7998	157.6328	63.77538	4.513354	232.9596	197.6641	1.052062	13.75463	389.4872
8/29/2014 5:41:22 PM	17:41:22	0	A	6	64	91.42857	46738.29	64	91.42857	32000	1274.522	96.89811	88.52808	14.13037	41.8	453.6842	49.535	95.79634	1.614	14.18762	1.724001	1	3	1	0.15	5390	154.7998	158.4536	64.01038	4.529984	234.269	199.2724	1.053495	13.77337	390.0177
8/29/2014 5:41:32 PM	17:41:32	0	A	6	64	91.42857	46738.29	63	91.42857	32000	1247.909	96.45739	88.51099	14.13	42.19501	454.3512	48.61501	95.92855	1.554001	14.18576	1.667999	1	3	1	0.15	5399	151.2002	155.429	62.68999	4.436659	234.6396	196.1493	1.034893	13.53016	383.1308
8/29/2014 5:41:42 PM	17:41:42	0	A	6	64	91.42857	46738.29	64	91.42857	32000	1254.766	96.14891	88.50244	14.13	42.10001	454.3512	48.515	96.06076	1.59	14.18566	1.662001	1	3	1	0.15	5398	149.7998	154.3724	62.845	4.447628	234.6396	196.2141	1.036314	13.54875	383.6572
8/29/2014 5:41:52 PM	17:41:52	0	A	6	64	91.42857	46738.29	63	90	31500	1249.537	95.70819	88.50244	14.13	42.10001	454.2178	49.105	96.06076	1.622999	14.18464	1.677999	1	3	1	0.15	5398	150.7998	155.1944	63.205	4.473106	234.5655	196.5941	1.039057	13.58461	384.6726
8/29/2014 5:42:02 PM	17:42:02	0	A	6	64	91.42857	46738.29	63	91.42857	32000	1255.109	93.68095	88.50244	14.12963	42.86501	452.6169	49.33501	96.19298	1.555	14.18694	1.698999	1	3	1	0.15	5391	150.7998	154.9931	63.09962	4.465768	233.6761	194.6639	1.04547	13.66844	387.0466
8/29/2014 5:42:12 PM	17:42:12	0	A	6	64	91.42857	46738.29	64	91.42857	32000	1261.408	96.32519	88.52808	14.13037	42.99001	454.7515	49.10001	96.19298	1.525999	14.18907	1.700001	1	3	1	0.15	5390	150	153.7327	63.28037	4.478322	234.8619	197.2698	1.043095	13.6374	386.1676
8/29/2014 5:42:22 PM	17:42:22	0	A	6	64	91.42857	46738.29	63	90	31500	1260.723	98.13208	88.52808	14.13037	42.99001	456.0856	48.99001	96.19298	1.554001	14.18907	1.683001	1	3	1	0.15	5392	149.3999	153.9953	63.13538	4.468061	235.6031	198.495	1.037245	13.56091	384.0016
8/29/2014 5:42:32 PM	17:42:32	9	A	7	63	90	46008	63	90	31500	1244.009	94.78271	88.52808	14.13037	42.84	453.8176	49.125	96.19298	1.59	14.18589	1.684	1	3	1	0.15	5392	150.2002	155.0219	62.83037	4.446476	234.3431	195.0263	1.037438	13.56344	384.0732
8/29/2014 5:42:42 PM	17:42:42	19	A	7	64	91.42857	46738.29	63	90	31500	1261.58	94.56236	88.53665	14.13	42.85001	454.8849	48.755	96.32519	1.584999	14.18844	1.695999	1	3	1	0.15	5391	152	155.8141	63.335	4.482307	234.9361	195.8953	1.044487	13.6556	386.6828
8/29/2014 5:42:52 PM	17:42:52	29	A	7	64	90	46008	64	91.42857	32000	1244.952	93.01989	88.53665	14.13	42.85001	454.5291	48.935	96.36926	1.591999	14.18772	1.709	1	3	1	0.15	5392	150	153.9953	63.335	4.482307	234.7384	194.5899	1.046845	13.68643	387.5558
8/29/2014 5:43:02 PM	17:43:02	39	A	7	63	91.42857	46738.29	63	90	31500	1238.266	91.87405	88.55377	14.13037	42.715	453.195	49.46001	96.36926	1.603001	14.18719	1.702999	1	3	1	0.15	5396	150.3999	154.726	63.35538	4.483631	233.9972	193.6589	1.046531	13.68232	387.4396
8/29/2014 5:43:12 PM	17:43:12	49	A	7	64	91.42857	46738.29	63	90	31500	1242.895	90.86044	88.55377	14.13	41.83501	452.1277	49.09	96.36926	1.662001	14.18761	1.693001	1	3	1	0.15	5396	150.7998	155.1369	63.41	4.487615	233.4043	192.9171	1.043486	13.64252	386.3123
8/29/2014 5:43:22 PM	17:43:22	59	A	7	64	90	46008	64	91.42857	32000	1235.224	90.11123	88.55377	14.13	41.83501	451.4606	49.09	96.23705	1.506001	14.18707	1.702	1	3	1	0.15	5393	150.6001	154.2294	63.49501	4.493631	233.0337	192.4578	1.046342	13.67985	387.3695
8/29/2014 5:43:32 PM	17:43:32	69	A	7	63	91.42857	46738.29	63	90	31500	1247.438	90.9045	88.55377	14.12963	41.32001	451.8609	49.675	96.36926	1.690001	14.1902	1.707001	1	3	1	0.15	5388	154	157.5743	62.98462	4.457628	233.2561	192.0784	1.047872	13.69985	387.936
8/29/2014 5:43:42 PM	17:43:42	79	A	7	64	91.42857	46738.29	63	91.42857	32000	1245.895	90.50787	88.55377	14.12925	41.63499	450.927	49.395	96.23705	1.634001	14.19083	1.743999	1	3	1	0.15	5388	153.2002	156.343	63.65925	4.505494	232.7372	193.1385	1.055931	13.80522	390.9196
8/29/2014 5:43:52 PM	17:43:52	89	A	7	64	91.42857	46738.29	63	91.42857	32000	1253.437	92.88767	88.55377	14.12925	41.63499	452.528	49.34	96.23705	1.598	14.18469	1.728001	1	3	1	0.15	5385	155	159.3318	63.20425	4.473291	233.6266	194.2139	1.054173	13.78223	390.2686
8/29/2014 5:44:02 PM	17:44:02	99	A	7	64	91.42857	46738.29	64	91.42857	32000	1253.48	93.5928	88.59647	14.13	41.74001	453.0616	49.02499	96.50147	1.636999	14.18869	1.737	1	3	1	0.15	5390	153.3999	157.2224	63.82501	4.516985	233.9231	196.0883	1.056799	13.81656	391.2407
8/29/2014 5:44:12 PM	17:44:12	109	A	7	64	91.42857	46738.29	64	90	31500	1256.223	92.66733	88.60504	14.12963	41.63	451.5051	50.08501	96.67775	1.594999	14.18803	1.738001	1	3	1	0.15	5392	152.6001	156.8696	64.42963	4.559896	233.0584	196.5479	1.056911	13.81803	391.2824
8/29/2014 5:44:22 PM	17:44:22	119	A	7	64	91.42857	46738.29	63	91.42857	32000	1265.951	93.46059	88.60504	14.12963	41.63	451.683	49.375	96.85404	1.653999	14.18723	1.707001	1	3	1	0.15	5393	154	157.5149	63.90462	4.52274	233.1572	196.1439	1.047309	13.69249	387.7275
8/29/2014 5:44:32 PM	17:44:32	129	A	7	64	91.42857	46738.29	63	90	31500	1262.523	93.37246	88.61359	14.12963	41.53	452.8837	49.78999	96.85404	1.572001	14.18593	1.704	1	3	1	0.15	5389	154	157.6035	63.82962	4.517432	233.8243	195.9145	1.048462	13.70756	388.1543
8/29/2014 5:44:42 PM	17:44:42	139	A	7	64	91.42857	46738.29	64	90	31500	1259.266	94.91492	88.6478	14.13037	41.215	454.3512	49.73	96.85404	1.558001	14.18545	1.736	1	3	1	0.15	5384	153.6001	157.8672	63.54537	4.497076	234.6396	196.6271	1.055746	13.8028	390.851
8/29/2014 5:44:52 PM	17:44:52	149	A	7	64	91.42857	46738.29	63	90	31500	1249.323	94.95899	88.6478	14.13037	41.215	454.7959	49.355	96.89811	1.705999	14.18733	1.724001	1	3	1	0.15	5391	154.7998	157.4565	63.65537	4.50486	234.8866	196.8925	1.050619	13.73577	388.953
8/29/2014 5:45:02 PM	17:45:02	159	A	7	65	92.85714	47468.57	63	91.42857	32000	1260.637	93.94537	88.67343	14.12963	41.285	453.5952	49.045	97.03031	1.582001	14.18936	1.712999	1	3	1	0.15	5397	153.3999	158.2484	63.49962	4.494077	234.2196	195.718	1.049051	13.71527	388.3726
8/29/2014 5:45:12 PM	17:45:12	169	A	7	64	91.42857	46738.29	64	90	31500	1260.98	94.82679	88.73328	14.13	41.64	454.3957	49.42	97.03031	1.618999	14.18721	1.725	1	3	1	0.15	5391	152.7998	157.662	63.77	4.513093	234.6643	197.0212	1.051104	13.74211	389.1325
8/29/2014 5:45:22 PM	17:45:22	179	A	7	64	91.42857	46738.29	64	91.42857	32000	1259.223	94.38609	88.73328	14.13	41.64	454.1289	49.91	97.16252	1.686001	14.1871	1.738001	1	3	1	0.15	5398	153.7998	158.4835	64.175	4.541755	234.5161	197.4827	1.056424	13.81166	391.102
8/29/2014 5:45:32 PM	17:45:32	189	A	7	64	91.42857	46738.29	63	91.42857	32000	1259.094	93.63687	88.74185	14.12925	41.83501	452.5724	49.83501	97.33881	1.664	14.18671	1.693001	1	3	1	0.15	5396	154.2002	158.2191	63.46426	4.491693	233.5772	195.387	1.041941	13.62231	385.7401
8/29/2014 5:45:42 PM	17:45:42	199	A	7	64	91.42857	46738.29	64	91.42857	32000	1253.994	94.38609	88.78461	14.12963	41.85001	452.8392	49.28999	97.47102	1.629999	14.19095	1.74	1	3	1	0.15	5403	155.2002	158.013	64.42963	4.559896	233.7996	198.0094	1.055366	13.79782	390.7102
8/29/2014 5:45:52 PM	17:45:52	209	A	7	64	91.42857	46738.29	64	91.42857	32000	1265.951	93.98943	88.78461	14.12963	41.85001	452.9726	48.87	97.47102	1.573	14.18474	1.702	1	3	1	0.15	5411	153	157.4224	63.20462	4.473198	233.8737	195.1431	1.045106	13.66369	386.912
8/29/2014 5:46:02 PM	17:46:02	219	A	7	64	91.42857	46738.29	64	91.42857	32000	1255.109	91.34521	88.83591	14.12963	41.63	452.4835	49.44501	97.73544	1.603001	14.18629	1.691	1	3	1	0.15	5406	153.6001	157.6891	62.89462	4.451259	233.5031	192.2641	1.04153	13.61693	385.588
8/29/2014 5:46:12 PM	17:46:12	229	A	7	64	91.42857	46738.29	64	91.42857	32000	1270.237	91.38927	88.87009	14.12963	41.505	453.5508	49.995	97.77951	1.663	14.18803	1.756001	1	3	1	0.15	5400	153	157.1024	64.21962	4.545033	234.1949	195.0319	1.061295	13.87534	392.9052
8/29/2014 5:46:22 PM	17:46:22	239	A	7	65	92.85714	47468.57	63	91.42857	32000	1264.88	92.09441	88.87009	14.12963	41.505	453.8621	49.205	97.69138	1.610001	14.18687	1.716999	1	3	1	0.15	5412	154.2002	158.8945	63.25963	4.477092	234.3678	193.6542	1.049541	13.72168	388.554
8/29/2014 5:46:32 PM	17:46:32	249	A	7	64	91.42857	46738.29	63	91.42857	32000	1254.251	92.18254	88.92139	14.13	41.375	452.3945	49.60001	97.69138	1.532	14.18515	1.724001	1	3	1	0.15	5406	152.2002	156.8653	63.96	4.526539	233.5525	195.1698	1.051614	13.74877	389.3212
8/29/2014 5:46:42 PM	17:46:42	259	A	7	64	91.42857	46738.29	63	90	31500	1262.823	93.98943	88.97272	14.13	41.36	452.9282	49.27499	97.82359	1.620001	14.1892	1.728001	1	3	1	0.15	5404	153.3999	157.8362	63.41	4.487615	233.849	195.5661	1.05284	13.7648	389.7749
8/29/2014 5:46:52 PM	17:46:52	269	A	7	64	91.42857	46738.29	63	90	31500	1266.122	94.47422	88.97272	14.13	41.36	453.5063	49.56	97.99987	1.663	14.19093	1.732	1	3	1	0.15	5400	154	157.9252	63.345	4.483014	234.1702	195.8415	1.053944	13.77924	390.184
8/29/2014 5:47:02 PM	17:47:02	279	A	7	64	91.42857	46738.29	64	90	31500	1264.494	95.88448	88.99835	14.12925	41.17	454.2178	49.58	98.04394	1.599001	14.18599	1.709999	1	3	1	0.15	5419	152.2002	155.7982	63.57925	4.499832	234.5655	197.5293	1.04705	13.6891	387.6315
8/29/2014 5:47:12 PM	17:47:12	289	A	7	64	91.42857	46738.29	63	90	31500	1261.494	95.22342	89.0582	14.12963	41.14	453.195	49.77	98.22021	1.516001	14.19001	1.728001	1	3	1	0.15	5413	153.3999	158.7175	63.64963	4.504693	233.9972	197.1116	1.052514	13.76054	389.6544
8/29/2014 5:47:22 PM	17:47:22	299	A	7	64	91.42857	46738.29	64	91.42857	32000	1260.937	93.19617	89.0582	14.12963	41.14	453.3284	49.825	98.35244	1.652	14.18691	1.749001	1	3	1	0.15	5411	156.7998	161.7497	63.79962	4.515309	234.0714	195.7031	1.0583	13.83618	391.7964
8/29/2014 5:47:32 PM	17:47:32	309	A	7	64	92.85714	47468.57	63	90	31500	1259.651	91.03671	89.10095	14.12963	41.105	452.1722	50.08501	98.39651	1.707001	14.19121	1.756001	1	3	1	0.15	5417	154.2002	159.2473	64.29962	4.550695	233.429	194.8959	1.06084	13.8694	392.737
8/29/2014 5:47:42 PM	17:47:42	319	A	7	65	91.42857	46738.29	64	91.42857	32000	1256.78	89.75867	89.16937	14.13	40.64999	450.838	50.11	98.39651	1.74	14.19068	1.768999	1	3	1	0.15	5414	156.2002	160.6021	63.755	4.512031	232.6878	192.6931	1.064105	13.91208	393.9456
8/29/2014 5:47:52 PM	17:47:52	329	A	7	64	91.42857	46738.29	64	90	31500	1259.608	89.84681	89.16937	14.13	40.64999	450.3489	49.655	98.17615	1.66	14.18894	1.726999	1	3	1	0.15	5412	155.6001	159.7187	64.145	4.539632	232.4161	193.5657	1.053706	13.77613	390.0959
8/29/2014 5:48:02 PM	17:48:02	339	A	7	65	91.42857	46738.29	64	91.42857	32000	1256.394	90.19937	89.22064	14.12925	40.2	450.6602	49.91499	98.22021	1.594	14.18649	1.764	1	3	1	0.15	5416	156.3999	161.4867	64.27425	4.549021	232.589	194.1359	1.067403	13.9552	395.1665
8/29/2014 5:48:12 PM	17:48:12	349	A	7	64	91.42857	46738.29	64	90	31500	1264.108	90.02309	89.24631	14.13	39.895	449.7263	50.575	98.08801	1.736	14.19061	1.782	1	3	1	0.15	5410	157	161.5135	64.89	4.592356	231.9961	195.2305	1.068293	13.96684	395.4961
8/29/2014 5:48:22 PM	17:48:22	359	A	7	64	91.42857	46738.29	64	91.42857	32000	1273.408	92.79954	89.24631	14.13	39.895	452.8392	50.35001	97.99987	1.705999	14.19028	1.757999	1	3	1	0.15	5407	158.6001	163.6891	64.27501	4.548832	233.7996	196.3401	1.066274	13.94044	394.7487
8/29/2014 5:48:32 PM	17:48:32	369	A	7	65	92.85714	47468.57	64	91.42857	32000	1279.836	93.28431	89.29761	14.12963	39.82001	454.0399	50.59	97.86765	1.625	14.19233	1.787001	1	3	1	0.15	5410	158.7998	163.9861	64.62462	4.573697	234.4666	197.4714	1.06826	13.9664	395.4838
8/29/2014 5:48:42 PM	17:48:42	379	A	7	65	92.85714	47468.57	63	91.42857	32000	1274.179	94.47422	89.33179	14.12963	40.245	455.1517	50.515	97.86765	1.716	14.19059	1.767	1	3	1	0.15	5409	158	162.3079	64.61963	4.573343	235.1337	198.4739	1.064319	13.91488	394.0249
8/29/2014 5:48:52 PM	17:48:52	389	A	7	64	92.85714	47468.57	63	90	31500	1288.407	94.73865	89.33179	14.12963	40.245	454.8849	50.25	97.77951	1.608	14.1894	1.750999	1	3	1	0.15	5403	158.6001	164.1853	63.91962	4.523801	234.9361	196.5487	1.059851	13.85647	392.3708
8/29/2014 5:49:02 PM	17:49:02	399	A	7	65	91.42857	46738.29	64	91.42857	32000	1268.479	95.88448	89.40021	14.12963	40.57001	458.5315	49.38	97.82359	1.533001	14.18785	1.733999	1	3	1	0.15	5435	153.7998	159.5698	63.40462	4.487353	236.9619	197.1627	1.05462	13.78807	390.4341
8/29/2014 5:49:12 PM	17:49:12	409	A	7	65	91.42857	46738.29	64	91.42857	32000	1262.094	94.29794	89.42584	14.13037	40.41	455.0627	48.985	97.9558	1.593	14.18751	1.702	1	3	1	0.15	5403	152.2002	157.1897	63.23038	4.474784	235.0349	195.4506	1.048403	13.7068	388.1326
8/29/2014 5:49:22 PM	17:49:22	419	A	7	64	91.42857	46738.29	63	90	31500	1265.78	93.94537	89.42584	14.13037	40.41	455.1072	49.425	97.99987	1.586	14.19069	1.736	1	3	1	0.15	5393	153.2002	157.5149	63.66538	4.505569	235.0596	196.0541	1.055162	13.79516	390.6349
8/29/2014 5:49:32 PM	17:49:32	429	A	7	65	91.42857	46738.29	64	91.42857	32000	1263.123	95.04713	89.4686	14.12963	40.41	456.7527	49.395	97.91174	1.635	14.18861	1.726	1	3	1	0.15	5396	152.6001	156.986	64.00462	4.529818	235.9737	197.6965	1.052126	13.75547	389.5109
8/29/2014 5:49:42 PM	17:49:42	439	A	7	64	91.42857	46738.29	64	91.42857	32000	1262.694	93.46059	89.51135	14.13	40.47501	455.5519	49.74001	97.91174	1.646999	14.19003	1.702999	1	3	1	0.15	5395	154	158.8062	63.345	4.483014	235.3066	194.9836	1.045196	13.66486	386.9451
8/29/2014 5:49:52 PM	17:49:52	449	A	7	65	91.42857	46738.29	64	91.42857	32000	1263.38	94.91492	89.51135	14.13	40.47501	456.6637	49.28999	97.9558	1.497999	14.18945	1.684	1	3	1	0.15	5399	153.2002	157.896	63.68499	4.507076	235.9243	196.92	1.039317	13.58801	384.7689
8/29/2014 5:50:02 PM	17:50:02	459	A	7	64	91.42857	46738.29	64	91.42857	32000	1258.966	95.09122	89.54556	14.12963	40.75	455.8633	49.69501	97.82359	1.687	14.18904	1.732	1	3	1	0.15	5400	154	158.3364	63.64963	4.504693	235.4796	196.9996	1.0504	13.73291	388.8719
8/29/2014 5:50:12 PM	17:50:12	469	A	7	64	91.42857	46738.29	64	90	31500	1263.765	94.87086	89.57977	14.12963	41.075	453.7731	48.905	97.73544	1.653999	14.1872	1.726	1	3	1	0.15	5395	152	155.7246	63.96962	4.52734	234.3184	197.4746	1.052251	13.7571	389.5571
8/29/2014 5:50:22 PM	17:50:22	479	A	7	64	91.42857	46738.29	63	91.42857	32000	1266.979	94.91492	89.57977	14.12963	41.075	453.951	49.755	97.77951	1.613001	14.18958	1.742001	1	3	1	0.15	5394	153.2002	157.339	63.55463	4.49797	234.4172	196.728	1.059541	13.8524	392.2558
8/29/2014 5:50:32 PM	17:50:32	489	A	7	64	91.42857	46738.29	63	91.42857	32000	1259.308	94.38609	89.62247	14.13037	40.89999	454.5291	49.30499	97.9558	1.629999	14.18715	1.705999	1	3	1	0.15	5400	152.6001	157.1024	63.58538	4.499907	234.7384	196.262	1.049919	13.72661	388.6936
8/29/2014 5:50:42 PM	17:50:42	499	A	7	64	91.42857	46738.29	64	90	31500	1254.594	92.57918	89.62247	14.13037	40.89999	454.6625	49.45	97.9558	1.65	14.19127	1.728001	1	3	1	0.15	5394	155.6001	160.2145	63.98537	4.528214	234.8125	195.5551	1.052801	13.76429	389.7607
8/29/2014 5:50:52 PM	17:50:52	509	A	7	65	91.42857	46738.29	63	90	31500	1272.165	95.62006	89.6738	14.13	40.73	455.7743	49.39	97.86765	1.702999	14.18775	1.722	1	3	1	0.15	5393	151.6001	156.0775	63.63	4.503184	235.4302	196.9181	1.050936	13.73991	389.0701
8/29/2014 5:51:02 PM	17:51:02	519	A	7	64	91.42857	46738.29	64	90	31500	1269.594	95.66412	89.71655	14.13037	40.465	456.975	49.07001	97.86765	1.563	14.19098	1.700001	1	3	1	0.15	5397	154.2002	158.2484	63.35538	4.483631	236.0972	196.8667	1.046476	13.68161	387.4193
8/29/2014 5:51:12 PM	17:51:12	529	A	7	64	91.42857	46738.29	63	90	31500	1266.465	96.19298	89.74219	14.13037	40.485	457.5531	48.94	97.91174	1.587999	14.18816	1.712	1	3	1	0.15	5392	152.6001	157.0752	64.05037	4.532815	236.4184	198.7566	1.050605	13.73559	388.9478
8/29/2014 5:51:22 PM	17:51:22	539	A	7	64	91.42857	46738.29	64	91.42857	32000	1263.08	95.53191	89.74219	14.13037	40.485	457.4197	49.23	98.04394	1.594	14.18856	1.712	1	3	1	0.15	5399	152.3999	156.6622	63.16538	4.470184	236.3443	196.3589	1.04746	13.69446	387.7834
8/29/2014 5:51:32 PM	17:51:32	549	A	7	65	91.42857	46738.29	63	90	31500	1269.251	94.16573	89.78497	14.13	40.35001	456.7971	48.925	98.08801	1.67	14.1879	1.698	1	3	1	0.15	5397	153	158.0427	63.765	4.512738	235.9984	196.4503	1.043404	13.64144	386.2818
8/29/2014 5:51:42 PM	17:51:42	559	A	7	64	91.42857	46738.29	64	91.42857	32000	1271.436	93.94537	89.82767	14.13	40.435	458.0423	49.705	98.13208	1.665001	14.18638	1.707001	1	3	1	0.15	5393	153.6001	158.1311	63.445	4.490092	236.6902	195.6013	1.046071	13.6763	387.2691
8/29/2014 5:51:52 PM	17:51:52	569	A	7	64	91.42857	46738.29	63	90	31500	1255.194	94.60643	89.82767	14.13	40.435	457.5086	49.855	98.13208	1.667	14.19032	1.695	1	3	1	0.15	5400	154	158.5422	63.8	4.515215	236.3937	196.8963	1.042547	13.63023	385.9646
8/29/2014 5:52:02 PM	17:52:02	579	A	7	64	91.42857	46738.29	64	90	31500	1252.366	92.22661	89.879	14.13	39.88	453.5508	49.99001	98.17615	1.653	14.1884	1.742001	1	3	1	0.15	5401	154.2002	158.3657	63.61	4.501769	234.1949	194.4866	1.056725	13.8156	391.2135
8/29/2014 5:52:12 PM	17:52:12	589	A	7	64	91.42857	46738.29	64	91.42857	32000	1247.266	91.78591	89.91321	14.13	39.325	452.7058	49.42	98.13208	1.672001	14.18913	1.733999	1	3	1	0.15	5397	153.2002	157.4265	64.05501	4.533263	233.7255	195.0282	1.054381	13.78495	390.3455
8/29/2014 5:52:22 PM	17:52:22	599	A	7	65	92.85714	47468.57	63	91.42857	32000	1258.194	92.53511	89.91321	14.13	39.325	453.2395	49.89999	98.13208	1.584	14.18967	1.733999	1	3	1	0.15	5396	153.7998	157.6025	63.55999	4.49823	234.0219	194.6449	1.05438	13.78493	390.3452
8/29/2014 5:52:32 PM	17:52:32	609	A	7	64	91.42857	46738.29	64	91.42857	32000	1255.837	92.22661	89.92175	14.13	39.14999	455.0183	49.52	98.17615	1.659	14.18949	1.709999	1	3	1	0.15	5399	154.3999	158.9239	63.86	4.519462	235.0102	195.0016	1.049176	13.71689	388.4185
8/29/2014 5:52:42 PM	17:52:42	619	A	7	64	91.42857	46738.29	63	90	31500	1251.937	91.56557	89.97305	14.13075	39.64	454.6181	49.46001	98.17615	1.645	14.18984	1.718	1	3	1	0.15	5394	153.6001	158.1604	63.71576	4.509015	234.7878	194.1374	1.054045	13.78055	390.2212
8/29/2014 5:52:52 PM	17:52:52	629	A	7	64	91.42857	46738.29	64	90	31500	1253.266	90.94857	89.97305	14.13075	39.64	454.5291	49.825	98.08801	1.548	14.18904	1.698	1	3	1	0.15	5394	153	157.5441	63.27075	4.477523	234.7384	192.6974	1.043464	13.64223	386.3041
8/29/2014 5:53:02 PM	17:53:02	639	A	7	64	92.85714	47468.57	63	90	31500	1266.851	92.79954	89.99017	14.12963	39.675	455.6409	49.58501	98.13208	1.629	14.18716	1.725	1	3	1	0.15	5393	151.7998	156.4881	64.08463	4.53548	235.3561	195.953	1.054906	13.79182	390.5401
8/29/2014 5:53:12 PM	17:53:12	649	A	7	64	91.42857	46738.29	64	90	31500	1267.579	94.6505	90.00723	14.12925	39.435	456.3524	49.10001	97.91174	1.645	14.18902	1.75	1	3	1	0.15	5395	154	157.1626	63.33926	4.482846	235.7514	195.9857	1.05608	13.80716	390.9745
8/29/2014 5:53:22 PM	17:53:22	659	A	7	65	92.85714	47468.57	63	90	31500	1263.68	95.66412	90.00723	14.12925	39.435	456.0856	49.185	98.04394	1.725	14.18921	1.733	1	3	1	0.15	5394	153.3999	157.7497	63.76925	4.513279	235.6031	197.7366	1.054145	13.78186	390.2581
8/29/2014 5:53:32 PM	17:53:32	669	A	7	64	91.42857	46738.29	64	90	31500	1260.851	96.01669	90.04144	14.12963	39.77499	455.0627	49.605	98.22021	1.665001	14.18792	1.702999	1	3	1	0.15	5396	154.6001	158.2191	63.67963	4.506816	235.0349	197.8462	1.042071	13.62401	385.7882
8/29/2014 5:53:42 PM	17:53:42	679	A	7	64	91.42857	46738.29	64	91.42857	32000	1261.494	96.06076	90.05856	14.12963	39.66	454.707	49	98.39651	1.563	14.1855	1.73	1	3	1	0.15	5399	155.2002	159.1292	63.49463	4.493723	234.8372	197.4992	1.052785	13.76408	389.7548
8/29/2014 5:56:23 PM	17:56:23	0	A	7	6	8.571429	4381.715	10	14.28572	5000	428.2592	92.97582	90.22101	14.13	38.69	315.1041	-0.1600037	98.705	1.199913E-02	14.13166	-5.200005E-02	1	3	1	0.15	751	6.600098	0.943749	13.97	0.9886763	157.28	32.896	-999	-999	-28288.48
8/29/2014 5:56:37 PM	17:56:37	0	A	7	-1	0	0	3	5.714286	2000	503.0502	94.69456	90.22101	14.12963	38.80499	310.1789	-0.3000031	98.88128	2.799988E-02	14.12999	-0.0529995	0	3	1	0.15	306	-1.200195	-0.0582623	13.82962	0.9787678	154.5438	32.98141	-999	-999	-28288.48
